Darstellungsparameter: Aktuell verwendete Einstellungen:
Skalierung der Graphiken ... ?
xyx+y,   Skalierungsfaktor:      Skalierung: Modus: x, Faktor: 1
Darstellungszeitraum ... ?
Vom - - bis: - -   Zeitraum: 10.12.2019 - 30.12.2019
Min/Max/Avg-Anzeige ... ?
Zeige MMA aktuell
Zeige MMA Monat
Zeige MMA alles
Zeige --A aktuell
Zeige --A Monat
Zeige --A alles
Keine MMA-Anzeige
MMA:
Average (ber die Originaldaten)
MMA-Basis: 10.12.2019 - 30.12.2019
Quicknavigation für Darstellung... ?
Tage:      1T, 2T, 3T, 5T -1T -2T -3T -5T +1T +2T +3T +5T
Wochen: 1W, 2W, 3W -1W -2W -3W +1W +2W +3W
Monate: 1M, 3M, 6M -1M -3M -6M +1M +3M +6M
Jahre:    1J, 3J, 5J, 10J -1J -3J -5J -10J +1J +3J +5J +10J
Nutze für die Darstellung ... ?
Originaldaten oder Mittelwerte auf ...
Stundenbasis Tagesbasis Wochenbasis
Monatsbasis Jahresbasis      Datenbasis: Original-Daten
Darstellen als:
Statistik (Auto) Statistik J:M      Darstellung:
Zur Graphik,    zurück zur Übersicht aller Sensoren.
 
Tabellarische Datenbersicht: ?
 
Sensor: Nr:Datum:Temp:Feuchte:
Aussen-T/F 1 10-12-2019 00:01:17 3.7 C 30 %
2 10-12-2019 00:11:17 4.1 C 28 %
3 10-12-2019 00:21:17 3.4 C 30 %
4 10-12-2019 00:31:17 3.6 C 30 %
5 10-12-2019 00:41:17 3.1 C 31 %
6 10-12-2019 00:51:17 3 C 31 %
7 10-12-2019 01:01:17 2.4 C 33 %
8 10-12-2019 01:11:17 2.4 C 36 %
9 10-12-2019 01:21:17 2.5 C 36 %
10 10-12-2019 01:31:18 2.8 C 34 %
11 10-12-2019 01:41:18 2.4 C 34 %
12 10-12-2019 01:51:17 2.4 C 33 %
13 10-12-2019 02:01:18 2.7 C 33 %
14 10-12-2019 02:11:18 2.9 C 32 %
15 10-12-2019 02:21:17 2.3 C 33 %
16 10-12-2019 02:31:17 2.1 C 35 %
17 10-12-2019 02:41:17 1.7 C 37 %
18 10-12-2019 02:51:17 1.6 C 39 %
19 10-12-2019 03:01:17 1.8 C 40 %
20 10-12-2019 03:11:17 1.8 C 40 %
21 10-12-2019 03:21:17 1.8 C 40 %
22 10-12-2019 03:31:17 2 C 40 %
23 10-12-2019 03:41:17 1.4 C 41 %
24 10-12-2019 03:51:17 1.4 C 43 %
25 10-12-2019 04:01:17 1.1 C 43 %
Sensor: Nr:Datum:Temp:Feuchte:
Aussen-T/F 26 10-12-2019 04:11:17 1.3 C 41 %
27 10-12-2019 04:21:17 0.6 C 41 %
28 10-12-2019 04:31:18 0.6 C 44 %
29 10-12-2019 04:41:18 0.7 C 45 %
30 10-12-2019 04:51:17 0.9 C 46 %
31 10-12-2019 05:01:17 1.1 C 44 %
32 10-12-2019 05:11:17 1.8 C 41 %
33 10-12-2019 05:21:18 2.2 C 35 %
34 10-12-2019 05:31:18 2 C 35 %
35 10-12-2019 05:41:18 2 C 35 %
36 10-12-2019 05:51:17 1.8 C 36 %
37 10-12-2019 06:01:17 1.5 C 36 %
38 10-12-2019 06:11:17 1.6 C 37 %
39 10-12-2019 06:21:18 1.4 C 36 %
40 10-12-2019 06:31:17 1.1 C 38 %
41 10-12-2019 06:41:17 0.9 C 42 %
42 10-12-2019 06:51:17 1.2 C 42 %
43 10-12-2019 07:01:18 1.3 C 40 %
44 10-12-2019 07:11:18 1.5 C 40 %
45 10-12-2019 07:21:17 1.7 C 36 %
46 10-12-2019 07:31:17 1.2 C 37 %
47 10-12-2019 07:41:17 0.8 C 41 %
48 10-12-2019 07:51:17 0.8 C 41 %
49 10-12-2019 08:01:17 0.7 C 41 %
50 10-12-2019 08:11:17 0.8 C 41 %
Sensor: Nr:Datum:Temp:Feuchte:
Aussen-T/F 51 10-12-2019 08:21:17 0.4 C 42 %
52 10-12-2019 08:31:18 0.6 C 42 %
53 10-12-2019 08:41:18 0.4 C 42 %
54 10-12-2019 08:51:17 0.4 C 43 %
55 10-12-2019 09:01:17 0.1 C 42 %
56 10-12-2019 09:11:17 0.5 C 44 %
57 10-12-2019 09:21:17 0.8 C 44 %
58 10-12-2019 09:31:17 1.4 C 42 %
59 10-12-2019 09:41:17 1.7 C 39 %
60 10-12-2019 09:51:17 1.8 C 39 %
61 10-12-2019 10:01:17 2.2 C 36 %
62 10-12-2019 10:11:17 2.5 C 35 %
63 10-12-2019 10:21:17 2.7 C 33 %
64 10-12-2019 10:31:17 2.7 C 33 %
65 10-12-2019 10:41:17 2.5 C 33 %
66 10-12-2019 10:51:17 2.4 C 35 %
67 10-12-2019 11:01:17 2.4 C 34 %
68 10-12-2019 11:11:17 2.5 C 34 %
69 10-12-2019 11:21:17 2.3 C 35 %
70 10-12-2019 11:31:18 2.2 C 36 %
71 10-12-2019 11:41:18 2.9 C 34 %
72 10-12-2019 11:51:17 3.5 C 30 %
73 10-12-2019 12:01:17 3.7 C 30 %
74 10-12-2019 12:11:17 3.8 C 30 %
75 10-12-2019 12:21:17 3.9 C 30 %
Sensor: Nr:Datum:Temp:Feuchte:
Aussen-T/F 76 10-12-2019 12:31:17 3.9 C 30 %
77 10-12-2019 12:41:17 4.3 C 27 %
78 10-12-2019 12:51:17 4.5 C 27 %
79 10-12-2019 13:01:17 4.6 C 27 %
80 10-12-2019 13:11:17 4.7 C 27 %
81 10-12-2019 13:21:17 4.7 C 27 %
82 10-12-2019 13:31:17 4.9 C 27 %
83 10-12-2019 13:41:17 5.1 C 25 %
84 10-12-2019 13:51:17 5 C 25 %
85 10-12-2019 14:01:17 4.6 C 27 %
86 10-12-2019 14:11:17 4.2 C 28 %
87 10-12-2019 14:21:17 3.8 C 30 %
88 10-12-2019 14:31:18 3.9 C 30 %
89 10-12-2019 14:41:18 3.8 C 30 %
90 10-12-2019 14:51:17 3.5 C 30 %
91 10-12-2019 15:01:17 3.5 C 30 %
92 10-12-2019 15:11:17 3.3 C 31 %
93 10-12-2019 15:21:17 3.2 C 31 %
94 10-12-2019 15:31:17 3.1 C 31 %
95 10-12-2019 15:41:18 3.2 C 31 %
96 10-12-2019 15:51:17 2.9 C 31 %
97 10-12-2019 16:01:17 2.4 C 32 %
98 10-12-2019 16:11:17 3.1 C 31 %
99 10-12-2019 16:21:17 3.4 C 30 %
100 10-12-2019 16:31:17 3.5 C 28 %
Sensor: Nr:Datum:Temp:Feuchte:
Aussen-T/F 101 10-12-2019 16:41:17 3.3 C 28 %
102 10-12-2019 16:51:17 3.3 C 26 %
103 10-12-2019 17:01:17 2.8 C 27 %
104 10-12-2019 17:11:17 2.7 C 27 %
105 10-12-2019 17:21:18 2.7 C 27 %
106 10-12-2019 17:31:17 2.7 C 27 %
107 10-12-2019 17:41:17 2.6 C 27 %
108 10-12-2019 17:51:17 2.4 C 28 %
109 10-12-2019 18:01:17 2.3 C 27 %
110 10-12-2019 18:11:17 1.7 C 31 %
111 10-12-2019 18:21:17 1.9 C 32 %
112 10-12-2019 18:31:17 1.8 C 33 %
113 10-12-2019 18:41:17 1.7 C 34 %
114 10-12-2019 18:51:17 1.6 C 35 %
115 10-12-2019 19:01:17 1.5 C 36 %
116 10-12-2019 19:11:17 1.5 C 36 %
117 10-12-2019 19:21:17 1.6 C 36 %
118 10-12-2019 19:31:17 1.5 C 36 %
119 10-12-2019 19:41:18 1.7 C 36 %
120 10-12-2019 19:51:17 1.7 C 35 %
121 10-12-2019 20:01:17 2.2 C 32 %
122 10-12-2019 20:11:17 2.1 C 32 %
123 10-12-2019 20:21:17 2.7 C 29 %
124 10-12-2019 20:31:18 2.9 C 28 %
125 10-12-2019 20:41:18 2.6 C 30 %
Sensor: Nr:Datum:Temp:Feuchte:
Aussen-T/F 126 10-12-2019 20:51:17 2.3 C 30 %
127 10-12-2019 21:01:17 2.5 C 31 %
128 10-12-2019 21:11:17 2.3 C 31 %
129 10-12-2019 21:21:17 2.1 C 32 %
130 10-12-2019 21:31:17 2 C 33 %
131 10-12-2019 21:41:18 1.8 C 35 %
132 10-12-2019 21:51:17 1.8 C 36 %
133 10-12-2019 22:01:17 1.8 C 36 %
134 10-12-2019 22:11:17 2.1 C 35 %
135 10-12-2019 22:21:17 2.2 C 34 %
136 10-12-2019 22:31:17 2.4 C 32 %
137 10-12-2019 22:41:17 2.5 C 33 %
138 10-12-2019 22:51:18 2.8 C 31 %
139 10-12-2019 23:01:17 2.9 C 30 %
140 10-12-2019 23:11:17 3 C 30 %
141 10-12-2019 23:21:17 3 C 30 %
142 10-12-2019 23:31:17 2.9 C 31 %
143 10-12-2019 23:41:17 3.3 C 28 %
144 10-12-2019 23:51:17 3.3 C 30 %
145 11-12-2019 00:01:18 3.2 C 30 %
146 11-12-2019 00:11:18 3.3 C 29 %
147 11-12-2019 00:21:17 3.4 C 28 %
148 11-12-2019 00:31:17 3.4 C 29 %
149 11-12-2019 00:41:17 3.5 C 27 %
150 11-12-2019 00:51:17 3.4 C 27 %
Sensor: Nr:Datum:Temp:Feuchte:
Aussen-T/F 151 11-12-2019 01:01:17 3.5 C 25 %
152 11-12-2019 01:11:17 3.4 C 27 %
153 11-12-2019 01:21:18 3.4 C 28 %
154 11-12-2019 01:31:17 3.4 C 29 %
155 11-12-2019 01:41:17 3.2 C 30 %
156 11-12-2019 01:51:17 3.1 C 32 %
157 11-12-2019 02:01:17 3 C 33 %
158 11-12-2019 02:11:17 2.9 C 33 %
159 11-12-2019 02:21:17 2.9 C 32 %
160 11-12-2019 02:31:18 2.8 C 34 %
161 11-12-2019 02:41:18 2.9 C 31 %
162 11-12-2019 02:51:17 3 C 30 %
163 11-12-2019 03:01:18 3.1 C 30 %
164 11-12-2019 03:11:18 3 C 32 %
165 11-12-2019 03:21:17 2.9 C 30 %
166 11-12-2019 03:31:17 3 C 30 %
167 11-12-2019 03:41:17 3 C 35 %
168 11-12-2019 03:51:17 2.8 C 36 %
169 11-12-2019 04:01:17 2.7 C 35 %
170 11-12-2019 04:11:17 2.8 C 35 %
171 11-12-2019 04:21:17 2.8 C 35 %
172 11-12-2019 04:31:18 2.8 C 38 %
173 11-12-2019 04:41:18 2.7 C 38 %
174 11-12-2019 04:51:17 2.7 C 39 %
175 11-12-2019 05:01:17 2.7 C 39 %
Sensor: Nr:Datum:Temp:Feuchte:
Aussen-T/F 176 11-12-2019 05:11:17 2.7 C 39 %
177 11-12-2019 05:21:18 2.7 C 40 %
178 11-12-2019 05:31:17 2.6 C 42 %
179 11-12-2019 05:41:17 2.6 C 43 %
180 11-12-2019 05:51:17 2.5 C 44 %
181 11-12-2019 06:01:18 2.5 C 44 %
182 11-12-2019 06:11:18 2.5 C 44 %
183 11-12-2019 06:21:17 2.5 C 44 %
184 11-12-2019 06:31:17 2.5 C 44 %
185 11-12-2019 06:41:17 2.5 C 44 %
186 11-12-2019 06:51:17 2.5 C 44 %
187 11-12-2019 07:01:17 2.4 C 44 %
188 11-12-2019 07:11:17 2.5 C 44 %
189 11-12-2019 07:21:17 2.4 C 44 %
190 11-12-2019 07:31:17 2.4 C 44 %
191 11-12-2019 07:41:18 2.4 C 43 %
192 11-12-2019 07:51:17 2.4 C 43 %
193 11-12-2019 08:01:17 2.4 C 43 %
194 11-12-2019 08:11:17 2.4 C 43 %
195 11-12-2019 08:21:17 2.4 C 43 %
196 11-12-2019 08:31:18 2.3 C 43 %
197 11-12-2019 08:41:18 2.3 C 43 %
198 11-12-2019 08:51:17 2.3 C 43 %
199 11-12-2019 09:01:18 2.3 C 43 %
200 11-12-2019 09:11:18 2.4 C 43 %
Sensor: Nr:Datum:Temp:Feuchte:
Aussen-T/F 201 11-12-2019 09:21:17 2.5 C 43 %
202 11-12-2019 09:31:17 2.5 C 43 %
203 11-12-2019 09:41:17 2.5 C 43 %
204 11-12-2019 09:51:17 2.5 C 43 %
205 11-12-2019 10:01:17 2.6 C 43 %
206 11-12-2019 10:11:17 2.7 C 43 %
207 11-12-2019 10:21:17 2.7 C 42 %
208 11-12-2019 10:31:17 2.7 C 42 %
209 11-12-2019 10:41:17 2.8 C 41 %
210 11-12-2019 10:51:17 3.1 C 40 %
211 11-12-2019 11:01:17 3 C 39 %
212 11-12-2019 11:11:17 3.1 C 39 %
213 11-12-2019 11:21:17 3.2 C 39 %
214 11-12-2019 11:31:17 3.1 C 38 %
215 11-12-2019 11:41:17 3.1 C 38 %
216 11-12-2019 11:51:17 3.2 C 39 %
217 11-12-2019 12:01:18 3.2 C 39 %
218 11-12-2019 12:11:18 3.1 C 39 %
219 11-12-2019 12:21:17 3.1 C 39 %
220 11-12-2019 12:31:17 3.1 C 40 %
221 11-12-2019 12:41:17 3.1 C 40 %
222 11-12-2019 12:51:17 3.1 C 40 %
223 11-12-2019 13:01:18 3.2 C 40 %
224 11-12-2019 13:11:18 3.2 C 40 %
225 11-12-2019 13:21:17 3.2 C 40 %
Sensor: Nr:Datum:Temp:Feuchte:
Aussen-T/F 226 11-12-2019 13:31:17 3.2 C 40 %
227 11-12-2019 13:41:17 3.2 C 40 %
228 11-12-2019 13:51:17 3.2 C 40 %
229 11-12-2019 14:01:17 3.2 C 41 %
230 11-12-2019 14:11:18 3.2 C 41 %
231 11-12-2019 14:21:17 3.2 C 41 %
232 11-12-2019 14:31:17 3.3 C 41 %
233 11-12-2019 14:41:17 3.3 C 42 %
234 11-12-2019 14:51:17 3.3 C 42 %
235 11-12-2019 15:01:17 3.3 C 42 %
236 11-12-2019 15:11:17 3.4 C 42 %
237 11-12-2019 15:21:17 3.3 C 42 %
238 11-12-2019 15:31:18 3.3 C 42 %
239 11-12-2019 15:41:18 3.3 C 42 %
240 11-12-2019 15:51:17 3.3 C 42 %
241 11-12-2019 16:01:17 3.2 C 42 %
242 11-12-2019 16:11:17 3.2 C 42 %
243 11-12-2019 16:21:17 3.2 C 42 %
244 11-12-2019 16:31:17 3.2 C 42 %
245 11-12-2019 16:41:17 3.1 C 42 %
246 11-12-2019 16:51:17 3.1 C 42 %
247 11-12-2019 17:01:17 3.1 C 43 %
248 11-12-2019 17:11:17 3.1 C 42 %
249 11-12-2019 17:21:17 3.1 C 42 %
250 11-12-2019 17:31:17 3.1 C 42 %
Sensor: Nr:Datum:Temp:Feuchte:
Aussen-T/F 251 11-12-2019 17:41:17 3.1 C 42 %
252 11-12-2019 17:51:18 3.2 C 43 %
253 11-12-2019 18:01:17 3.2 C 43 %
254 11-12-2019 18:11:17 3.3 C 43 %
255 11-12-2019 18:21:17 3.3 C 43 %
256 11-12-2019 18:31:18 3.4 C 43 %
257 11-12-2019 18:41:18 3.4 C 43 %
258 11-12-2019 18:51:17 3.5 C 43 %
259 11-12-2019 19:01:17 3.5 C 42 %
260 11-12-2019 19:11:17 3.5 C 42 %
261 11-12-2019 19:21:18 3.5 C 42 %
262 11-12-2019 19:31:17 3.5 C 42 %
263 11-12-2019 19:41:17 3.6 C 42 %
264 11-12-2019 19:51:18 3.6 C 42 %
265 11-12-2019 20:01:17 3.6 C 42 %
266 11-12-2019 20:11:17 3.7 C 42 %
267 11-12-2019 20:21:17 3.8 C 42 %
268 11-12-2019 20:31:18 3.8 C 42 %
269 11-12-2019 20:41:18 3.9 C 42 %
270 11-12-2019 20:51:17 4.1 C 41 %
271 11-12-2019 21:01:17 4.1 C 40 %
272 11-12-2019 21:11:17 4.3 C 39 %
273 11-12-2019 21:21:17 4.4 C 37 %
274 11-12-2019 21:31:17 4.1 C 37 %
275 11-12-2019 21:41:17 4.3 C 37 %
Sensor: Nr:Datum:Temp:Feuchte:
Aussen-T/F 276 11-12-2019 21:51:17 4.3 C 36 %
277 11-12-2019 22:01:17 4.5 C 35 %
278 11-12-2019 22:11:17 4.1 C 35 %
279 11-12-2019 22:21:17 3.9 C 37 %
280 11-12-2019 22:31:17 3.6 C 39 %
281 11-12-2019 22:41:17 3.8 C 39 %
282 11-12-2019 22:51:18 3.5 C 40 %
283 11-12-2019 23:01:17 3.8 C 40 %
284 11-12-2019 23:11:17 3.8 C 40 %
285 11-12-2019 23:21:17 3.4 C 40 %
286 11-12-2019 23:31:17 3 C 41 %
287 11-12-2019 23:41:17 3.4 C 43 %
288 11-12-2019 23:51:18 3.2 C 42 %
289 12-12-2019 00:01:17 3 C 42 %
290 12-12-2019 00:11:17 2.9 C 43 %
291 12-12-2019 00:21:17 2.8 C 43 %
292 12-12-2019 00:31:17 2.5 C 43 %
293 12-12-2019 00:41:17 2.4 C 43 %
294 12-12-2019 00:51:17 2.3 C 43 %
295 12-12-2019 01:01:17 2.7 C 44 %
296 12-12-2019 01:11:17 2.8 C 44 %
297 12-12-2019 01:21:18 2.6 C 43 %
298 12-12-2019 01:31:17 2.2 C 43 %
299 12-12-2019 01:41:17 2.5 C 43 %
300 12-12-2019 01:51:18 2.1 C 43 %
Sensor: Nr:Datum:Temp:Feuchte:
Aussen-T/F 301 12-12-2019 02:01:17 1.8 C 44 %
302 12-12-2019 02:11:17 1.6 C 44 %
303 12-12-2019 02:21:17 1.7 C 44 %
304 12-12-2019 02:31:18 1.6 C 44 %
305 12-12-2019 02:41:18 2 C 43 %
306 12-12-2019 02:51:17 2 C 43 %
307 12-12-2019 03:01:17 2.3 C 43 %
308 12-12-2019 03:11:17 2.4 C 43 %
309 12-12-2019 03:21:17 2.5 C 43 %
310 12-12-2019 03:31:17 2.4 C 43 %
311 12-12-2019 03:41:17 2.5 C 43 %
312 12-12-2019 03:51:17 2.7 C 43 %
313 12-12-2019 04:01:17 2.6 C 43 %
314 12-12-2019 04:11:17 2.7 C 43 %
315 12-12-2019 04:21:17 2.8 C 43 %
316 12-12-2019 04:31:17 2.8 C 43 %
317 12-12-2019 04:41:17 2.9 C 43 %
318 12-12-2019 04:51:17 2.4 C 42 %
319 12-12-2019 05:01:17 2 C 42 %
320 12-12-2019 05:11:17 2.1 C 42 %
321 12-12-2019 05:21:17 2.2 C 42 %
322 12-12-2019 05:31:18 2.1 C 42 %
323 12-12-2019 05:41:18 2.1 C 42 %
324 12-12-2019 05:51:17 2.1 C 42 %
325 12-12-2019 06:01:17 1.9 C 43 %
Sensor: Nr:Datum:Temp:Feuchte:
Aussen-T/F 326 12-12-2019 06:11:17 2 C 42 %
327 12-12-2019 06:21:17 2.1 C 42 %
328 12-12-2019 06:31:17 2.1 C 42 %
329 12-12-2019 06:41:17 2.3 C 42 %
330 12-12-2019 06:51:17 2.7 C 43 %
331 12-12-2019 07:01:17 3 C 42 %
332 12-12-2019 07:11:17 3 C 42 %
333 12-12-2019 07:21:17 3 C 42 %
334 12-12-2019 07:31:17 3 C 42 %
335 12-12-2019 07:41:17 2.8 C 42 %
336 12-12-2019 07:51:17 2.9 C 42 %
337 12-12-2019 08:01:17 2.9 C 42 %
338 12-12-2019 08:11:17 3.1 C 42 %
339 12-12-2019 08:21:17 3.2 C 42 %
340 12-12-2019 08:31:18 3.3 C 42 %
341 12-12-2019 08:41:18 3.5 C 42 %
342 12-12-2019 08:51:17 3.5 C 42 %
343 12-12-2019 09:01:18 3.5 C 42 %
344 12-12-2019 09:11:18 3.6 C 42 %
345 12-12-2019 09:21:17 3.9 C 42 %
346 12-12-2019 09:31:17 3.9 C 42 %
347 12-12-2019 09:41:17 3.7 C 41 %
348 12-12-2019 09:51:17 3.5 C 41 %
349 12-12-2019 10:01:17 3.9 C 41 %
350 12-12-2019 10:11:17 4 C 40 %
Sensor: Nr:Datum:Temp:Feuchte:
Aussen-T/F 351 12-12-2019 10:21:18 4.4 C 37 %
352 12-12-2019 10:31:17 4.6 C 35 %
353 12-12-2019 10:41:17 4.7 C 32 %
354 12-12-2019 10:51:17 4.8 C 31 %
355 12-12-2019 11:01:18 4.7 C 32 %
356 12-12-2019 11:11:18 4.6 C 31 %
357 12-12-2019 11:21:17 4.4 C 31 %
358 12-12-2019 11:31:17 4.4 C 32 %
359 12-12-2019 11:41:17 4.7 C 31 %
360 12-12-2019 11:51:18 4.9 C 29 %
361 12-12-2019 12:01:17 5.1 C 29 %
362 12-12-2019 12:11:17 5.1 C 27 %
363 12-12-2019 12:21:17 5 C 26 %
364 12-12-2019 12:31:18 4.7 C 27 %
365 12-12-2019 12:41:18 4.7 C 28 %
366 12-12-2019 12:51:17 4.7 C 27 %
367 12-12-2019 13:01:17 4.6 C 28 %
368 12-12-2019 13:11:18 5 C 26 %
369 12-12-2019 13:21:17 4.8 C 27 %
370 12-12-2019 13:31:17 4.6 C 26 %
371 12-12-2019 13:41:17 4.2 C 26 %
372 12-12-2019 13:51:17 4.6 C 25 %
373 12-12-2019 14:01:17 4.6 C 25 %
374 12-12-2019 14:11:17 4.3 C 25 %
375 12-12-2019 14:21:17 4 C 27 %
Sensor: Nr:Datum:Temp:Feuchte:
Aussen-T/F 376 12-12-2019 14:31:18 4.5 C 25 %
377 12-12-2019 14:41:18 4.8 C 25 %
378 12-12-2019 14:51:17 4.7 C 25 %
379 12-12-2019 15:01:18 4 C 26 %
380 12-12-2019 15:11:18 4.2 C 26 %
381 12-12-2019 15:21:17 3.6 C 29 %
382 12-12-2019 15:31:17 3.5 C 29 %
383 12-12-2019 15:41:17 3.8 C 28 %
384 12-12-2019 15:51:17 3.7 C 28 %
385 12-12-2019 16:01:17 3.6 C 28 %
386 12-12-2019 16:11:17 3.7 C 26 %
387 12-12-2019 16:21:18 3.5 C 27 %
388 12-12-2019 16:31:17 3.4 C 26 %
389 12-12-2019 16:41:17 3.3 C 28 %
390 12-12-2019 16:51:17 3.1 C 30 %
391 12-12-2019 17:01:17 2.6 C 30 %
392 12-12-2019 17:11:17 1.7 C 35 %
393 12-12-2019 17:21:17 1.2 C 36 %
394 12-12-2019 17:31:17 1.1 C 38 %
395 12-12-2019 17:41:17 0.9 C 41 %
396 12-12-2019 17:51:17 1 C 40 %
397 12-12-2019 18:01:17 1.1 C 40 %
398 12-12-2019 18:11:17 1.1 C 40 %
399 12-12-2019 18:21:17 1.1 C 40 %
400 12-12-2019 18:31:17 1 C 40 %
Sensor: Nr:Datum:Temp:Feuchte:
Aussen-T/F 401 12-12-2019 18:41:17 0.9 C 41 %
402 12-12-2019 18:51:17 0.7 C 41 %
403 12-12-2019 19:01:17 0.7 C 41 %
404 12-12-2019 19:11:17 0.6 C 41 %
405 12-12-2019 19:21:17 0.6 C 42 %
406 12-12-2019 19:31:17 0.6 C 42 %
407 12-12-2019 19:41:17 0.7 C 42 %
408 12-12-2019 19:51:17 0.7 C 41 %
409 12-12-2019 20:01:17 0.6 C 41 %
410 12-12-2019 20:11:17 0.6 C 41 %
411 12-12-2019 20:21:17 0.6 C 41 %
412 12-12-2019 20:31:17 0.6 C 41 %
413 12-12-2019 20:41:17 0.6 C 41 %
414 12-12-2019 20:51:17 1.3 C 42 %
415 12-12-2019 21:01:17 1.6 C 38 %
416 12-12-2019 21:11:17 1.6 C 36 %
417 12-12-2019 21:21:17 1.3 C 36 %
418 12-12-2019 21:31:17 1.3 C 35 %
419 12-12-2019 21:41:17 1 C 35 %
420 12-12-2019 21:51:17 0.7 C 37 %
421 12-12-2019 22:01:17 1.2 C 37 %
422 12-12-2019 22:11:17 0.9 C 37 %
423 12-12-2019 22:21:18 0.4 C 38 %
424 12-12-2019 22:31:17 0.3 C 39 %
425 12-12-2019 22:41:17 0.2 C 40 %
Sensor: Nr:Datum:Temp:Feuchte:
Aussen-T/F 426 12-12-2019 22:51:17 0.4 C 39 %
427 12-12-2019 23:01:18 1.1 C 37 %
428 12-12-2019 23:11:18 1.5 C 35 %
429 12-12-2019 23:21:17 1.9 C 32 %
430 12-12-2019 23:31:17 1.6 C 31 %
431 12-12-2019 23:41:17 1.4 C 32 %
432 12-12-2019 23:51:17 1.5 C 31 %
433 13-12-2019 00:01:17 0.9 C 33 %
434 13-12-2019 00:11:17 0.6 C 35 %
435 13-12-2019 00:21:17 1 C 33 %
436 13-12-2019 00:31:18 0.7 C 34 %
437 13-12-2019 00:41:18 0.9 C 35 %
438 13-12-2019 00:51:17 1.3 C 32 %
439 13-12-2019 01:01:18 1.7 C 30 %
440 13-12-2019 01:11:18 1.8 C 29 %
441 13-12-2019 01:21:17 2 C 27 %
442 13-12-2019 01:31:17 1.9 C 28 %
443 13-12-2019 01:41:17 2 C 27 %
444 13-12-2019 01:51:17 2 C 27 %
445 13-12-2019 02:01:18 1.9 C 29 %
446 13-12-2019 02:11:18 2 C 27 %
447 13-12-2019 02:21:17 2 C 27 %
448 13-12-2019 02:31:17 2 C 27 %
449 13-12-2019 02:41:17 2 C 27 %
450 13-12-2019 02:51:17 2 C 27 %
Sensor: Nr:Datum:Temp:Feuchte:
Aussen-T/F 451 13-12-2019 03:01:17 1.8 C 29 %
452 13-12-2019 03:11:17 1.8 C 30 %
453 13-12-2019 03:21:17 1.7 C 30 %
454 13-12-2019 03:31:17 1.6 C 30 %
455 13-12-2019 03:41:17 1.7 C 30 %
456 13-12-2019 03:51:17 1.6 C 31 %
457 13-12-2019 04:01:17 1.4 C 32 %
458 13-12-2019 04:11:17 1.5 C 32 %
459 13-12-2019 04:21:17 1.6 C 32 %
460 13-12-2019 04:31:17 1.6 C 32 %
461 13-12-2019 04:41:17 1.6 C 32 %
462 13-12-2019 04:51:17 1.4 C 34 %
463 13-12-2019 05:01:17 1.4 C 35 %
464 13-12-2019 05:11:17 1.5 C 34 %
465 13-12-2019 05:21:17 1.5 C 34 %
466 13-12-2019 05:31:18 1.7 C 33 %
467 13-12-2019 05:41:18 1.7 C 32 %
468 13-12-2019 05:51:17 1.8 C 33 %
469 13-12-2019 06:01:17 1.9 C 32 %
470 13-12-2019 06:11:17 2 C 31 %
471 13-12-2019 06:21:17 2 C 31 %
472 13-12-2019 06:31:17 2 C 32 %
473 13-12-2019 06:41:17 1.7 C 35 %
474 13-12-2019 06:51:17 1.8 C 37 %
475 13-12-2019 07:01:17 1.8 C 37 %
Sensor: Nr:Datum:Temp:Feuchte:
Aussen-T/F 476 13-12-2019 07:11:18 1.7 C 39 %
477 13-12-2019 07:21:17 1.8 C 38 %
478 13-12-2019 07:31:17 1.8 C 40 %
479 13-12-2019 07:41:17 1.8 C 39 %
480 13-12-2019 07:51:17 1.9 C 38 %
481 13-12-2019 08:01:17 1.8 C 38 %
482 13-12-2019 08:11:17 1.8 C 39 %
483 13-12-2019 08:21:17 1.7 C 40 %
484 13-12-2019 08:31:17 1.7 C 41 %
485 13-12-2019 08:41:17 1.6 C 41 %
486 13-12-2019 08:51:17 1.7 C 41 %
487 13-12-2019 09:01:17 1.9 C 40 %
488 13-12-2019 09:11:17 1.9 C 40 %
489 13-12-2019 09:21:17 1.9 C 40 %
490 13-12-2019 09:31:17 1.7 C 42 %
491 13-12-2019 09:41:17 1.7 C 42 %
492 13-12-2019 09:51:18 1.9 C 43 %
493 13-12-2019 10:01:17 1.8 C 43 %
494 13-12-2019 10:11:17 1.9 C 43 %
495 13-12-2019 10:21:18 2 C 41 %
496 13-12-2019 10:31:17 2.2 C 41 %
497 13-12-2019 10:41:17 2.3 C 41 %
498 13-12-2019 10:51:18 2.3 C 41 %
499 13-12-2019 11:01:17 2.4 C 41 %
500 13-12-2019 11:11:17 2.3 C 40 %
Sensor: Nr:Datum:Temp:Feuchte:
Aussen-T/F 501 13-12-2019 11:21:17 2.3 C 40 %
502 13-12-2019 11:31:17 2.4 C 41 %
503 13-12-2019 11:41:17 2.5 C 41 %
504 13-12-2019 11:51:18 2.8 C 42 %
505 13-12-2019 12:01:17 3 C 41 %
506 13-12-2019 12:11:17 3.1 C 39 %
507 13-12-2019 12:21:17 3.2 C 38 %
508 13-12-2019 12:31:17 3.5 C 38 %
509 13-12-2019 12:41:17 3.5 C 38 %
510 13-12-2019 12:51:18 3.6 C 38 %
511 13-12-2019 13:01:18 3.8 C 39 %
512 13-12-2019 13:11:18 4.1 C 37 %
513 13-12-2019 13:21:17 4.6 C 38 %
514 13-12-2019 13:31:17 5.2 C 35 %
515 13-12-2019 13:41:17 5.7 C 35 %
516 13-12-2019 13:51:17 6.4 C 31 %
517 13-12-2019 14:01:17 6.7 C 30 %
518 13-12-2019 14:11:17 7 C 28 %
519 13-12-2019 14:21:17 6.8 C 29 %
520 13-12-2019 14:31:17 6.8 C 28 %
521 13-12-2019 14:41:17 6.7 C 28 %
522 13-12-2019 14:51:18 6.4 C 29 %
523 13-12-2019 15:01:18 6.3 C 29 %
524 13-12-2019 15:11:18 6.3 C 29 %
525 13-12-2019 15:21:17 6.2 C 30 %
Sensor: Nr:Datum:Temp:Feuchte:
Aussen-T/F 526 13-12-2019 15:31:17 5.9 C 30 %
527 13-12-2019 15:41:17 5.8 C 31 %
528 13-12-2019 15:51:17 5.5 C 31 %
529 13-12-2019 16:01:18 5.3 C 30 %
530 13-12-2019 16:11:18 5.4 C 30 %
531 13-12-2019 16:21:17 5.3 C 30 %
532 13-12-2019 16:31:17 5.1 C 30 %
533 13-12-2019 16:41:17 4.8 C 31 %
534 13-12-2019 16:51:17 4.5 C 31 %
535 13-12-2019 17:01:17 4.6 C 31 %
536 13-12-2019 17:11:17 4.5 C 31 %
537 13-12-2019 17:21:17 4.3 C 34 %
538 13-12-2019 17:31:18 4.3 C 34 %
539 13-12-2019 17:41:18 4.2 C 33 %
540 13-12-2019 17:51:17 4 C 33 %
541 13-12-2019 18:01:17 3.8 C 36 %
542 13-12-2019 18:11:17 3.7 C 40 %
543 13-12-2019 18:21:17 3.8 C 39 %
544 13-12-2019 18:31:17 3.8 C 40 %
545 13-12-2019 18:41:18 3.8 C 39 %
546 13-12-2019 18:51:17 3.9 C 36 %
547 13-12-2019 19:01:17 3.9 C 36 %
548 13-12-2019 19:11:17 3.9 C 35 %
549 13-12-2019 19:21:17 4 C 34 %
550 13-12-2019 19:31:17 4.1 C 35 %
Sensor: Nr:Datum:Temp:Feuchte:
Aussen-T/F 551 13-12-2019 19:41:17 4 C 36 %
552 13-12-2019 19:51:17 4.6 C 32 %
553 13-12-2019 20:01:17 4.6 C 32 %
554 13-12-2019 20:11:17 4.8 C 31 %
555 13-12-2019 20:21:17 4.7 C 31 %
556 13-12-2019 20:31:17 4.7 C 31 %
557 13-12-2019 20:41:17 4.7 C 32 %
558 13-12-2019 20:51:17 4.5 C 32 %
559 13-12-2019 21:01:17 4.3 C 34 %
560 13-12-2019 21:11:17 4 C 36 %
561 13-12-2019 21:21:17 4.5 C 35 %
562 13-12-2019 21:31:18 4.4 C 33 %
563 13-12-2019 21:41:18 4.4 C 35 %
564 13-12-2019 21:51:17 4.6 C 32 %
565 13-12-2019 22:01:17 4.6 C 31 %
566 13-12-2019 22:11:17 4.6 C 30 %
567 13-12-2019 22:21:17 4.7 C 30 %
568 13-12-2019 22:31:18 4.7 C 30 %
569 13-12-2019 22:41:18 3.8 C 34 %
570 13-12-2019 22:51:17 3.8 C 36 %
571 13-12-2019 23:01:17 4.5 C 32 %
572 13-12-2019 23:11:17 5.1 C 29 %
573 13-12-2019 23:21:17 5.2 C 28 %
574 13-12-2019 23:31:17 5.2 C 28 %
575 13-12-2019 23:41:17 5 C 30 %
Sensor: Nr:Datum:Temp:Feuchte:
Aussen-T/F 576 13-12-2019 23:51:17 5 C 30 %
577 14-12-2019 00:01:17 4.4 C 32 %
578 14-12-2019 00:11:17 4.5 C 30 %
579 14-12-2019 00:21:17 4.6 C 30 %
580 14-12-2019 00:31:18 4.3 C 33 %
581 14-12-2019 00:41:18 4.7 C 32 %
582 14-12-2019 00:51:17 5.1 C 28 %
583 14-12-2019 01:01:17 5.4 C 27 %
584 14-12-2019 01:11:17 5.3 C 27 %
585 14-12-2019 01:21:17 5.2 C 26 %
586 14-12-2019 01:31:17 5.1 C 26 %
587 14-12-2019 01:41:17 5.3 C 25 %
588 14-12-2019 01:51:17 5.2 C 25 %
589 14-12-2019 02:01:17 5 C 26 %
590 14-12-2019 02:11:17 4.5 C 30 %
591 14-12-2019 02:21:17 4.6 C 29 %
592 14-12-2019 02:31:18 4.7 C 29 %
593 14-12-2019 02:41:18 4.8 C 28 %
594 14-12-2019 02:51:17 4.5 C 30 %
595 14-12-2019 03:01:18 4.2 C 33 %
596 14-12-2019 03:11:18 4.1 C 36 %
597 14-12-2019 03:21:17 3.9 C 38 %
598 14-12-2019 03:31:17 3.9 C 39 %
599 14-12-2019 03:41:17 3.9 C 36 %
600 14-12-2019 03:51:18 3.8 C 36 %
Sensor: Nr:Datum:Temp:Feuchte:
Aussen-T/F 601 14-12-2019 04:01:17 3.8 C 40 %
602 14-12-2019 04:11:17 3.8 C 41 %
603 14-12-2019 04:21:17 3.7 C 42 %
604 14-12-2019 04:31:18 3.5 C 42 %
605 14-12-2019 04:41:18 3.5 C 42 %
606 14-12-2019 04:51:17 3.4 C 42 %
607 14-12-2019 05:01:17 3.4 C 41 %
608 14-12-2019 05:11:17 3.4 C 41 %
609 14-12-2019 05:21:17 3.4 C 42 %
610 14-12-2019 05:31:18 3.4 C 42 %
611 14-12-2019 05:41:18 3.4 C 43 %
612 14-12-2019 05:51:17 3.4 C 43 %
613 14-12-2019 06:01:18 3.4 C 42 %
614 14-12-2019 06:11:18 3.7 C 43 %
615 14-12-2019 06:21:17 4 C 42 %
616 14-12-2019 06:31:17 5 C 40 %
617 14-12-2019 06:41:17 5.2 C 39 %
618 14-12-2019 06:51:18 5.6 C 36 %
619 14-12-2019 07:01:17 5.6 C 36 %
620 14-12-2019 07:11:18 5.7 C 36 %
621 14-12-2019 07:21:17 5.8 C 36 %
622 14-12-2019 07:31:17 5.8 C 36 %
623 14-12-2019 07:41:17 6.3 C 37 %
624 14-12-2019 07:51:17 6.5 C 36 %
625 14-12-2019 08:01:17 6.8 C 35 %
Sensor: Nr:Datum:Temp:Feuchte:
Aussen-T/F 626 14-12-2019 08:11:17 7 C 28 %
627 14-12-2019 08:21:17 7.2 C 26 %
628 14-12-2019 08:31:18 7.1 C 25 %
629 14-12-2019 08:41:18 6.9 C 25 %
630 14-12-2019 08:51:17 6.7 C 25 %
631 14-12-2019 09:01:17 6.9 C 23 %
632 14-12-2019 09:11:17 6.7 C 23 %
633 14-12-2019 09:21:18 6.5 C 23 %
634 14-12-2019 09:31:18 6.7 C 20 %
635 14-12-2019 09:41:18 6.5 C 21 %
636 14-12-2019 09:51:17 6.7 C 21 %
637 14-12-2019 10:01:17 6.7 C 21 %
638 14-12-2019 10:11:17 6.6 C 23 %
639 14-12-2019 10:21:17 6.6 C 25 %
640 14-12-2019 10:31:17 6.7 C 25 %
641 14-12-2019 10:41:17 6.4 C 26 %
642 14-12-2019 10:51:17 5.9 C 29 %
643 14-12-2019 11:01:18 5.9 C 29 %
644 14-12-2019 11:11:18 6.4 C 27 %
645 14-12-2019 11:21:17 6.7 C 26 %
646 14-12-2019 11:31:17 6.3 C 26 %
647 14-12-2019 11:41:17 6.4 C 25 %
648 14-12-2019 11:51:17 6.9 C 20 %
649 14-12-2019 12:01:17 7 C 20 %
650 14-12-2019 12:11:17 7.2 C 20 %
Sensor: Nr:Datum:Temp:Feuchte:
Aussen-T/F 651 14-12-2019 12:21:18 7 C 20 %
652 14-12-2019 12:31:17 7.3 C 20 %
653 14-12-2019 12:41:17 7.6 C 20 %
654 14-12-2019 12:51:17 7.8 C 20 %
655 14-12-2019 13:01:17 7.9 C 20 %
656 14-12-2019 13:11:17 8 C 20 %
657 14-12-2019 13:21:17 8.4 C 20 %
658 14-12-2019 13:31:17 8.4 C 20 %
659 14-12-2019 13:41:17 8.3 C 20 %
660 14-12-2019 13:51:17 8.4 C 20 %
661 14-12-2019 14:01:18 8.5 C 20 %
662 14-12-2019 14:11:18 8.4 C 20 %
663 14-12-2019 14:21:17 8.4 C 20 %
664 14-12-2019 14:31:18 8.7 C 20 %
665 14-12-2019 14:41:18 8.8 C 20 %
666 14-12-2019 14:51:18 8.6 C 20 %
667 14-12-2019 15:01:17 7.3 C 23 %
668 14-12-2019 15:11:17 6.8 C 28 %
669 14-12-2019 15:21:17 6.6 C 30 %
670 14-12-2019 15:31:17 6.7 C 28 %
671 14-12-2019 15:41:18 6.8 C 28 %
672 14-12-2019 15:51:17 7.1 C 26 %
673 14-12-2019 16:01:17 7 C 26 %
674 14-12-2019 16:11:17 6.9 C 26 %
675 14-12-2019 16:21:17 6.9 C 27 %
Sensor: Nr:Datum:Temp:Feuchte:
Aussen-T/F 676 14-12-2019 16:31:18 7.2 C 25 %
677 14-12-2019 16:41:18 7.6 C 25 %
678 14-12-2019 16:51:17 7.5 C 25 %
679 14-12-2019 17:01:17 7.6 C 25 %
680 14-12-2019 17:11:17 7.6 C 25 %
681 14-12-2019 17:21:17 7.4 C 25 %
682 14-12-2019 17:31:18 7.2 C 26 %
683 14-12-2019 17:41:18 6.9 C 27 %
684 14-12-2019 17:51:17 7.1 C 26 %
685 14-12-2019 18:01:17 7.1 C 26 %
686 14-12-2019 18:11:17 7.3 C 26 %
687 14-12-2019 18:22:17 7.6 C 25 %
688 14-12-2019 18:31:17 7.8 C 25 %
689 14-12-2019 18:41:17 7.4 C 25 %
690 14-12-2019 18:52:17 7 C 26 %
691 14-12-2019 19:01:18 6.7 C 27 %
692 14-12-2019 19:11:18 6.2 C 28 %
693 14-12-2019 19:21:17 6.4 C 26 %
694 14-12-2019 19:31:17 6.1 C 26 %
695 14-12-2019 19:41:17 6.4 C 25 %
696 14-12-2019 19:52:17 6.4 C 25 %
697 14-12-2019 20:01:18 6.6 C 25 %
698 14-12-2019 20:11:18 6.7 C 25 %
699 14-12-2019 20:21:17 6.9 C 25 %
700 14-12-2019 20:31:17 5.8 C 27 %
Sensor: Nr:Datum:Temp:Feuchte:
Aussen-T/F 701 14-12-2019 20:41:17 5.9 C 27 %
702 14-12-2019 20:52:17 7 C 25 %
703 14-12-2019 21:01:17 7.2 C 25 %
704 14-12-2019 21:11:17 7 C 25 %
705 14-12-2019 21:22:17 7.1 C 25 %
706 14-12-2019 21:31:18 6.7 C 26 %
707 14-12-2019 21:41:18 6.8 C 26 %
708 14-12-2019 21:52:17 6.9 C 26 %
709 14-12-2019 22:02:17 7.1 C 25 %
710 14-12-2019 22:11:17 6.8 C 26 %
711 14-12-2019 22:22:17 6.9 C 26 %
712 14-12-2019 22:31:17 7.3 C 25 %
713 14-12-2019 22:41:17 7 C 26 %
714 14-12-2019 22:52:17 7.3 C 25 %
715 14-12-2019 23:02:17 7.1 C 25 %
716 14-12-2019 23:12:17 7.3 C 25 %
717 14-12-2019 23:22:17 7 C 26 %
718 14-12-2019 23:31:18 7 C 26 %
719 14-12-2019 23:41:18 7.4 C 25 %
720 14-12-2019 23:51:18 7 C 25 %
721 15-12-2019 00:02:17 6.4 C 27 %
722 15-12-2019 00:11:17 6 C 28 %
723 15-12-2019 00:22:17 5.6 C 30 %
724 15-12-2019 00:31:18 5.3 C 31 %
725 15-12-2019 00:41:18 5.1 C 32 %
Sensor: Nr:Datum:Temp:Feuchte:
Aussen-T/F 726 15-12-2019 00:52:17 5.2 C 32 %
727 15-12-2019 01:02:17 5.2 C 32 %
728 15-12-2019 01:12:17 5.3 C 33 %
729 15-12-2019 01:22:17 5.5 C 33 %
730 15-12-2019 01:31:18 5.7 C 31 %
731 15-12-2019 01:41:18 5.6 C 31 %
732 15-12-2019 01:52:17 5.6 C 31 %
733 15-12-2019 02:02:17 5.9 C 31 %
734 15-12-2019 02:12:17 5.8 C 32 %
735 15-12-2019 02:22:17 5.9 C 32 %
736 15-12-2019 02:32:18 5.7 C 35 %
737 15-12-2019 02:42:18 5.8 C 37 %
738 15-12-2019 02:52:17 5.9 C 39 %
739 15-12-2019 03:02:18 5.9 C 40 %
740 15-12-2019 03:12:18 5.9 C 41 %
741 15-12-2019 03:22:17 6 C 41 %
742 15-12-2019 03:32:17 6 C 42 %
743 15-12-2019 03:42:17 6.3 C 42 %
744 15-12-2019 03:52:17 6.4 C 42 %
745 15-12-2019 04:02:17 6.8 C 42 %
746 15-12-2019 04:12:17 7.3 C 41 %
747 15-12-2019 04:22:17 7.3 C 41 %
748 15-12-2019 04:32:17 7.5 C 41 %
749 15-12-2019 04:42:17 7.9 C 40 %
750 15-12-2019 04:52:17 8 C 39 %
Sensor: Nr:Datum:Temp:Feuchte:
Aussen-T/F 751 15-12-2019 05:02:17 8.2 C 38 %
752 15-12-2019 05:12:17 8.2 C 37 %
753 15-12-2019 05:22:17 8.4 C 37 %
754 15-12-2019 05:32:18 9 C 34 %
755 15-12-2019 05:42:18 10 C 30 %
756 15-12-2019 05:52:17 10.2 C 30 %
757 15-12-2019 06:02:17 10.3 C 29 %
758 15-12-2019 06:12:17 10.3 C 29 %
759 15-12-2019 06:22:17 10.1 C 29 %
760 15-12-2019 06:32:17 10.5 C 28 %
761 15-12-2019 06:42:17 10.8 C 27 %
762 15-12-2019 06:52:17 10.7 C 27 %
763 15-12-2019 07:02:17 10.5 C 27 %
764 15-12-2019 07:12:17 10.9 C 27 %
765 15-12-2019 07:22:17 10.3 C 27 %
766 15-12-2019 07:32:17 10.6 C 27 %
767 15-12-2019 07:42:17 10.5 C 27 %
768 15-12-2019 07:52:17 10.7 C 27 %
769 15-12-2019 08:02:17 10.7 C 27 %
770 15-12-2019 08:12:17 11 C 26 %
771 15-12-2019 08:22:17 10.9 C 27 %
772 15-12-2019 08:32:18 10.6 C 27 %
773 15-12-2019 08:42:18 10.2 C 28 %
774 15-12-2019 08:52:17 9.5 C 34 %
775 15-12-2019 09:02:17 9.2 C 34 %
Sensor: Nr:Datum:Temp:Feuchte:
Aussen-T/F 776 15-12-2019 09:12:17 8.9 C 35 %
777 15-12-2019 09:22:17 8.7 C 33 %
778 15-12-2019 09:32:17 8.5 C 34 %
779 15-12-2019 09:42:17 8.2 C 35 %
780 15-12-2019 09:52:18 8 C 36 %
781 15-12-2019 10:02:18 8.1 C 34 %
782 15-12-2019 10:12:18 8.2 C 32 %
783 15-12-2019 10:22:18 8.2 C 34 %
784 15-12-2019 10:32:17 8.1 C 33 %
785 15-12-2019 10:42:17 8.5 C 31 %
786 15-12-2019 10:52:17 8.7 C 30 %
787 15-12-2019 11:02:17 8.4 C 30 %
788 15-12-2019 11:12:17 8.5 C 30 %
789 15-12-2019 11:22:17 8.5 C 28 %
790 15-12-2019 11:32:17 8.6 C 28 %
791 15-12-2019 11:42:17 8.6 C 28 %
792 15-12-2019 11:52:17 8.3 C 27 %
793 15-12-2019 12:02:17 8.3 C 27 %
794 15-12-2019 12:12:17 8.1 C 27 %
795 15-12-2019 12:22:17 8.1 C 28 %
796 15-12-2019 12:32:17 7.9 C 29 %
797 15-12-2019 12:42:17 8.2 C 28 %
798 15-12-2019 12:52:18 8.4 C 28 %
799 15-12-2019 13:02:18 8.7 C 27 %
800 15-12-2019 13:12:18 9.1 C 25 %
Sensor: Nr:Datum:Temp:Feuchte:
Aussen-T/F 801 15-12-2019 13:22:17 9.3 C 23 %
802 15-12-2019 13:32:17 9.2 C 21 %
803 15-12-2019 13:42:17 9.2 C 20 %
804 15-12-2019 13:52:18 9.2 C 20 %
805 15-12-2019 14:02:17 9.2 C 20 %
806 15-12-2019 14:12:17 9.3 C 20 %
807 15-12-2019 14:22:17 9.3 C 20 %
808 15-12-2019 14:32:17 9.1 C 20 %
809 15-12-2019 14:42:17 9.1 C 20 %
810 15-12-2019 14:52:17 9 C 20 %
811 15-12-2019 15:02:17 9 C 20 %
812 15-12-2019 15:12:17 8.9 C 20 %
813 15-12-2019 15:22:17 8.9 C 20 %
814 15-12-2019 15:32:17 8.8 C 20 %
815 15-12-2019 15:42:17 8.7 C 20 %
816 15-12-2019 15:52:17 8.7 C 20 %
817 15-12-2019 16:02:17 8.4 C 20 %
818 15-12-2019 16:12:17 8.2 C 20 %
819 15-12-2019 16:22:18 8.4 C 20 %
820 15-12-2019 16:32:17 7.9 C 20 %
821 15-12-2019 16:42:17 7.6 C 20 %
822 15-12-2019 16:52:17 8 C 20 %
823 15-12-2019 17:02:17 7.4 C 20 %
824 15-12-2019 17:12:17 7.4 C 20 %
825 15-12-2019 17:22:17 7.8 C 20 %
Sensor: Nr:Datum:Temp:Feuchte:
Aussen-T/F 826 15-12-2019 17:32:17 7.2 C 21 %
827 15-12-2019 17:42:17 7.6 C 20 %
828 15-12-2019 17:52:17 7.7 C 20 %
829 15-12-2019 18:02:17 7.5 C 20 %
830 15-12-2019 18:12:17 8.2 C 20 %
831 15-12-2019 18:22:17 7.5 C 20 %
832 15-12-2019 18:32:17 6.9 C 25 %
833 15-12-2019 18:42:17 6.2 C 27 %
834 15-12-2019 18:52:18 5.9 C 29 %
835 15-12-2019 19:02:17 5.4 C 30 %
836 15-12-2019 19:12:17 5.3 C 31 %
837 15-12-2019 19:22:17 4.9 C 32 %
838 15-12-2019 19:32:18 5.3 C 32 %
839 15-12-2019 19:42:18 5 C 33 %
840 15-12-2019 19:52:17 5.4 C 33 %
841 15-12-2019 20:02:17 5.2 C 33 %
842 15-12-2019 20:12:17 4.7 C 35 %
843 15-12-2019 20:22:17 4.4 C 36 %
844 15-12-2019 20:32:17 4.3 C 37 %
845 15-12-2019 20:42:17 3.9 C 39 %
846 15-12-2019 20:52:17 3.7 C 40 %
847 15-12-2019 21:02:17 3.5 C 41 %
848 15-12-2019 21:12:17 3.3 C 41 %
849 15-12-2019 21:22:17 3.1 C 41 %
850 15-12-2019 21:32:18 2.8 C 42 %
Sensor: Nr:Datum:Temp:Feuchte:
Aussen-T/F 851 15-12-2019 21:42:18 2.9 C 43 %
852 15-12-2019 21:52:17 3.3 C 43 %
853 15-12-2019 22:02:17 3.3 C 44 %
854 15-12-2019 22:12:17 3.3 C 43 %
855 15-12-2019 22:22:17 3.5 C 43 %
856 15-12-2019 22:32:17 3.5 C 43 %
857 15-12-2019 22:42:17 3.4 C 43 %
858 15-12-2019 22:52:18 3.3 C 43 %
859 15-12-2019 23:02:17 3.5 C 43 %
860 15-12-2019 23:12:18 3.6 C 43 %
861 15-12-2019 23:22:17 3.7 C 43 %
862 15-12-2019 23:32:18 3.5 C 42 %
863 15-12-2019 23:42:18 3.3 C 42 %
864 15-12-2019 23:52:17 3.8 C 43 %
865 16-12-2019 00:02:17 4 C 42 %
866 16-12-2019 00:12:17 4.4 C 42 %
867 16-12-2019 00:22:17 4.4 C 42 %
868 16-12-2019 00:32:17 4.5 C 42 %
869 16-12-2019 00:42:17 4.5 C 42 %
870 16-12-2019 00:52:18 4.7 C 42 %
871 16-12-2019 01:02:17 5.1 C 41 %
872 16-12-2019 01:12:17 5 C 41 %
873 16-12-2019 01:22:17 5.2 C 42 %
874 16-12-2019 01:32:17 5.2 C 41 %
875 16-12-2019 01:42:18 5.3 C 42 %
Sensor: Nr:Datum:Temp:Feuchte:
Aussen-T/F 876 16-12-2019 01:52:17 5.5 C 42 %
877 16-12-2019 02:02:18 5.4 C 42 %
878 16-12-2019 02:12:18 5.5 C 42 %
879 16-12-2019 02:22:17 5.7 C 42 %
880 16-12-2019 02:32:17 5.7 C 42 %
881 16-12-2019 02:42:17 5.9 C 42 %
882 16-12-2019 02:52:18 5.8 C 41 %
883 16-12-2019 03:02:17 5.8 C 41 %
884 16-12-2019 03:12:17 5.9 C 41 %
885 16-12-2019 03:22:17 5.9 C 41 %
886 16-12-2019 03:32:18 5.9 C 41 %
887 16-12-2019 03:42:18 5.8 C 41 %
888 16-12-2019 03:52:17 6 C 41 %
889 16-12-2019 04:02:17 6 C 41 %
890 16-12-2019 04:12:17 6 C 41 %
891 16-12-2019 04:22:17 5.9 C 41 %
892 16-12-2019 04:32:17 6.1 C 41 %
893 16-12-2019 04:42:17 6.2 C 41 %
894 16-12-2019 04:52:17 6.3 C 41 %
895 16-12-2019 05:02:17 6.4 C 41 %
896 16-12-2019 05:12:17 6.4 C 41 %
897 16-12-2019 05:22:17 6.5 C 41 %
898 16-12-2019 05:32:17 6.6 C 41 %
899 16-12-2019 05:42:17 6.6 C 41 %
900 16-12-2019 05:52:17 6.8 C 41 %
Sensor: Nr:Datum:Temp:Feuchte:
Aussen-T/F 901 16-12-2019 06:02:17 6.9 C 41 %
902 16-12-2019 06:12:17 6.9 C 41 %
903 16-12-2019 06:22:17 6.8 C 40 %
904 16-12-2019 06:32:17 6.7 C 40 %
905 16-12-2019 06:42:17 6.8 C 40 %
906 16-12-2019 06:52:17 6.8 C 40 %
907 16-12-2019 07:02:17 6.8 C 40 %
908 16-12-2019 07:12:17 6.7 C 40 %
909 16-12-2019 07:22:17 6.8 C 40 %
910 16-12-2019 07:32:18 6.9 C 41 %
911 16-12-2019 07:42:18 6.9 C 41 %
912 16-12-2019 07:52:17 7 C 40 %
913 16-12-2019 08:02:17 7.1 C 40 %
914 16-12-2019 08:12:17 7 C 40 %
915 16-12-2019 08:22:17 7.1 C 40 %
916 16-12-2019 08:32:17 7.1 C 40 %
917 16-12-2019 08:42:17 7.1 C 40 %
918 16-12-2019 08:52:17 7.2 C 40 %
919 16-12-2019 09:02:17 7.3 C 40 %
920 16-12-2019 09:12:17 7.5 C 40 %
921 16-12-2019 09:22:18 7.4 C 40 %
922 16-12-2019 09:32:17 7.5 C 40 %
923 16-12-2019 09:42:17 7.5 C 40 %
924 16-12-2019 09:52:17 7.6 C 40 %
925 16-12-2019 10:02:18 7.6 C 40 %
Sensor: Nr:Datum:Temp:Feuchte:
Aussen-T/F 926 16-12-2019 10:12:18 7.7 C 40 %
927 16-12-2019 10:22:17 7.8 C 40 %
928 16-12-2019 10:32:17 7.9 C 40 %
929 16-12-2019 10:42:17 8.1 C 40 %
930 16-12-2019 10:52:17 8.2 C 40 %
931 16-12-2019 11:02:17 8.3 C 40 %
932 16-12-2019 11:12:17 8.5 C 40 %
933 16-12-2019 11:22:17 8.9 C 40 %
934 16-12-2019 11:32:18 8.8 C 39 %
935 16-12-2019 11:42:18 9.1 C 39 %
936 16-12-2019 11:52:17 9.4 C 39 %
937 16-12-2019 12:02:17 9.3 C 38 %
938 16-12-2019 12:12:17 9.3 C 37 %
939 16-12-2019 12:22:17 9.3 C 37 %
940 16-12-2019 12:32:17 9.4 C 37 %
941 16-12-2019 12:42:17 9.4 C 38 %
942 16-12-2019 12:52:17 9.8 C 38 %
943 16-12-2019 13:02:17 9.9 C 36 %
944 16-12-2019 13:12:17 9.9 C 36 %
945 16-12-2019 13:22:17 10 C 35 %
946 16-12-2019 13:32:17 10.2 C 34 %
947 16-12-2019 13:42:17 10.2 C 35 %
948 16-12-2019 13:52:18 10.3 C 34 %
949 16-12-2019 14:02:17 10.1 C 34 %
950 16-12-2019 14:12:17 10.2 C 34 %
Sensor: Nr:Datum:Temp:Feuchte:
Aussen-T/F 951 16-12-2019 14:22:17 10.3 C 34 %
952 16-12-2019 14:32:17 10.2 C 33 %
953 16-12-2019 14:42:17 10.1 C 34 %
954 16-12-2019 14:52:18 10.1 C 34 %
955 16-12-2019 15:02:17 9.9 C 35 %
956 16-12-2019 15:12:17 9.8 C 35 %
957 16-12-2019 15:22:17 9.6 C 36 %
958 16-12-2019 15:32:18 9.3 C 37 %
959 16-12-2019 15:42:18 9.1 C 39 %
960 16-12-2019 15:52:17 9 C 40 %
961 16-12-2019 16:02:17 8.7 C 40 %
962 16-12-2019 16:12:17 8.5 C 40 %
963 16-12-2019 16:22:17 8.4 C 40 %
964 16-12-2019 16:32:18 8.2 C 41 %
965 16-12-2019 16:42:18 8 C 40 %
966 16-12-2019 16:52:17 7.7 C 41 %
967 16-12-2019 17:02:17 7.4 C 41 %
968 16-12-2019 17:12:17 7.3 C 41 %
969 16-12-2019 17:22:17 7.5 C 41 %
970 16-12-2019 17:32:17 7.3 C 41 %
971 16-12-2019 17:42:17 7.2 C 41 %
972 16-12-2019 17:52:17 7 C 41 %
973 16-12-2019 18:02:17 7.1 C 41 %
974 16-12-2019 18:12:17 7.4 C 41 %
975 16-12-2019 18:22:17 7.5 C 41 %
Sensor: Nr:Datum:Temp:Feuchte:
Aussen-T/F 976 16-12-2019 18:32:17 8.2 C 40 %
977 16-12-2019 18:42:17 8.1 C 38 %
978 16-12-2019 18:52:17 8.7 C 37 %
979 16-12-2019 19:02:18 8.5 C 35 %
980 16-12-2019 19:12:18 7.9 C 36 %
981 16-12-2019 19:22:17 7.7 C 37 %
982 16-12-2019 19:32:17 8.5 C 40 %
983 16-12-2019 19:42:17 7.9 C 37 %
984 16-12-2019 19:52:18 8 C 37 %
985 16-12-2019 20:02:17 7.9 C 37 %
986 16-12-2019 20:12:17 8.1 C 36 %
987 16-12-2019 20:22:17 7.7 C 37 %
988 16-12-2019 20:32:17 8 C 39 %
989 16-12-2019 20:42:17 7.9 C 36 %
990 16-12-2019 20:52:17 7.8 C 36 %
991 16-12-2019 21:02:17 7.3 C 37 %
992 16-12-2019 21:12:17 7.2 C 40 %
993 16-12-2019 21:22:17 7.5 C 39 %
994 16-12-2019 21:32:17 7.2 C 38 %
995 16-12-2019 21:42:17 7 C 40 %
996 16-12-2019 21:52:17 6.7 C 41 %
997 16-12-2019 22:02:17 6.9 C 41 %
998 16-12-2019 22:12:17 7.5 C 40 %
999 16-12-2019 22:22:17 7.4 C 38 %
1000 16-12-2019 22:32:17 7.9 C 37 %
Sensor: Nr:Datum:Temp:Feuchte:
Aussen-T/F 1001 16-12-2019 22:42:17 7.8 C 36 %
1002 16-12-2019 22:52:18 7.3 C 37 %
1003 16-12-2019 23:02:17 7.3 C 39 %
1004 16-12-2019 23:12:17 7.3 C 39 %
1005 16-12-2019 23:22:17 7.5 C 40 %
1006 16-12-2019 23:32:17 7.6 C 39 %
1007 16-12-2019 23:42:17 7.6 C 39 %
1008 16-12-2019 23:52:18 7.8 C 39 %
1009 17-12-2019 00:02:17 7.6 C 37 %
1010 17-12-2019 00:12:17 7.5 C 38 %
1011 17-12-2019 00:22:17 7.6 C 38 %
1012 17-12-2019 00:32:18 7.3 C 39 %
1013 17-12-2019 00:42:18 7.2 C 40 %
1014 17-12-2019 00:52:17 7.4 C 39 %
1015 17-12-2019 01:02:17 7.2 C 39 %
1016 17-12-2019 01:12:17 7.4 C 40 %
1017 17-12-2019 01:22:17 7.8 C 39 %
1018 17-12-2019 01:32:17 7.3 C 37 %
1019 17-12-2019 01:42:17 7.4 C 38 %
1020 17-12-2019 01:52:17 7.4 C 37 %
1021 17-12-2019 02:02:18 7.4 C 37 %
1022 17-12-2019 02:12:18 7.6 C 37 %
1023 17-12-2019 02:22:17 7.3 C 37 %
1024 17-12-2019 02:32:17 7.1 C 37 %
1025 17-12-2019 02:42:17 7.5 C 36 %
Sensor: Nr:Datum:Temp:Feuchte:
Aussen-T/F 1026 17-12-2019 02:52:18 7.6 C 36 %
1027 17-12-2019 03:02:17 8 C 35 %
1028 17-12-2019 03:12:17 8.1 C 35 %
1029 17-12-2019 03:22:17 8.4 C 35 %
1030 17-12-2019 03:32:17 8.8 C 32 %
1031 17-12-2019 03:42:17 8.9 C 32 %
1032 17-12-2019 03:52:18 8.8 C 32 %
1033 17-12-2019 04:02:17 8.5 C 32 %
1034 17-12-2019 04:12:17 8.5 C 32 %
1035 17-12-2019 04:22:17 8.4 C 32 %
1036 17-12-2019 04:32:17 8.4 C 32 %
1037 17-12-2019 04:42:17 8 C 32 %
1038 17-12-2019 04:52:18 8.3 C 33 %
1039 17-12-2019 05:02:17 8.5 C 33 %
1040 17-12-2019 05:12:17 8.5 C 33 %
1041 17-12-2019 05:22:17 8.2 C 33 %
1042 17-12-2019 05:32:17 8.1 C 34 %
1043 17-12-2019 05:42:17 7.9 C 35 %
1044 17-12-2019 05:52:17 7.9 C 36 %
1045 17-12-2019 06:02:17 7.8 C 36 %
1046 17-12-2019 06:12:17 7.3 C 36 %
1047 17-12-2019 06:22:18 7.3 C 38 %
1048 17-12-2019 06:32:17 7.5 C 38 %
1049 17-12-2019 06:42:17 7.6 C 36 %
1050 17-12-2019 06:52:17 7.6 C 38 %
Sensor: Nr:Datum:Temp:Feuchte:
Aussen-T/F 1051 17-12-2019 07:02:17 7.7 C 36 %
1052 17-12-2019 07:12:17 7.6 C 37 %
1053 17-12-2019 07:22:17 7.5 C 36 %
1054 17-12-2019 07:32:18 7 C 37 %
1055 17-12-2019 07:42:18 7.4 C 38 %
1056 17-12-2019 07:52:17 7.2 C 36 %
1057 17-12-2019 08:02:17 7.2 C 36 %
1058 17-12-2019 08:12:17 6.9 C 37 %
1059 17-12-2019 08:22:17 6.9 C 38 %
1060 17-12-2019 08:32:17 7 C 38 %
1061 17-12-2019 08:42:18 6.9 C 37 %
1062 17-12-2019 08:52:17 6.9 C 37 %
1063 17-12-2019 09:02:17 6.5 C 38 %
1064 17-12-2019 09:12:17 6.4 C 39 %
1065 17-12-2019 09:22:18 6.5 C 40 %
1066 17-12-2019 09:32:17 6.4 C 40 %
1067 17-12-2019 09:42:17 6.6 C 40 %
1068 17-12-2019 09:52:17 6.3 C 39 %
1069 17-12-2019 10:02:18 6.4 C 40 %
1070 17-12-2019 10:12:18 6.4 C 40 %
1071 17-12-2019 10:22:17 6.4 C 39 %
1072 17-12-2019 10:32:17 6.8 C 40 %
1073 17-12-2019 10:42:17 7.2 C 37 %
1074 17-12-2019 10:52:17 8 C 36 %
1075 17-12-2019 11:02:17 8.6 C 34 %
Sensor: Nr:Datum:Temp:Feuchte:
Aussen-T/F 1076 17-12-2019 11:12:17 8.5 C 32 %
1077 17-12-2019 11:22:17 8.7 C 32 %
1078 17-12-2019 11:32:17 9 C 32 %
1079 17-12-2019 11:42:17 9.1 C 32 %
1080 17-12-2019 11:52:17 9 C 32 %
1081 17-12-2019 12:02:17 9 C 34 %
1082 17-12-2019 12:12:17 9.2 C 34 %
1083 17-12-2019 12:22:17 9.5 C 33 %
1084 17-12-2019 12:32:17 9.7 C 32 %
1085 17-12-2019 12:42:17 9.8 C 32 %
1086 17-12-2019 12:52:17 9.6 C 32 %
1087 17-12-2019 13:02:17 10.1 C 31 %
1088 17-12-2019 13:12:17 10.4 C 30 %
1089 17-12-2019 13:22:17 10.6 C 30 %
1090 17-12-2019 13:32:17 11 C 29 %
1091 17-12-2019 13:42:17 11.6 C 28 %
1092 17-12-2019 13:52:18 12.3 C 26 %
1093 17-12-2019 14:02:17 12.5 C 26 %
1094 17-12-2019 14:12:17 12.4 C 26 %
1095 17-12-2019 14:22:17 11.6 C 27 %
1096 17-12-2019 14:32:17 11.4 C 27 %
1097 17-12-2019 14:42:17 11.5 C 27 %
1098 17-12-2019 14:52:17 11.8 C 27 %
1099 17-12-2019 15:02:17 12 C 26 %
1100 17-12-2019 15:12:17 12 C 26 %
Sensor: Nr:Datum:Temp:Feuchte:
Aussen-T/F 1101 17-12-2019 15:22:17 11.8 C 27 %
1102 17-12-2019 15:32:17 11.8 C 27 %
1103 17-12-2019 15:42:17 12.3 C 25 %
1104 17-12-2019 15:52:18 12.2 C 25 %
1105 17-12-2019 16:02:17 12.4 C 25 %
1106 17-12-2019 16:12:17 12.4 C 25 %
1107 17-12-2019 16:22:17 12.5 C 25 %
1108 17-12-2019 16:32:18 12.6 C 25 %
1109 17-12-2019 16:42:18 12.2 C 25 %
1110 17-12-2019 16:52:17 11.8 C 25 %
1111 17-12-2019 17:02:17 11.2 C 26 %
1112 17-12-2019 17:12:18 11.5 C 25 %
1113 17-12-2019 17:22:17 12 C 24 %
1114 17-12-2019 17:32:18 13.1 C 20 %
1115 17-12-2019 17:42:18 13.4 C 20 %
1116 17-12-2019 17:52:17 13.8 C 20 %
1117 17-12-2019 18:02:17 13.4 C 20 %
1118 17-12-2019 18:12:17 13.2 C 20 %
1119 17-12-2019 18:22:17 13.6 C 20 %
1120 17-12-2019 18:32:17 13.7 C 20 %
1121 17-12-2019 18:42:17 13.1 C 21 %
1122 17-12-2019 18:52:17 12.7 C 25 %
1123 17-12-2019 19:02:17 12.8 C 25 %
1124 17-12-2019 19:12:17 13.1 C 22 %
1125 17-12-2019 19:22:17 12.8 C 25 %
Sensor: Nr:Datum:Temp:Feuchte:
Aussen-T/F 1126 17-12-2019 19:32:18 11.7 C 29 %
1127 17-12-2019 19:42:18 11.6 C 29 %
1128 17-12-2019 19:52:17 11.6 C 30 %
1129 17-12-2019 20:02:18 11.6 C 30 %
1130 17-12-2019 20:12:18 11.5 C 31 %
1131 17-12-2019 20:22:17 11.6 C 31 %
1132 17-12-2019 20:32:17 11.3 C 33 %
1133 17-12-2019 20:42:17 11.2 C 35 %
1134 17-12-2019 20:52:17 11 C 36 %
1135 17-12-2019 21:02:17 10.9 C 36 %
1136 17-12-2019 21:12:17 10.5 C 38 %
1137 17-12-2019 21:22:17 10.3 C 39 %
1138 17-12-2019 21:32:17 10.4 C 38 %
1139 17-12-2019 21:42:17 11.5 C 31 %
1140 17-12-2019 21:52:17 11.3 C 31 %
1141 17-12-2019 22:02:17 13 C 25 %
1142 17-12-2019 22:12:17 12.5 C 26 %
1143 17-12-2019 22:22:17 13.1 C 25 %
1144 17-12-2019 22:32:17 13.4 C 25 %
1145 17-12-2019 22:42:17 13.2 C 25 %
1146 17-12-2019 22:52:17 13.1 C 25 %
1147 17-12-2019 23:02:17 12.4 C 26 %
1148 17-12-2019 23:12:17 11.9 C 29 %
1149 17-12-2019 23:22:17 11.3 C 30 %
1150 17-12-2019 23:32:17 11.1 C 31 %
Sensor: Nr:Datum:Temp:Feuchte:
Aussen-T/F 1151 17-12-2019 23:42:17 11 C 30 %
1152 17-12-2019 23:52:17 10.8 C 33 %
1153 18-12-2019 00:02:17 10.4 C 35 %
1154 18-12-2019 00:12:17 10.4 C 34 %
1155 18-12-2019 00:22:17 10.5 C 34 %
1156 18-12-2019 00:32:18 10.9 C 31 %
1157 18-12-2019 00:42:18 11 C 30 %
1158 18-12-2019 00:52:17 11 C 30 %
1159 18-12-2019 01:02:17 10.8 C 30 %
1160 18-12-2019 01:12:17 11 C 29 %
1161 18-12-2019 01:22:17 11.1 C 29 %
1162 18-12-2019 01:32:18 10.9 C 30 %
1163 18-12-2019 01:42:18 10.4 C 30 %
1164 18-12-2019 01:52:17 10.8 C 30 %
1165 18-12-2019 02:02:17 11.1 C 30 %
1166 18-12-2019 02:12:17 11.1 C 29 %
1167 18-12-2019 02:22:17 11.2 C 30 %
1168 18-12-2019 02:32:17 11.3 C 29 %
1169 18-12-2019 02:42:18 10.9 C 30 %
1170 18-12-2019 02:52:17 10.9 C 31 %
1171 18-12-2019 03:02:17 10.6 C 33 %
1172 18-12-2019 03:12:17 10.3 C 35 %
1173 18-12-2019 03:22:18 10.3 C 37 %
1174 18-12-2019 03:32:17 10.1 C 37 %
1175 18-12-2019 03:42:17 10 C 38 %
Sensor: Nr:Datum:Temp:Feuchte:
Aussen-T/F 1176 18-12-2019 03:52:18 10.1 C 38 %
1177 18-12-2019 04:02:18 10 C 38 %
1178 18-12-2019 04:12:18 9.9 C 38 %
1179 18-12-2019 04:22:17 9.8 C 35 %
1180 18-12-2019 04:32:18 9.6 C 34 %
1181 18-12-2019 04:42:18 9.5 C 33 %
1182 18-12-2019 04:52:17 9.3 C 33 %
1183 18-12-2019 05:02:18 9.2 C 33 %
1184 18-12-2019 05:12:18 9.1 C 33 %
1185 18-12-2019 05:22:17 8.8 C 35 %
1186 18-12-2019 05:32:17 8.7 C 36 %
1187 18-12-2019 05:42:17 8.2 C 36 %
1188 18-12-2019 05:52:17 8.2 C 39 %
1189 18-12-2019 06:02:18 8.1 C 39 %
1190 18-12-2019 06:12:18 8 C 37 %
1191 18-12-2019 06:22:17 8 C 37 %
1192 18-12-2019 06:32:18 7.9 C 37 %
1193 18-12-2019 06:42:18 7.5 C 37 %
1194 18-12-2019 06:52:17 7.4 C 39 %
1195 18-12-2019 07:02:17 7.2 C 40 %
1196 18-12-2019 07:12:17 7.3 C 40 %
1197 18-12-2019 07:22:17 7.3 C 40 %
1198 18-12-2019 07:32:17 7.1 C 39 %
1199 18-12-2019 07:42:17 6.8 C 40 %
1200 18-12-2019 07:52:17 6.9 C 41 %
Sensor: Nr:Datum:Temp:Feuchte:
Aussen-T/F 1201 18-12-2019 08:02:17 6.7 C 41 %
1202 18-12-2019 08:12:17 6.5 C 41 %
1203 18-12-2019 08:22:17 6.5 C 41 %
1204 18-12-2019 08:32:17 6.3 C 41 %
1205 18-12-2019 08:42:17 6.4 C 42 %
1206 18-12-2019 08:52:17 6.6 C 42 %
1207 18-12-2019 09:02:17 6.5 C 41 %
1208 18-12-2019 09:12:17 6.1 C 40 %
1209 18-12-2019 09:22:17 6 C 41 %
1210 18-12-2019 09:32:17 6.5 C 42 %
1211 18-12-2019 09:42:17 6.7 C 42 %
1212 18-12-2019 09:52:17 6.9 C 41 %
1213 18-12-2019 10:02:17 7 C 40 %
1214 18-12-2019 10:12:18 7.1 C 40 %
1215 18-12-2019 10:22:17 7.5 C 38 %
1216 18-12-2019 10:32:17 7.5 C 36 %
1217 18-12-2019 10:42:17 7.4 C 36 %
1218 18-12-2019 10:52:17 6.9 C 38 %
1219 18-12-2019 11:02:17 6.8 C 38 %
1220 18-12-2019 11:12:17 6.8 C 38 %
1221 18-12-2019 11:22:17 6.6 C 38 %
1222 18-12-2019 11:32:18 6.7 C 39 %
1223 18-12-2019 11:42:18 6.9 C 38 %
1224 18-12-2019 11:52:17 7.6 C 35 %
1225 18-12-2019 12:02:17 8.1 C 33 %
Sensor: Nr:Datum:Temp:Feuchte:
Aussen-T/F 1226 18-12-2019 12:12:17 8 C 32 %
1227 18-12-2019 12:22:17 8.3 C 31 %
1228 18-12-2019 12:32:17 8.6 C 30 %
1229 18-12-2019 12:42:17 8.8 C 29 %
1230 18-12-2019 12:52:17 8.7 C 29 %
1231 18-12-2019 13:02:17 8.4 C 30 %
1232 18-12-2019 13:12:17 8.2 C 30 %
1233 18-12-2019 13:22:17 7.9 C 31 %
1234 18-12-2019 13:32:18 7.8 C 32 %
1235 18-12-2019 13:42:18 7.7 C 33 %
1236 18-12-2019 13:52:17 7.8 C 32 %
1237 18-12-2019 14:02:18 7.8 C 33 %
1238 18-12-2019 14:12:18 7.7 C 33 %
1239 18-12-2019 14:22:17 7.5 C 34 %
1240 18-12-2019 14:32:17 7.3 C 35 %
1241 18-12-2019 14:42:17 7.2 C 35 %
1242 18-12-2019 14:52:17 7.2 C 35 %
1243 18-12-2019 15:02:17 7.2 C 35 %
1244 18-12-2019 15:12:17 7 C 36 %
1245 18-12-2019 15:22:17 7 C 36 %
1246 18-12-2019 15:32:17 6.7 C 37 %
1247 18-12-2019 15:42:17 6.8 C 37 %
1248 18-12-2019 15:52:17 6.7 C 36 %
1249 18-12-2019 16:02:17 6.6 C 36 %
1250 18-12-2019 16:12:17 6.5 C 36 %
Sensor: Nr:Datum:Temp:Feuchte:
Aussen-T/F 1251 18-12-2019 16:22:17 6.4 C 36 %
1252 18-12-2019 16:32:17 6 C 36 %
1253 18-12-2019 16:42:17 5.8 C 37 %
1254 18-12-2019 16:52:17 5.7 C 39 %
1255 18-12-2019 17:02:17 5.3 C 38 %
1256 18-12-2019 17:12:17 4.9 C 40 %
1257 18-12-2019 17:22:17 5 C 42 %
1258 18-12-2019 17:32:17 4.4 C 41 %
1259 18-12-2019 17:42:17 4.2 C 42 %
1260 18-12-2019 17:52:18 4.1 C 42 %
1261 18-12-2019 18:02:17 4.1 C 43 %
1262 18-12-2019 18:12:17 4.1 C 43 %
1263 18-12-2019 18:22:17 4.4 C 43 %
1264 18-12-2019 18:32:17 4.5 C 43 %
1265 18-12-2019 18:42:17 4.3 C 42 %
1266 18-12-2019 18:52:17 4.6 C 43 %
1267 18-12-2019 19:02:17 5 C 42 %
1268 18-12-2019 19:12:17 4.7 C 42 %
1269 18-12-2019 19:22:17 4.3 C 42 %
1270 18-12-2019 19:32:18 4.9 C 43 %
1271 18-12-2019 19:42:18 4.7 C 42 %
1272 18-12-2019 19:52:17 4.6 C 42 %
1273 18-12-2019 20:02:17 5 C 42 %
1274 18-12-2019 20:12:17 5 C 41 %
1275 18-12-2019 20:22:17 4.5 C 41 %
Sensor: Nr:Datum:Temp:Feuchte:
Aussen-T/F 1276 18-12-2019 20:32:17 4.5 C 41 %
1277 18-12-2019 20:42:18 4.1 C 41 %
1278 18-12-2019 20:52:17 3.9 C 42 %
1279 18-12-2019 21:02:17 3.7 C 43 %
1280 18-12-2019 21:12:17 3.6 C 42 %
1281 18-12-2019 21:22:17 3.6 C 43 %
1282 18-12-2019 21:32:17 3.7 C 43 %
1283 18-12-2019 21:42:17 3.6 C 43 %
1284 18-12-2019 21:52:17 3.4 C 43 %
1285 18-12-2019 22:02:17 3.1 C 43 %
1286 18-12-2019 22:12:17 3.1 C 43 %
1287 18-12-2019 22:22:17 2.7 C 43 %
1288 18-12-2019 22:32:17 2.6 C 43 %
1289 18-12-2019 22:42:17 2.5 C 43 %
1290 18-12-2019 22:52:17 2.4 C 43 %
1291 18-12-2019 23:02:17 2.4 C 43 %
1292 18-12-2019 23:12:17 2.3 C 43 %
1293 18-12-2019 23:22:18 2.3 C 43 %
1294 18-12-2019 23:32:17 2 C 43 %
1295 18-12-2019 23:42:17 2 C 43 %
1296 18-12-2019 23:52:17 2 C 43 %
1297 19-12-2019 00:02:18 2.3 C 44 %
1298 19-12-2019 00:12:18 2 C 43 %
1299 19-12-2019 00:22:17 2 C 43 %
1300 19-12-2019 00:32:17 2.1 C 43 %
Sensor: Nr:Datum:Temp:Feuchte:
Aussen-T/F 1301 19-12-2019 00:42:17 2.4 C 44 %
1302 19-12-2019 00:52:18 2.3 C 43 %
1303 19-12-2019 01:02:17 2.1 C 43 %
1304 19-12-2019 01:12:17 2 C 43 %
1305 19-12-2019 01:22:17 2 C 43 %
1306 19-12-2019 01:32:18 1.6 C 44 %
1307 19-12-2019 01:42:18 1.9 C 44 %
1308 19-12-2019 01:52:17 2.3 C 43 %
1309 19-12-2019 02:02:17 2.2 C 43 %
1310 19-12-2019 02:12:17 2 C 43 %
1311 19-12-2019 02:22:17 2 C 43 %
1312 19-12-2019 02:32:18 2 C 43 %
1313 19-12-2019 02:42:18 1.8 C 44 %
1314 19-12-2019 02:52:17 2.1 C 43 %
1315 19-12-2019 03:02:18 1.5 C 44 %
1316 19-12-2019 03:12:18 1.6 C 44 %
1317 19-12-2019 03:22:17 1.6 C 44 %
1318 19-12-2019 03:32:17 1.8 C 44 %
1319 19-12-2019 03:42:17 1.7 C 44 %
1320 19-12-2019 03:52:17 1.7 C 44 %
1321 19-12-2019 04:02:17 1.6 C 44 %
1322 19-12-2019 04:12:17 1.5 C 44 %
1323 19-12-2019 04:22:18 1.5 C 44 %
1324 19-12-2019 04:32:17 1.5 C 44 %
1325 19-12-2019 04:42:17 1.4 C 44 %
Sensor: Nr:Datum:Temp:Feuchte:
Aussen-T/F 1326 19-12-2019 04:52:18 1.6 C 44 %
1327 19-12-2019 05:02:17 1.4 C 44 %
1328 19-12-2019 05:12:17 1.5 C 44 %
1329 19-12-2019 05:22:17 1.4 C 44 %
1330 19-12-2019 05:32:17 1.3 C 44 %
1331 19-12-2019 05:42:17 1.3 C 44 %
1332 19-12-2019 05:52:17 1.1 C 44 %
1333 19-12-2019 06:02:17 1.1 C 44 %
1334 19-12-2019 06:12:17 1.2 C 44 %
1335 19-12-2019 06:22:17 1 C 44 %
1336 19-12-2019 06:32:17 1.1 C 44 %
1337 19-12-2019 06:42:18 1 C 43 %
1338 19-12-2019 06:52:17 0.7 C 45 %
1339 19-12-2019 07:02:17 1 C 44 %
1340 19-12-2019 07:12:17 0.9 C 45 %
1341 19-12-2019 07:22:17 1.7 C 44 %
1342 19-12-2019 07:32:17 3.5 C 43 %
1343 19-12-2019 07:42:18 3.2 C 42 %
1344 19-12-2019 07:52:17 3.1 C 42 %
1345 19-12-2019 08:02:18 4.6 C 42 %
1346 19-12-2019 08:12:18 3.8 C 42 %
1347 19-12-2019 08:22:17 3.7 C 42 %
1348 19-12-2019 08:32:18 4.6 C 41 %
1349 19-12-2019 08:42:18 4 C 41 %
1350 19-12-2019 08:52:17 3.3 C 41 %
Sensor: Nr:Datum:Temp:Feuchte:
Aussen-T/F 1351 19-12-2019 09:02:17 4 C 41 %
1352 19-12-2019 09:12:17 4.4 C 41 %
1353 19-12-2019 09:22:17 4.1 C 41 %
1354 19-12-2019 09:32:17 4.6 C 41 %
1355 19-12-2019 09:42:17 4.4 C 41 %
1356 19-12-2019 09:52:17 4.5 C 41 %
1357 19-12-2019 10:02:17 4.7 C 41 %
1358 19-12-2019 10:12:17 4.9 C 41 %
1359 19-12-2019 10:22:17 5.2 C 41 %
1360 19-12-2019 10:32:17 7 C 40 %
1361 19-12-2019 10:42:17 7.2 C 40 %
1362 19-12-2019 10:52:18 6.7 C 40 %
1363 19-12-2019 11:02:17 6.4 C 39 %
1364 19-12-2019 11:12:17 6.3 C 39 %
1365 19-12-2019 11:22:17 6.3 C 40 %
1366 19-12-2019 11:32:17 6.4 C 40 %
1367 19-12-2019 11:42:17 6.6 C 40 %
1368 19-12-2019 11:52:18 6.7 C 40 %
1369 19-12-2019 12:02:17 6.6 C 40 %
1370 19-12-2019 12:12:17 6.7 C 40 %
1371 19-12-2019 12:22:17 6.7 C 40 %
1372 19-12-2019 12:32:17 7 C 39 %
1373 19-12-2019 12:42:17 7 C 39 %
1374 19-12-2019 12:52:17 7.1 C 39 %
1375 19-12-2019 13:02:17 7.3 C 39 %
Sensor: Nr:Datum:Temp:Feuchte:
Aussen-T/F 1376 19-12-2019 13:12:17 7.1 C 38 %
1377 19-12-2019 13:22:17 7.2 C 39 %
1378 19-12-2019 13:32:17 7.2 C 39 %
1379 19-12-2019 13:42:17 7.3 C 38 %
1380 19-12-2019 13:52:17 7.3 C 38 %
1381 19-12-2019 14:02:17 7.3 C 38 %
1382 19-12-2019 14:12:17 7.1 C 38 %
1383 19-12-2019 14:22:17 7.1 C 38 %
1384 19-12-2019 14:32:17 7.2 C 38 %
1385 19-12-2019 14:42:17 7.3 C 37 %
1386 19-12-2019 14:52:17 7.9 C 36 %
1387 19-12-2019 15:02:17 8.1 C 34 %
1388 19-12-2019 15:12:17 8.1 C 33 %
1389 19-12-2019 15:22:17 8.4 C 32 %
1390 19-12-2019 15:32:18 8.6 C 32 %
1391 19-12-2019 15:42:18 8.7 C 31 %
1392 19-12-2019 15:52:17 8.8 C 31 %
1393 19-12-2019 16:02:17 8.7 C 30 %
1394 19-12-2019 16:12:17 8.3 C 31 %
1395 19-12-2019 16:22:18 8.1 C 31 %
1396 19-12-2019 16:32:17 7.9 C 32 %
1397 19-12-2019 16:42:17 7.9 C 31 %
1398 19-12-2019 16:52:17 7.6 C 32 %
1399 19-12-2019 17:02:17 7.4 C 32 %
1400 19-12-2019 17:12:17 6 C 35 %
Sensor: Nr:Datum:Temp:Feuchte:
Aussen-T/F 1401 19-12-2019 17:22:17 5.7 C 37 %
1402 19-12-2019 17:32:17 5.5 C 39 %
1403 19-12-2019 17:42:17 5 C 39 %
1404 19-12-2019 17:52:17 4.9 C 41 %
1405 19-12-2019 18:02:17 5.2 C 42 %
1406 19-12-2019 18:12:18 4.9 C 42 %
1407 19-12-2019 18:22:17 5.2 C 42 %
1408 19-12-2019 18:32:17 5 C 41 %
1409 19-12-2019 18:42:17 5 C 41 %
1410 19-12-2019 18:52:18 5.8 C 42 %
1411 19-12-2019 19:02:17 5.7 C 41 %
1412 19-12-2019 19:12:17 5.2 C 39 %
1413 19-12-2019 19:22:18 4.7 C 40 %
1414 19-12-2019 19:32:17 4.9 C 42 %
1415 19-12-2019 19:42:17 4.7 C 42 %
1416 19-12-2019 19:52:17 4.8 C 42 %
1417 19-12-2019 20:02:17 5 C 42 %
1418 19-12-2019 20:12:17 5 C 41 %
1419 19-12-2019 20:22:17 4.8 C 42 %
1420 19-12-2019 20:32:17 5.1 C 42 %
1421 19-12-2019 20:42:17 6 C 41 %
1422 19-12-2019 20:52:17 6 C 38 %
1423 19-12-2019 21:02:17 5.8 C 38 %
1424 19-12-2019 21:12:18 5.8 C 39 %
1425 19-12-2019 21:22:17 5.7 C 39 %
Sensor: Nr:Datum:Temp:Feuchte:
Aussen-T/F 1426 19-12-2019 21:32:17 5.8 C 40 %
1427 19-12-2019 21:42:17 6 C 40 %
1428 19-12-2019 21:52:17 5.7 C 40 %
1429 19-12-2019 22:02:17 5.6 C 40 %
1430 19-12-2019 22:12:17 5.8 C 41 %
1431 19-12-2019 22:22:18 6.2 C 41 %
1432 19-12-2019 22:32:18 5.9 C 40 %
1433 19-12-2019 22:42:18 5.1 C 38 %
1434 19-12-2019 22:52:17 5 C 41 %
1435 19-12-2019 23:02:17 5.4 C 43 %
1436 19-12-2019 23:12:17 5.5 C 42 %
1437 19-12-2019 23:22:17 5.5 C 42 %
1438 19-12-2019 23:32:17 5.4 C 42 %
1439 19-12-2019 23:42:17 5.4 C 42 %
1440 19-12-2019 23:52:17 5.1 C 41 %
1441 20-12-2019 00:02:17 4.8 C 42 %
1442 20-12-2019 00:12:17 4.3 C 41 %
1443 20-12-2019 00:22:17 4 C 41 %
1444 20-12-2019 00:32:17 3.9 C 43 %
1445 20-12-2019 00:42:17 3.7 C 42 %
1446 20-12-2019 00:52:17 3.4 C 43 %
1447 20-12-2019 01:02:17 3.1 C 42 %
1448 20-12-2019 01:12:17 3 C 43 %
1449 20-12-2019 01:22:17 3.3 C 44 %
1450 20-12-2019 01:32:17 3.1 C 43 %
Sensor: Nr:Datum:Temp:Feuchte:
Aussen-T/F 1451 20-12-2019 01:42:17 3.1 C 43 %
1452 20-12-2019 01:52:17 2.8 C 44 %
1453 20-12-2019 02:02:17 2.8 C 44 %
1454 20-12-2019 02:12:17 2.6 C 44 %
1455 20-12-2019 02:22:17 2.5 C 44 %
1456 20-12-2019 02:32:18 3.2 C 44 %
1457 20-12-2019 02:42:18 3.4 C 44 %
1458 20-12-2019 02:52:17 3.8 C 44 %
1459 20-12-2019 03:02:17 4.7 C 42 %
1460 20-12-2019 03:12:17 4.2 C 41 %
1461 20-12-2019 03:22:17 4.6 C 41 %
1462 20-12-2019 03:32:17 4.4 C 40 %
1463 20-12-2019 03:42:17 4.4 C 40 %
1464 20-12-2019 03:52:17 4.6 C 41 %
1465 20-12-2019 04:02:17 4.4 C 40 %
1466 20-12-2019 04:12:17 4.2 C 40 %
1467 20-12-2019 04:22:17 4 C 41 %
1468 20-12-2019 04:32:18 4.8 C 42 %
1469 20-12-2019 04:42:18 4.5 C 41 %
1470 20-12-2019 04:52:17 4.7 C 40 %
1471 20-12-2019 05:02:17 4.7 C 40 %
1472 20-12-2019 05:12:17 5.3 C 38 %
1473 20-12-2019 05:22:17 5.2 C 36 %
1474 20-12-2019 05:32:17 5.3 C 36 %
1475 20-12-2019 05:42:17 5.4 C 35 %
Sensor: Nr:Datum:Temp:Feuchte:
Aussen-T/F 1476 20-12-2019 05:52:18 5.5 C 35 %
1477 20-12-2019 06:02:18 5.2 C 35 %
1478 20-12-2019 06:12:18 5.3 C 35 %
1479 20-12-2019 06:22:17 5.6 C 35 %
1480 20-12-2019 06:32:17 6 C 32 %
1481 20-12-2019 06:42:17 6 C 31 %
1482 20-12-2019 06:52:17 5.7 C 32 %
1483 20-12-2019 07:02:17 5.8 C 31 %
1484 20-12-2019 07:12:17 5.9 C 31 %
1485 20-12-2019 07:22:17 6.1 C 31 %
1486 20-12-2019 07:32:17 5.9 C 33 %
1487 20-12-2019 07:42:17 6.4 C 31 %
1488 20-12-2019 07:52:17 6.8 C 30 %
1489 20-12-2019 08:02:17 7.1 C 27 %
1490 20-12-2019 08:12:17 6.4 C 31 %
1491 20-12-2019 08:22:17 6.4 C 32 %
1492 20-12-2019 08:32:18 6.5 C 32 %
1493 20-12-2019 08:42:18 6.3 C 32 %
1494 20-12-2019 08:52:17 6.3 C 33 %
1495 20-12-2019 09:02:17 6.5 C 33 %
1496 20-12-2019 09:12:17 6.7 C 31 %
1497 20-12-2019 09:22:17 6.5 C 33 %
1498 20-12-2019 09:32:17 6.4 C 35 %
1499 20-12-2019 09:42:17 6.5 C 35 %
1500 20-12-2019 09:52:17 6.5 C 34 %
Sensor: Nr:Datum:Temp:Feuchte:
Aussen-T/F 1501 20-12-2019 10:02:17 6.2 C 31 %
1502 20-12-2019 10:12:17 6 C 33 %
1503 20-12-2019 10:22:17 5.7 C 35 %
1504 20-12-2019 10:32:17 5.8 C 40 %
1505 20-12-2019 10:42:17 5.9 C 42 %
1506 20-12-2019 10:52:17 6 C 42 %
1507 20-12-2019 11:02:17 6.1 C 42 %
1508 20-12-2019 11:12:17 6 C 42 %
1509 20-12-2019 11:22:17 6.3 C 42 %
1510 20-12-2019 11:32:17 6.5 C 42 %
1511 20-12-2019 11:42:17 6.7 C 41 %
1512 20-12-2019 11:52:17 6.8 C 40 %
1513 20-12-2019 12:02:18 7 C 39 %
1514 20-12-2019 12:12:18 7.3 C 39 %
1515 20-12-2019 12:22:18 7.5 C 39 %
1516 20-12-2019 12:32:17 7.7 C 39 %
1517 20-12-2019 12:42:18 8 C 39 %
1518 20-12-2019 12:52:17 8.1 C 38 %
1519 20-12-2019 13:02:18 8.1 C 39 %
1520 20-12-2019 13:12:18 8.2 C 39 %
1521 20-12-2019 13:22:17 8.3 C 37 %
1522 20-12-2019 13:32:17 8.4 C 36 %
1523 20-12-2019 13:42:17 8.6 C 37 %
1524 20-12-2019 13:52:17 8.5 C 36 %
1525 20-12-2019 14:02:17 8.6 C 36 %
Sensor: Nr:Datum:Temp:Feuchte:
Aussen-T/F 1526 20-12-2019 14:12:17 8.6 C 35 %
1527 20-12-2019 14:22:17 8.7 C 36 %
1528 20-12-2019 14:32:17 8.7 C 36 %
1529 20-12-2019 14:42:17 8.5 C 35 %
1530 20-12-2019 14:52:18 8.3 C 36 %
1531 20-12-2019 15:02:17 8.2 C 37 %
1532 20-12-2019 15:12:17 8.3 C 38 %
1533 20-12-2019 15:22:17 8.3 C 39 %
1534 20-12-2019 15:32:17 8.2 C 40 %
1535 20-12-2019 15:42:17 8.3 C 41 %
1536 20-12-2019 15:52:17 8.2 C 40 %
1537 20-12-2019 16:02:17 8.2 C 40 %
1538 20-12-2019 16:12:18 8.3 C 40 %
1539 20-12-2019 16:22:17 8.3 C 41 %
1540 20-12-2019 16:32:17 8.4 C 41 %
1541 20-12-2019 16:42:17 8.4 C 41 %
1542 20-12-2019 16:52:18 8.6 C 41 %
1543 20-12-2019 17:02:17 9 C 41 %
1544 20-12-2019 17:12:18 9 C 40 %
1545 20-12-2019 17:22:17 9.1 C 36 %
1546 20-12-2019 17:32:17 8.7 C 38 %
1547 20-12-2019 17:42:17 8.8 C 37 %
1548 20-12-2019 17:52:18 8.7 C 38 %
1549 20-12-2019 18:02:17 8.9 C 37 %
1550 20-12-2019 18:12:17 8.9 C 36 %
Sensor: Nr:Datum:Temp:Feuchte:
Aussen-T/F 1551 20-12-2019 18:22:17 8.9 C 37 %
1552 20-12-2019 18:32:17 8.9 C 37 %
1553 20-12-2019 18:42:17 9.7 C 33 %
1554 20-12-2019 18:52:18 9.5 C 31 %
1555 20-12-2019 19:02:17 9.8 C 30 %
1556 20-12-2019 19:12:17 10.1 C 28 %
1557 20-12-2019 19:22:17 9.9 C 29 %
1558 20-12-2019 19:32:17 9.8 C 29 %
1559 20-12-2019 19:42:17 10 C 27 %
1560 20-12-2019 19:52:18 9.7 C 29 %
1561 20-12-2019 20:02:18 9.6 C 28 %
1562 20-12-2019 20:12:18 9.5 C 28 %
1563 20-12-2019 20:22:17 9.5 C 27 %
1564 20-12-2019 20:32:18 9 C 28 %
1565 20-12-2019 20:42:18 9 C 27 %
1566 20-12-2019 20:52:17 8.9 C 28 %
1567 20-12-2019 21:02:18 8.5 C 28 %
1568 20-12-2019 21:12:18 8.6 C 28 %
1569 20-12-2019 21:22:17 8.9 C 27 %
1570 20-12-2019 21:32:17 8.7 C 27 %
1571 20-12-2019 21:42:17 8.3 C 28 %
1572 20-12-2019 21:52:17 8.3 C 28 %
1573 20-12-2019 22:02:17 8.3 C 28 %
1574 20-12-2019 22:12:17 8.1 C 28 %
1575 20-12-2019 22:22:17 8.7 C 27 %
Sensor: Nr:Datum:Temp:Feuchte:
Aussen-T/F 1576 20-12-2019 22:32:17 8.9 C 26 %
1577 20-12-2019 22:42:17 8.7 C 27 %
1578 20-12-2019 22:52:17 8.7 C 27 %
1579 20-12-2019 23:02:17 8.5 C 27 %
1580 20-12-2019 23:12:17 8.4 C 27 %
1581 20-12-2019 23:22:17 8.2 C 28 %
1582 20-12-2019 23:32:17 8 C 28 %
1583 20-12-2019 23:42:17 8.3 C 27 %
1584 20-12-2019 23:52:18 8.1 C 27 %
1585 21-12-2019 00:02:17 7.9 C 28 %
1586 21-12-2019 00:12:17 7.7 C 28 %
1587 21-12-2019 00:22:17 7.5 C 30 %
1588 21-12-2019 00:32:17 7.5 C 30 %
1589 21-12-2019 00:42:17 7.2 C 30 %
1590 21-12-2019 00:52:18 7 C 30 %
1591 21-12-2019 01:02:17 6.9 C 32 %
1592 21-12-2019 01:12:17 7.3 C 31 %
1593 21-12-2019 01:22:17 7.4 C 31 %
1594 21-12-2019 01:32:17 7.3 C 32 %
1595 21-12-2019 01:42:17 7.5 C 31 %
1596 21-12-2019 01:52:17 7.5 C 32 %
1597 21-12-2019 02:02:17 7.9 C 30 %
1598 21-12-2019 02:12:17 8 C 29 %
1599 21-12-2019 02:22:17 8.2 C 28 %
1600 21-12-2019 02:32:18 7.8 C 30 %
Sensor: Nr:Datum:Temp:Feuchte:
Aussen-T/F 1601 21-12-2019 02:42:18 7.8 C 30 %
1602 21-12-2019 02:52:17 7.8 C 30 %
1603 21-12-2019 03:02:17 7.5 C 30 %
1604 21-12-2019 03:12:17 7.5 C 31 %
1605 21-12-2019 03:22:17 7.4 C 31 %
1606 21-12-2019 03:32:18 7.3 C 31 %
1607 21-12-2019 03:42:18 7.1 C 31 %
1608 21-12-2019 03:52:17 7.1 C 32 %
1609 21-12-2019 04:02:17 6.9 C 33 %
1610 21-12-2019 04:12:17 6.7 C 36 %
1611 21-12-2019 04:22:17 6.4 C 37 %
1612 21-12-2019 04:32:18 6 C 38 %
1613 21-12-2019 04:42:18 5.9 C 38 %
1614 21-12-2019 04:52:17 5.7 C 40 %
1615 21-12-2019 05:02:17 6 C 40 %
1616 21-12-2019 05:12:17 5.6 C 39 %
1617 21-12-2019 05:22:17 5.4 C 38 %
1618 21-12-2019 05:32:18 5.4 C 38 %
1619 21-12-2019 05:42:18 5.1 C 38 %
1620 21-12-2019 05:52:17 5.3 C 40 %
1621 21-12-2019 06:02:17 4.9 C 41 %
1622 21-12-2019 06:12:17 4.8 C 41 %
1623 21-12-2019 06:22:18 4.3 C 40 %
1624 21-12-2019 06:32:17 4.3 C 42 %
1625 21-12-2019 06:42:17 5 C 40 %
Sensor: Nr:Datum:Temp:Feuchte:
Aussen-T/F 1626 21-12-2019 06:52:18 3.8 C 41 %
1627 21-12-2019 07:02:17 3.8 C 43 %
1628 21-12-2019 07:12:18 3.5 C 42 %
1629 21-12-2019 07:22:17 3.4 C 43 %
1630 21-12-2019 07:32:17 3.3 C 43 %
1631 21-12-2019 07:42:17 3 C 42 %
1632 21-12-2019 07:52:17 3 C 43 %
1633 21-12-2019 08:02:17 3.1 C 44 %
1634 21-12-2019 08:12:17 3.6 C 44 %
1635 21-12-2019 08:22:17 3.7 C 44 %
1636 21-12-2019 08:32:17 3.9 C 43 %
1637 21-12-2019 08:42:17 4.6 C 43 %
1638 21-12-2019 08:52:17 4.9 C 42 %
1639 21-12-2019 09:02:17 5 C 39 %
1640 21-12-2019 09:12:17 4.5 C 38 %
1641 21-12-2019 09:22:17 4.4 C 38 %
1642 21-12-2019 09:32:17 4.4 C 39 %
1643 21-12-2019 09:42:17 4.6 C 40 %
1644 21-12-2019 09:52:17 4.6 C 38 %
1645 21-12-2019 10:02:17 4.8 C 38 %
1646 21-12-2019 10:12:17 4.8 C 37 %
1647 21-12-2019 10:22:17 5.1 C 37 %
1648 21-12-2019 10:32:17 5.2 C 36 %
1649 21-12-2019 10:42:17 5.1 C 37 %
1650 21-12-2019 10:52:17 5.2 C 37 %
Sensor: Nr:Datum:Temp:Feuchte:
Aussen-T/F 1651 21-12-2019 11:02:17 5.3 C 37 %
1652 21-12-2019 11:12:17 5.3 C 37 %
1653 21-12-2019 11:22:17 5.4 C 37 %
1654 21-12-2019 11:32:17 5.8 C 37 %
1655 21-12-2019 11:42:17 5.9 C 37 %
1656 21-12-2019 11:52:17 5.8 C 37 %
1657 21-12-2019 12:02:17 5.8 C 36 %
1658 21-12-2019 12:12:17 6.2 C 36 %
1659 21-12-2019 12:22:17 6.2 C 35 %
1660 21-12-2019 12:32:17 7 C 32 %
1661 21-12-2019 12:42:17 6.8 C 33 %
1662 21-12-2019 12:52:17 8 C 30 %
1663 21-12-2019 13:02:17 7.8 C 30 %
1664 21-12-2019 13:12:17 7.1 C 30 %
1665 21-12-2019 13:22:17 6.9 C 31 %
1666 21-12-2019 13:32:17 7.2 C 30 %
1667 21-12-2019 13:42:17 8 C 28 %
1668 21-12-2019 13:52:18 7.7 C 28 %
1669 21-12-2019 14:02:17 8.3 C 27 %
1670 21-12-2019 14:12:17 8.8 C 26 %
1671 21-12-2019 14:22:17 8.2 C 27 %
1672 21-12-2019 14:32:18 8.2 C 27 %
1673 21-12-2019 14:42:18 8.5 C 27 %
1674 21-12-2019 14:52:17 8.8 C 26 %
1675 21-12-2019 15:02:18 9 C 25 %
Sensor: Nr:Datum:Temp:Feuchte:
Aussen-T/F 1676 21-12-2019 15:12:18 8.7 C 26 %
1677 21-12-2019 15:22:18 8.8 C 25 %
1678 21-12-2019 15:32:17 8.7 C 25 %
1679 21-12-2019 15:42:17 8 C 26 %
1680 21-12-2019 15:52:17 7.5 C 28 %
1681 21-12-2019 16:02:17 7.7 C 27 %
1682 21-12-2019 16:12:17 7.6 C 29 %
1683 21-12-2019 16:22:17 7.4 C 30 %
1684 21-12-2019 16:32:17 7.4 C 30 %
1685 21-12-2019 16:42:17 7.7 C 28 %
1686 21-12-2019 16:52:17 7.9 C 27 %
1687 21-12-2019 17:02:17 7.6 C 29 %
1688 21-12-2019 17:12:17 7.3 C 30 %
1689 21-12-2019 17:22:17 7.2 C 30 %
1690 21-12-2019 17:32:17 7.3 C 30 %
1691 21-12-2019 17:42:17 7.3 C 29 %
1692 21-12-2019 17:52:17 7.2 C 29 %
1693 21-12-2019 18:02:17 7.6 C 27 %
1694 21-12-2019 18:12:17 7.6 C 27 %
1695 21-12-2019 18:22:17 7.6 C 26 %
1696 21-12-2019 18:32:18 7.9 C 25 %
1697 21-12-2019 18:42:18 7.7 C 26 %
1698 21-12-2019 18:52:17 7.5 C 26 %
1699 21-12-2019 19:02:17 7.3 C 27 %
1700 21-12-2019 19:12:17 7 C 27 %
Sensor: Nr:Datum:Temp:Feuchte:
Aussen-T/F 1701 21-12-2019 19:22:17 7 C 27 %
1702 21-12-2019 19:32:17 6.9 C 30 %
1703 21-12-2019 19:42:17 6.8 C 30 %
1704 21-12-2019 19:52:17 7 C 27 %
1705 21-12-2019 20:02:17 7.1 C 26 %
1706 21-12-2019 20:12:17 7.1 C 26 %
1707 21-12-2019 20:22:17 7.1 C 26 %
1708 21-12-2019 20:32:17 6.9 C 28 %
1709 21-12-2019 20:42:17 7 C 27 %
1710 21-12-2019 20:52:17 6.8 C 27 %
1711 21-12-2019 21:02:18 6.4 C 29 %
1712 21-12-2019 21:12:18 6.1 C 30 %
1713 21-12-2019 21:22:17 6.1 C 31 %
1714 21-12-2019 21:32:17 6.3 C 31 %
1715 21-12-2019 21:42:17 5.9 C 31 %
1716 21-12-2019 21:52:18 5.1 C 34 %
1717 21-12-2019 22:02:18 4.9 C 36 %
1718 21-12-2019 22:12:18 5.2 C 34 %
1719 21-12-2019 22:22:17 5.7 C 30 %
1720 21-12-2019 22:32:17 6.1 C 27 %
1721 21-12-2019 22:42:17 6.1 C 27 %
1722 21-12-2019 22:52:17 6 C 27 %
1723 21-12-2019 23:02:17 5.8 C 27 %
1724 21-12-2019 23:12:17 5.8 C 27 %
1725 21-12-2019 23:22:17 6.3 C 26 %
Sensor: Nr:Datum:Temp:Feuchte:
Aussen-T/F 1726 21-12-2019 23:32:18 6.5 C 25 %
1727 21-12-2019 23:42:18 6.7 C 25 %
1728 21-12-2019 23:52:17 6.3 C 26 %
1729 22-12-2019 00:02:17 6.8 C 26 %
1730 22-12-2019 00:12:17 6.9 C 26 %
1731 22-12-2019 00:22:17 6.8 C 26 %
1732 22-12-2019 00:32:17 6.8 C 26 %
1733 22-12-2019 00:42:17 6.7 C 27 %
1734 22-12-2019 00:52:17 6.3 C 30 %
1735 22-12-2019 01:02:17 6.2 C 30 %
1736 22-12-2019 01:12:18 5.8 C 35 %
1737 22-12-2019 01:22:17 5.8 C 36 %
1738 22-12-2019 01:32:17 5.8 C 39 %
1739 22-12-2019 01:42:17 5.7 C 40 %
1740 22-12-2019 01:52:17 5.7 C 40 %
1741 22-12-2019 02:02:17 5.7 C 38 %
1742 22-12-2019 02:12:18 5.7 C 38 %
1743 22-12-2019 02:22:17 5.8 C 38 %
1744 22-12-2019 02:32:17 5.9 C 37 %
1745 22-12-2019 02:42:17 5.9 C 36 %
1746 22-12-2019 02:52:18 6 C 35 %
1747 22-12-2019 03:02:17 6.1 C 35 %
1748 22-12-2019 03:12:17 6.2 C 34 %
1749 22-12-2019 03:22:17 6.2 C 35 %
1750 22-12-2019 03:32:17 6.2 C 34 %
Sensor: Nr:Datum:Temp:Feuchte:
Aussen-T/F 1751 22-12-2019 03:42:17 6.1 C 35 %
1752 22-12-2019 03:52:17 6.2 C 35 %
1753 22-12-2019 04:02:18 6.2 C 35 %
1754 22-12-2019 04:12:18 6 C 35 %
1755 22-12-2019 04:22:17 6.2 C 34 %
1756 22-12-2019 04:32:17 6.2 C 34 %
1757 22-12-2019 04:42:17 6.3 C 33 %
1758 22-12-2019 04:52:17 6.3 C 33 %
1759 22-12-2019 05:02:17 6.2 C 34 %
1760 22-12-2019 05:12:17 5.8 C 34 %
1761 22-12-2019 05:22:17 5.4 C 36 %
1762 22-12-2019 05:32:17 5.7 C 40 %
1763 22-12-2019 05:42:17 6.1 C 38 %
1764 22-12-2019 05:52:17 5.5 C 35 %
1765 22-12-2019 06:02:17 5.1 C 39 %
1766 22-12-2019 06:12:17 5.3 C 41 %
1767 22-12-2019 06:22:17 4.9 C 41 %
1768 22-12-2019 06:32:17 5.4 C 42 %
1769 22-12-2019 06:42:17 5.9 C 41 %
1770 22-12-2019 06:52:17 6.2 C 39 %
1771 22-12-2019 07:02:17 6.2 C 38 %
1772 22-12-2019 07:12:17 6 C 38 %
1773 22-12-2019 07:22:17 5.7 C 38 %
1774 22-12-2019 07:32:17 5.4 C 39 %
1775 22-12-2019 07:42:17 6 C 42 %
Sensor: Nr:Datum:Temp:Feuchte:
Aussen-T/F 1776 22-12-2019 07:52:17 6.1 C 41 %
1777 22-12-2019 08:02:18 6.3 C 41 %
1778 22-12-2019 08:12:18 6.2 C 40 %
1779 22-12-2019 08:22:17 5.9 C 40 %
1780 22-12-2019 08:32:17 5.8 C 41 %
1781 22-12-2019 08:42:17 6.3 C 41 %
1782 22-12-2019 08:52:18 6.2 C 39 %
1783 22-12-2019 09:02:17 6 C 39 %
1784 22-12-2019 09:12:17 6.2 C 40 %
1785 22-12-2019 09:22:17 6.4 C 39 %
1786 22-12-2019 09:32:17 6.3 C 39 %
1787 22-12-2019 09:42:17 6.8 C 39 %
1788 22-12-2019 09:52:17 7 C 37 %
1789 22-12-2019 10:02:17 7.1 C 37 %
1790 22-12-2019 10:12:17 7.9 C 33 %
1791 22-12-2019 10:22:17 8.1 C 33 %
1792 22-12-2019 10:32:17 8.8 C 30 %
1793 22-12-2019 10:42:17 9 C 29 %
1794 22-12-2019 10:52:17 9.3 C 28 %
1795 22-12-2019 11:02:17 9.5 C 28 %
1796 22-12-2019 11:12:17 10 C 26 %
1797 22-12-2019 11:22:17 10 C 26 %
1798 22-12-2019 11:32:18 10.4 C 26 %
1799 22-12-2019 11:42:18 10.2 C 26 %
1800 22-12-2019 11:52:17 10.4 C 26 %
Sensor: Nr:Datum:Temp:Feuchte:
Aussen-T/F 1801 22-12-2019 12:02:17 10.5 C 25 %
1802 22-12-2019 12:12:17 10.5 C 26 %
1803 22-12-2019 12:22:17 10.5 C 25 %
1804 22-12-2019 12:32:17 10.7 C 26 %
1805 22-12-2019 12:42:17 10.8 C 26 %
1806 22-12-2019 12:52:17 11.2 C 25 %
1807 22-12-2019 13:02:17 11.1 C 25 %
1808 22-12-2019 13:12:17 10.8 C 25 %
1809 22-12-2019 13:22:17 10.7 C 25 %
1810 22-12-2019 13:32:17 10.7 C 25 %
1811 22-12-2019 13:42:17 10.7 C 25 %
1812 22-12-2019 13:52:17 10.8 C 25 %
1813 22-12-2019 14:02:17 11.1 C 23 %
1814 22-12-2019 14:12:17 11 C 23 %
1815 22-12-2019 14:22:17 10.8 C 23 %
1816 22-12-2019 14:32:17 10.9 C 23 %
1817 22-12-2019 14:42:17 10.8 C 23 %
1818 22-12-2019 14:52:17 10.7 C 25 %
1819 22-12-2019 15:02:17 10.6 C 25 %
1820 22-12-2019 15:12:17 10.3 C 25 %
1821 22-12-2019 15:22:17 10.1 C 25 %
1822 22-12-2019 15:32:17 9.9 C 26 %
1823 22-12-2019 15:42:17 9.7 C 26 %
1824 22-12-2019 15:52:18 9.6 C 25 %
1825 22-12-2019 16:02:18 9.6 C 25 %
Sensor: Nr:Datum:Temp:Feuchte:
Aussen-T/F 1826 22-12-2019 16:12:18 9.3 C 25 %
1827 22-12-2019 16:22:17 8.9 C 26 %
1828 22-12-2019 16:32:17 8.3 C 26 %
1829 22-12-2019 16:42:17 8.4 C 27 %
1830 22-12-2019 16:52:17 7.9 C 28 %
1831 22-12-2019 17:02:18 7.5 C 30 %
1832 22-12-2019 17:12:18 7.5 C 30 %
1833 22-12-2019 17:22:17 7.4 C 30 %
1834 22-12-2019 17:32:17 7.5 C 29 %
1835 22-12-2019 17:42:17 7.5 C 28 %
1836 22-12-2019 17:52:17 7.2 C 28 %
1837 22-12-2019 18:02:17 7.2 C 30 %
1838 22-12-2019 18:12:17 7.1 C 30 %
1839 22-12-2019 18:22:17 7.3 C 30 %
1840 22-12-2019 18:32:17 7.4 C 29 %
1841 22-12-2019 18:42:17 7.5 C 29 %
1842 22-12-2019 18:52:17 7.2 C 29 %
1843 22-12-2019 19:02:17 7.1 C 30 %
1844 22-12-2019 19:12:17 7 C 31 %
1845 22-12-2019 19:22:17 7 C 32 %
1846 22-12-2019 19:32:17 7.1 C 31 %
1847 22-12-2019 19:42:17 7.5 C 30 %
1848 22-12-2019 19:52:17 8 C 27 %
1849 22-12-2019 20:02:17 7.9 C 27 %
1850 22-12-2019 20:12:17 8.1 C 26 %
Sensor: Nr:Datum:Temp:Feuchte:
Aussen-T/F 1851 22-12-2019 20:22:17 8.3 C 25 %
1852 22-12-2019 20:32:17 8.2 C 25 %
1853 22-12-2019 20:42:17 8 C 25 %
1854 22-12-2019 20:52:17 8 C 25 %
1855 22-12-2019 21:02:17 8.1 C 25 %
1856 22-12-2019 21:12:17 8.1 C 25 %
1857 22-12-2019 21:22:17 7.8 C 25 %
1858 22-12-2019 21:32:17 8.1 C 25 %
1859 22-12-2019 21:42:17 7.8 C 26 %
1860 22-12-2019 21:52:17 7.7 C 26 %
1861 22-12-2019 22:02:17 7.9 C 26 %
1862 22-12-2019 22:12:17 7.6 C 26 %
1863 22-12-2019 22:22:17 7.5 C 26 %
1864 22-12-2019 22:32:17 7.1 C 27 %
1865 22-12-2019 22:42:17 6.9 C 28 %
1866 22-12-2019 22:52:17 6.7 C 29 %
1867 22-12-2019 23:02:17 6.2 C 31 %
1868 22-12-2019 23:12:17 6.4 C 31 %
1869 22-12-2019 23:22:17 6.6 C 31 %
1870 22-12-2019 23:32:17 6.6 C 31 %
1871 22-12-2019 23:42:17 6.7 C 31 %
1872 22-12-2019 23:52:17 6.7 C 31 %
1873 23-12-2019 00:02:17 6.6 C 32 %
1874 23-12-2019 00:12:17 6.5 C 31 %
1875 23-12-2019 00:22:17 6.4 C 32 %
Sensor: Nr:Datum:Temp:Feuchte:
Aussen-T/F 1876 23-12-2019 00:32:17 6.6 C 31 %
1877 23-12-2019 00:42:17 7 C 30 %
1878 23-12-2019 00:52:17 6.9 C 30 %
1879 23-12-2019 01:02:17 6.8 C 30 %
1880 23-12-2019 01:12:17 7.1 C 28 %
1881 23-12-2019 01:22:17 7 C 28 %
1882 23-12-2019 01:32:17 7.1 C 28 %
1883 23-12-2019 01:42:17 7.4 C 27 %
1884 23-12-2019 01:52:17 7.4 C 27 %
1885 23-12-2019 02:02:17 6.8 C 29 %
1886 23-12-2019 02:12:17 6.5 C 30 %
1887 23-12-2019 02:22:17 6.8 C 29 %
1888 23-12-2019 02:32:17 6.9 C 29 %
1889 23-12-2019 02:42:17 7.3 C 28 %
1890 23-12-2019 02:52:17 6.9 C 30 %
1891 23-12-2019 03:02:17 6.8 C 31 %
1892 23-12-2019 03:12:17 6.4 C 31 %
1893 23-12-2019 03:22:17 6.5 C 30 %
1894 23-12-2019 03:32:17 7 C 28 %
1895 23-12-2019 03:42:17 6.6 C 29 %
1896 23-12-2019 03:52:17 7 C 28 %
1897 23-12-2019 04:02:17 6.9 C 30 %
1898 23-12-2019 04:12:17 7.1 C 28 %
1899 23-12-2019 04:22:17 6.8 C 30 %
1900 23-12-2019 04:32:17 6.9 C 31 %
Sensor: Nr:Datum:Temp:Feuchte:
Aussen-T/F 1901 23-12-2019 04:42:17 6.5 C 31 %
1902 23-12-2019 04:52:17 6.1 C 31 %
1903 23-12-2019 05:02:17 6.4 C 32 %
1904 23-12-2019 05:12:17 7 C 30 %
1905 23-12-2019 05:22:17 7.1 C 30 %
1906 23-12-2019 05:32:17 7 C 30 %
1907 23-12-2019 05:42:17 6.8 C 31 %
1908 23-12-2019 05:52:17 6.3 C 32 %
1909 23-12-2019 06:02:18 6.3 C 34 %
1910 23-12-2019 06:12:18 6.6 C 33 %
1911 23-12-2019 06:22:17 6.9 C 31 %
1912 23-12-2019 06:32:18 7.1 C 30 %
1913 23-12-2019 06:42:18 6.9 C 31 %
1914 23-12-2019 06:52:17 6.9 C 31 %
1915 23-12-2019 07:02:17 6.8 C 32 %
1916 23-12-2019 07:12:17 6.8 C 34 %
1917 23-12-2019 07:22:17 6.8 C 32 %
1918 23-12-2019 07:32:17 7.1 C 30 %
1919 23-12-2019 07:42:17 7.4 C 29 %
1920 23-12-2019 07:52:17 7.1 C 30 %
1921 23-12-2019 08:02:17 7.3 C 30 %
1922 23-12-2019 08:12:17 7.4 C 28 %
1923 23-12-2019 08:22:17 7.5 C 28 %
1924 23-12-2019 08:32:18 7.5 C 28 %
1925 23-12-2019 08:42:18 7.6 C 28 %
Sensor: Nr:Datum:Temp:Feuchte:
Aussen-T/F 1926 23-12-2019 08:52:17 7.6 C 27 %
1927 23-12-2019 09:02:17 7.6 C 27 %
1928 23-12-2019 09:12:18 7.7 C 27 %
1929 23-12-2019 09:22:17 7.8 C 27 %
1930 23-12-2019 09:32:18 7.8 C 27 %
1931 23-12-2019 09:42:18 7.8 C 27 %
1932 23-12-2019 09:52:18 7.9 C 26 %
1933 23-12-2019 10:02:17 7.3 C 30 %
1934 23-12-2019 10:12:18 7 C 33 %
1935 23-12-2019 10:22:17 7 C 35 %
1936 23-12-2019 10:32:18 6.8 C 35 %
1937 23-12-2019 10:42:18 6.9 C 34 %
1938 23-12-2019 10:52:17 7.4 C 30 %
1939 23-12-2019 11:02:18 7.8 C 28 %
1940 23-12-2019 11:12:18 8.1 C 28 %
1941 23-12-2019 11:22:17 8.4 C 26 %
1942 23-12-2019 11:32:18 8.3 C 26 %
1943 23-12-2019 11:42:18 8.6 C 26 %
1944 23-12-2019 11:52:17 8.9 C 25 %
1945 23-12-2019 12:02:18 9.1 C 25 %
1946 23-12-2019 12:12:18 9.1 C 25 %
1947 23-12-2019 12:22:17 8.9 C 25 %
1948 23-12-2019 12:32:17 9 C 25 %
1949 23-12-2019 12:42:17 9.3 C 25 %
1950 23-12-2019 12:52:17 8.4 C 26 %
Sensor: Nr:Datum:Temp:Feuchte:
Aussen-T/F 1951 23-12-2019 13:02:17 8.4 C 26 %
1952 23-12-2019 13:12:17 8.3 C 27 %
1953 23-12-2019 13:22:17 8.2 C 27 %
1954 23-12-2019 13:32:18 8.1 C 29 %
1955 23-12-2019 13:42:18 8.2 C 28 %
1956 23-12-2019 13:52:17 8.5 C 28 %
1957 23-12-2019 14:02:17 8.9 C 27 %
1958 23-12-2019 14:12:17 8.9 C 26 %
1959 23-12-2019 14:22:18 9 C 25 %
1960 23-12-2019 14:32:17 9.1 C 25 %
1961 23-12-2019 14:42:17 9.1 C 25 %
1962 23-12-2019 14:52:17 8.9 C 25 %
1963 23-12-2019 15:02:18 8.7 C 26 %
1964 23-12-2019 15:12:18 9.1 C 25 %
1965 23-12-2019 15:22:17 9.1 C 25 %
1966 23-12-2019 15:32:17 9 C 25 %
1967 23-12-2019 15:42:17 9 C 25 %
1968 23-12-2019 15:52:17 8.8 C 25 %
1969 23-12-2019 16:02:17 8.8 C 25 %
1970 23-12-2019 16:12:17 8.6 C 26 %
1971 23-12-2019 16:22:18 8.5 C 25 %
1972 23-12-2019 16:32:17 8.4 C 25 %
1973 23-12-2019 16:42:17 8.5 C 25 %
1974 23-12-2019 16:52:18 8.5 C 25 %
1975 23-12-2019 17:02:17 8.2 C 25 %
Sensor: Nr:Datum:Temp:Feuchte:
Aussen-T/F 1976 23-12-2019 17:12:17 8.4 C 25 %
1977 23-12-2019 17:22:17 8 C 25 %
1978 23-12-2019 17:32:17 7.9 C 25 %
1979 23-12-2019 17:42:18 7.8 C 25 %
1980 23-12-2019 17:52:17 7.8 C 25 %
1981 23-12-2019 18:02:17 7.9 C 25 %
1982 23-12-2019 18:12:17 8 C 23 %
1983 23-12-2019 18:22:17 7.9 C 23 %
1984 23-12-2019 18:32:17 7.9 C 25 %
1985 23-12-2019 18:42:17 7.6 C 25 %
1986 23-12-2019 18:52:17 7.5 C 26 %
1987 23-12-2019 19:02:17 7.3 C 26 %
1988 23-12-2019 19:12:17 6.7 C 29 %
1989 23-12-2019 19:22:17 6.4 C 30 %
1990 23-12-2019 19:32:17 7.4 C 26 %
1991 23-12-2019 19:42:17 7 C 26 %
1992 23-12-2019 19:52:17 7 C 27 %
1993 23-12-2019 20:02:17 7 C 28 %
1994 23-12-2019 20:12:17 6.5 C 30 %
1995 23-12-2019 20:22:17 6.8 C 30 %
1996 23-12-2019 20:32:18 6.8 C 30 %
1997 23-12-2019 20:42:18 6.9 C 30 %
1998 23-12-2019 20:52:17 6.9 C 30 %
1999 23-12-2019 21:02:18 6.7 C 30 %
2000 23-12-2019 21:12:18 7.1 C 28 %
Sensor: Nr:Datum:Temp:Feuchte:
Aussen-T/F 2001 23-12-2019 21:22:17 7 C 28 %
2002 23-12-2019 21:32:17 6.7 C 31 %
2003 23-12-2019 21:42:17 6.5 C 31 %
2004 23-12-2019 21:52:17 6.5 C 32 %
2005 23-12-2019 22:02:18 6.4 C 31 %
2006 23-12-2019 22:12:18 5.8 C 32 %
2007 23-12-2019 22:22:17 5.4 C 37 %
2008 23-12-2019 22:32:17 5.7 C 33 %
2009 23-12-2019 22:42:17 5.3 C 34 %
2010 23-12-2019 22:52:17 5.5 C 34 %
2011 23-12-2019 23:02:17 5.4 C 33 %
2012 23-12-2019 23:12:17 5.5 C 32 %
2013 23-12-2019 23:22:18 5.4 C 30 %
2014 23-12-2019 23:32:17 5.8 C 30 %
2015 23-12-2019 23:42:17 4.8 C 33 %
2016 23-12-2019 23:52:17 4.8 C 36 %
2017 24-12-2019 00:02:17 5.6 C 35 %
2018 24-12-2019 00:12:17 5.8 C 32 %
2019 24-12-2019 00:22:17 5.7 C 32 %
2020 24-12-2019 00:32:18 6 C 32 %
2021 24-12-2019 00:42:18 6.1 C 31 %
2022 24-12-2019 00:52:17 6.3 C 31 %
2023 24-12-2019 01:02:17 5.6 C 32 %
2024 24-12-2019 01:12:17 5.9 C 32 %
2025 24-12-2019 01:22:17 6.1 C 30 %
Sensor: Nr:Datum:Temp:Feuchte:
Aussen-T/F 2026 24-12-2019 01:32:17 6.3 C 30 %
2027 24-12-2019 01:42:17 5.9 C 31 %
2028 24-12-2019 01:52:17 5.7 C 33 %
2029 24-12-2019 02:02:17 5.7 C 35 %
2030 24-12-2019 02:12:17 5.8 C 35 %
2031 24-12-2019 02:22:17 5.6 C 35 %
2032 24-12-2019 02:32:18 5.5 C 36 %
2033 24-12-2019 02:42:18 5.5 C 36 %
2034 24-12-2019 02:52:17 6.6 C 30 %
2035 24-12-2019 03:02:18 6.7 C 29 %
2036 24-12-2019 03:12:18 6.3 C 30 %
2037 24-12-2019 03:22:17 5.7 C 31 %
2038 24-12-2019 03:32:17 5.5 C 31 %
2039 24-12-2019 03:42:17 5.7 C 31 %
2040 24-12-2019 03:52:17 5 C 32 %
2041 24-12-2019 04:02:17 5 C 38 %
2042 24-12-2019 04:12:17 5.2 C 37 %
2043 24-12-2019 04:22:17 5.2 C 36 %
2044 24-12-2019 04:32:17 4.8 C 37 %
2045 24-12-2019 04:42:17 4.8 C 39 %
2046 24-12-2019 04:52:17 5.3 C 38 %
2047 24-12-2019 05:02:18 5.4 C 35 %
2048 24-12-2019 05:12:18 5.2 C 35 %
2049 24-12-2019 05:22:17 4.7 C 37 %
2050 24-12-2019 05:32:18 5 C 37 %
Sensor: Nr:Datum:Temp:Feuchte:
Aussen-T/F 2051 24-12-2019 05:42:18 4.6 C 36 %
2052 24-12-2019 05:52:17 4.9 C 37 %
2053 24-12-2019 06:02:18 4.3 C 36 %
2054 24-12-2019 06:12:18 4.6 C 39 %
2055 24-12-2019 06:22:17 4.6 C 38 %
2056 24-12-2019 06:32:17 4.6 C 39 %
2057 24-12-2019 06:42:17 4.5 C 38 %
2058 24-12-2019 06:52:17 4.5 C 39 %
2059 24-12-2019 07:02:17 4.8 C 37 %
2060 24-12-2019 07:12:17 5 C 36 %
2061 24-12-2019 07:22:17 5.4 C 34 %
2062 24-12-2019 07:32:17 5.6 C 33 %
2063 24-12-2019 07:42:17 5.6 C 32 %
2064 24-12-2019 07:52:17 5.8 C 32 %
2065 24-12-2019 08:02:17 5.8 C 31 %
2066 24-12-2019 08:12:17 6 C 30 %
2067 24-12-2019 08:22:17 6.2 C 29 %
2068 24-12-2019 08:32:17 6.2 C 30 %
2069 24-12-2019 08:42:17 6.3 C 30 %
2070 24-12-2019 08:52:18 6.4 C 30 %
2071 24-12-2019 09:02:17 6.5 C 29 %
2072 24-12-2019 09:12:17 6.8 C 29 %
2073 24-12-2019 09:22:17 6.8 C 28 %
2074 24-12-2019 09:32:17 6.8 C 29 %
2075 24-12-2019 09:42:17 6.8 C 28 %
Sensor: Nr:Datum:Temp:Feuchte:
Aussen-T/F 2076 24-12-2019 09:52:17 6.5 C 30 %
2077 24-12-2019 10:02:17 6.4 C 30 %
2078 24-12-2019 10:12:17 6.2 C 31 %
2079 24-12-2019 10:22:17 6.2 C 33 %
2080 24-12-2019 10:32:17 6.3 C 37 %
2081 24-12-2019 10:42:17 6.8 C 37 %
2082 24-12-2019 10:52:17 6.7 C 33 %
2083 24-12-2019 11:02:17 6.8 C 35 %
2084 24-12-2019 11:12:17 6.9 C 34 %
2085 24-12-2019 11:22:17 7.5 C 32 %
2086 24-12-2019 11:32:17 8 C 30 %
2087 24-12-2019 11:42:17 8.2 C 29 %
2088 24-12-2019 11:52:18 8 C 29 %
2089 24-12-2019 12:02:17 7.8 C 30 %
2090 24-12-2019 12:12:17 7.6 C 30 %
2091 24-12-2019 12:22:17 8 C 28 %
2092 24-12-2019 12:32:17 8.2 C 27 %
2093 24-12-2019 12:42:17 8.4 C 27 %
2094 24-12-2019 12:52:18 8.9 C 27 %
2095 24-12-2019 13:02:17 9.2 C 25 %
2096 24-12-2019 13:12:17 9.3 C 25 %
2097 24-12-2019 13:22:17 9.3 C 25 %
2098 24-12-2019 13:32:17 9.2 C 26 %
2099 24-12-2019 13:42:17 9.3 C 26 %
2100 24-12-2019 13:52:17 9.3 C 26 %
Sensor: Nr:Datum:Temp:Feuchte:
Aussen-T/F 2101 24-12-2019 14:02:18 9.4 C 25 %
2102 24-12-2019 14:12:18 9.5 C 25 %
2103 24-12-2019 14:22:17 9.6 C 25 %
2104 24-12-2019 14:32:18 9.7 C 25 %
2105 24-12-2019 14:42:18 9.3 C 26 %
2106 24-12-2019 14:52:17 9.2 C 27 %
2107 24-12-2019 15:02:18 9.1 C 27 %
2108 24-12-2019 15:12:18 9.5 C 26 %
2109 24-12-2019 15:22:17 9.8 C 25 %
2110 24-12-2019 15:32:17 10 C 22 %
2111 24-12-2019 15:42:17 10.1 C 20 %
2112 24-12-2019 15:52:17 10.5 C 20 %
2113 24-12-2019 16:02:17 10.1 C 20 %
2114 24-12-2019 16:12:17 10 C 20 %
2115 24-12-2019 16:22:17 10.2 C 20 %
2116 24-12-2019 16:32:17 9.8 C 20 %
2117 24-12-2019 16:42:17 9.7 C 21 %
2118 24-12-2019 16:52:17 10.1 C 20 %
2119 24-12-2019 17:02:17 9.8 C 20 %
2120 24-12-2019 17:12:17 9.4 C 20 %
2121 24-12-2019 17:22:18 9.6 C 20 %
2122 24-12-2019 17:32:17 8.8 C 20 %
2123 24-12-2019 17:42:17 9.1 C 20 %
2124 24-12-2019 17:52:17 9.3 C 20 %
2125 24-12-2019 18:02:17 9 C 20 %
Sensor: Nr:Datum:Temp:Feuchte:
Aussen-T/F 2126 24-12-2019 18:12:17 8.5 C 26 %
2127 24-12-2019 18:22:17 8.9 C 25 %
2128 24-12-2019 18:32:17 8.2 C 28 %
2129 24-12-2019 18:42:17 7.8 C 31 %
2130 24-12-2019 18:52:17 7.5 C 35 %
2131 24-12-2019 19:02:17 7.6 C 31 %
2132 24-12-2019 19:12:17 7.3 C 31 %
2133 24-12-2019 19:22:17 6.7 C 35 %
2134 24-12-2019 19:32:17 6.5 C 40 %
2135 24-12-2019 19:42:17 6.5 C 36 %
2136 24-12-2019 19:52:17 6.2 C 36 %
2137 24-12-2019 20:02:17 6.7 C 35 %
2138 24-12-2019 20:12:17 7.3 C 30 %
2139 24-12-2019 20:22:17 7.2 C 32 %
2140 24-12-2019 20:32:18 7.1 C 30 %
2141 24-12-2019 20:42:18 7.3 C 31 %
2142 24-12-2019 20:52:17 7.3 C 30 %
2143 24-12-2019 21:02:17 7.1 C 31 %
2144 24-12-2019 21:12:17 7.7 C 30 %
2145 24-12-2019 21:22:17 7.4 C 30 %
2146 24-12-2019 21:32:17 7.6 C 30 %
2147 24-12-2019 21:42:17 7.9 C 29 %
2148 24-12-2019 21:52:17 8.1 C 28 %
2149 24-12-2019 22:02:17 8.6 C 26 %
2150 24-12-2019 22:12:17 8.5 C 26 %
Sensor: Nr:Datum:Temp:Feuchte:
Aussen-T/F 2151 24-12-2019 22:22:17 8.3 C 26 %
2152 24-12-2019 22:32:17 8.4 C 26 %
2153 24-12-2019 22:42:17 8.2 C 27 %
2154 24-12-2019 22:52:17 8 C 28 %
2155 24-12-2019 23:02:17 8.4 C 27 %
2156 24-12-2019 23:12:17 8.4 C 27 %
2157 24-12-2019 23:22:17 8.4 C 27 %
2158 24-12-2019 23:32:17 8.5 C 27 %
2159 24-12-2019 23:42:17 8.5 C 27 %
2160 24-12-2019 23:52:17 8.4 C 27 %
2161 25-12-2019 00:02:17 8.4 C 27 %
2162 25-12-2019 00:12:17 8.4 C 27 %
2163 25-12-2019 00:22:17 8.4 C 28 %
2164 25-12-2019 00:32:17 8.3 C 28 %
2165 25-12-2019 00:42:18 8.2 C 29 %
2166 25-12-2019 00:52:17 8.2 C 29 %
2167 25-12-2019 01:02:17 7.8 C 32 %
2168 25-12-2019 01:12:17 7.7 C 33 %
2169 25-12-2019 01:22:17 7.5 C 35 %
2170 25-12-2019 01:32:18 7.3 C 35 %
2171 25-12-2019 01:42:18 7.5 C 35 %
2172 25-12-2019 01:52:17 7.6 C 33 %
2173 25-12-2019 02:02:17 7.7 C 32 %
2174 25-12-2019 02:12:17 8 C 31 %
2175 25-12-2019 02:22:17 7.9 C 31 %
Sensor: Nr:Datum:Temp:Feuchte:
Aussen-T/F 2176 25-12-2019 02:32:18 7.9 C 31 %
2177 25-12-2019 02:42:18 7.9 C 31 %
2178 25-12-2019 02:52:17 7.9 C 31 %
2179 25-12-2019 03:02:17 7.8 C 31 %
2180 25-12-2019 03:12:17 7.9 C 32 %
2181 25-12-2019 03:22:17 8.1 C 31 %
2182 25-12-2019 03:32:17 8.3 C 30 %
2183 25-12-2019 03:42:17 8.2 C 30 %
2184 25-12-2019 03:52:18 8.2 C 30 %
2185 25-12-2019 04:02:17 7.9 C 34 %
2186 25-12-2019 04:12:17 8 C 34 %
2187 25-12-2019 04:22:18 7.9 C 35 %
2188 25-12-2019 04:32:17 7.9 C 36 %
2189 25-12-2019 04:42:17 7.9 C 38 %
2190 25-12-2019 04:52:17 7.9 C 36 %
2191 25-12-2019 05:02:17 7.9 C 37 %
2192 25-12-2019 05:12:17 7.8 C 37 %
2193 25-12-2019 05:22:18 7.6 C 38 %
2194 25-12-2019 05:32:17 8 C 36 %
2195 25-12-2019 05:42:17 7.9 C 35 %
2196 25-12-2019 05:52:17 7.5 C 35 %
2197 25-12-2019 06:02:18 7.5 C 35 %
2198 25-12-2019 06:12:18 7.2 C 36 %
2199 25-12-2019 06:22:17 7.2 C 37 %
2200 25-12-2019 06:32:18 7.3 C 37 %
Sensor: Nr:Datum:Temp:Feuchte:
Aussen-T/F 2201 25-12-2019 06:42:18 7.3 C 36 %
2202 25-12-2019 06:52:17 7.1 C 39 %
2203 25-12-2019 07:02:18 7.3 C 33 %
2204 25-12-2019 07:12:18 7.1 C 32 %
2205 25-12-2019 07:22:17 6.9 C 35 %
2206 25-12-2019 07:32:18 6.8 C 38 %
2207 25-12-2019 07:42:18 6.9 C 38 %
2208 25-12-2019 07:52:17 7 C 35 %
2209 25-12-2019 08:02:18 6.8 C 32 %
2210 25-12-2019 08:12:18 6.4 C 32 %
2211 25-12-2019 08:22:17 6.2 C 33 %
2212 25-12-2019 08:32:17 6.2 C 32 %
2213 25-12-2019 08:42:17 6.5 C 32 %
2214 25-12-2019 08:52:17 6.7 C 31 %
2215 25-12-2019 09:02:17 6.9 C 30 %
2216 25-12-2019 09:12:17 6.9 C 30 %
2217 25-12-2019 09:22:18 6.8 C 30 %
2218 25-12-2019 09:32:17 7.3 C 28 %
2219 25-12-2019 09:42:17 7.3 C 27 %
2220 25-12-2019 09:52:17 7.3 C 27 %
2221 25-12-2019 10:02:17 7.1 C 29 %
2222 25-12-2019 10:12:17 7.3 C 27 %
2223 25-12-2019 10:22:18 7.6 C 26 %
2224 25-12-2019 10:32:17 7.7 C 26 %
2225 25-12-2019 10:42:17 7.8 C 25 %
Sensor: Nr:Datum:Temp:Feuchte:
Aussen-T/F 2226 25-12-2019 10:52:17 7.5 C 26 %
2227 25-12-2019 11:02:17 7.5 C 26 %
2228 25-12-2019 11:12:17 7.5 C 26 %
2229 25-12-2019 11:22:17 7.7 C 26 %
2230 25-12-2019 11:32:17 7.4 C 26 %
2231 25-12-2019 11:42:17 7.4 C 27 %
2232 25-12-2019 11:52:18 7.1 C 28 %
2233 25-12-2019 12:02:17 7.1 C 29 %
2234 25-12-2019 12:12:17 7.6 C 27 %
2235 25-12-2019 12:22:17 7.6 C 27 %
2236 25-12-2019 12:32:17 7.7 C 27 %
2237 25-12-2019 12:42:17 7.8 C 27 %
2238 25-12-2019 12:52:18 7.6 C 27 %
2239 25-12-2019 13:02:17 7.1 C 29 %
2240 25-12-2019 13:12:17 7 C 31 %
2241 25-12-2019 13:22:18 6.9 C 31 %
2242 25-12-2019 13:32:17 7.1 C 30 %
2243 25-12-2019 13:42:17 7 C 30 %
2244 25-12-2019 13:52:17 6.9 C 30 %
2245 25-12-2019 14:02:17 7.1 C 30 %
2246 25-12-2019 14:12:17 7.4 C 29 %
2247 25-12-2019 14:22:18 7.6 C 28 %
2248 25-12-2019 14:32:17 7.7 C 29 %
2249 25-12-2019 14:42:17 7.6 C 29 %
2250 25-12-2019 14:52:17 7.1 C 31 %
Sensor: Nr:Datum:Temp:Feuchte:
Aussen-T/F 2251 25-12-2019 15:02:17 7.1 C 32 %
2252 25-12-2019 15:12:17 7.1 C 30 %
2253 25-12-2019 15:22:18 7.1 C 31 %
2254 25-12-2019 15:32:17 7.4 C 30 %
2255 25-12-2019 15:42:17 7.3 C 31 %
2256 25-12-2019 15:52:17 7.2 C 30 %
2257 25-12-2019 16:02:17 7.2 C 30 %
2258 25-12-2019 16:12:17 6.9 C 31 %
2259 25-12-2019 16:22:17 6.8 C 32 %
2260 25-12-2019 16:32:17 6.7 C 35 %
2261 25-12-2019 16:42:17 6.9 C 32 %
2262 25-12-2019 16:52:17 6.9 C 31 %
2263 25-12-2019 17:02:17 6.8 C 30 %
2264 25-12-2019 17:12:17 6.7 C 30 %
2265 25-12-2019 17:22:18 6.6 C 31 %
2266 25-12-2019 17:32:17 6.2 C 31 %
2267 25-12-2019 17:42:17 5.7 C 35 %
2268 25-12-2019 17:52:18 5.9 C 35 %
2269 25-12-2019 18:02:17 6 C 33 %
2270 25-12-2019 18:12:17 6.1 C 32 %
2271 25-12-2019 18:22:17 6.2 C 33 %
2272 25-12-2019 18:32:17 6.2 C 33 %
2273 25-12-2019 18:42:17 6.2 C 32 %
2274 25-12-2019 18:52:17 6.2 C 32 %
2275 25-12-2019 19:02:17 6 C 33 %
Sensor: Nr:Datum:Temp:Feuchte:
Aussen-T/F 2276 25-12-2019 19:12:17 5.9 C 33 %
2277 25-12-2019 19:22:17 6.1 C 32 %
2278 25-12-2019 19:32:18 6.1 C 32 %
2279 25-12-2019 19:42:18 6 C 33 %
2280 25-12-2019 19:52:17 5.9 C 33 %
2281 25-12-2019 20:02:17 5.8 C 35 %
2282 25-12-2019 20:12:17 5.9 C 35 %
2283 25-12-2019 20:22:18 5.9 C 34 %
2284 25-12-2019 20:32:17 5.8 C 34 %
2285 25-12-2019 20:42:17 5.6 C 37 %
2286 25-12-2019 20:52:17 5.5 C 38 %
2287 25-12-2019 21:02:18 5.5 C 38 %
2288 25-12-2019 21:12:18 5.4 C 40 %
2289 25-12-2019 21:22:17 5.3 C 41 %
2290 25-12-2019 21:32:17 5.3 C 43 %
2291 25-12-2019 21:42:17 5.3 C 42 %
2292 25-12-2019 21:52:17 5.2 C 42 %
2293 25-12-2019 22:02:18 5.2 C 42 %
2294 25-12-2019 22:12:18 5.1 C 43 %
2295 25-12-2019 22:22:17 5.2 C 42 %
2296 25-12-2019 22:32:18 5.1 C 41 %
2297 25-12-2019 22:42:18 5.1 C 42 %
2298 25-12-2019 22:52:17 5.2 C 42 %
2299 25-12-2019 23:02:18 5.2 C 42 %
2300 25-12-2019 23:12:18 5.2 C 42 %
Sensor: Nr:Datum:Temp:Feuchte:
Aussen-T/F 2301 25-12-2019 23:22:17 5.2 C 42 %
2302 25-12-2019 23:32:17 5.1 C 42 %
2303 25-12-2019 23:42:17 4.7 C 42 %
2304 25-12-2019 23:52:17 4.5 C 42 %
2305 26-12-2019 00:02:17 4.6 C 43 %
2306 26-12-2019 00:12:18 4 C 42 %
2307 26-12-2019 00:22:17 3.6 C 42 %
2308 26-12-2019 00:32:18 3.9 C 44 %
2309 26-12-2019 00:42:18 3.9 C 44 %
2310 26-12-2019 00:52:17 4.1 C 43 %
2311 26-12-2019 01:02:18 4.4 C 43 %
2312 26-12-2019 01:12:18 4.3 C 43 %
2313 26-12-2019 01:22:17 4.3 C 43 %
2314 26-12-2019 01:32:17 4.4 C 43 %
2315 26-12-2019 01:42:17 4.4 C 43 %
2316 26-12-2019 01:52:17 4.3 C 42 %
2317 26-12-2019 02:02:18 4.3 C 42 %
2318 26-12-2019 02:12:18 4.4 C 42 %
2319 26-12-2019 02:22:17 4.2 C 42 %
2320 26-12-2019 02:32:17 4 C 42 %
2321 26-12-2019 02:42:17 4 C 42 %
2322 26-12-2019 02:52:17 4.2 C 42 %
2323 26-12-2019 03:02:18 4.2 C 42 %
2324 26-12-2019 03:12:18 4.1 C 42 %
2325 26-12-2019 03:22:17 4.1 C 42 %
Sensor: Nr:Datum:Temp:Feuchte:
Aussen-T/F 2326 26-12-2019 03:32:17 4.1 C 42 %
2327 26-12-2019 03:42:17 4.1 C 42 %
2328 26-12-2019 03:52:17 3.9 C 43 %
2329 26-12-2019 04:02:17 3.6 C 42 %
2330 26-12-2019 04:12:17 3.6 C 42 %
2331 26-12-2019 04:22:18 3.4 C 42 %
2332 26-12-2019 04:32:17 3 C 42 %
2333 26-12-2019 04:42:17 3.1 C 42 %
2334 26-12-2019 04:52:17 3.1 C 43 %
2335 26-12-2019 05:02:17 3.3 C 43 %
2336 26-12-2019 05:12:17 3.5 C 43 %
2337 26-12-2019 05:22:17 3.4 C 43 %
2338 26-12-2019 05:32:18 3.5 C 43 %
2339 26-12-2019 05:42:18 3.4 C 43 %
2340 26-12-2019 05:52:17 3.5 C 43 %
2341 26-12-2019 06:02:17 3.6 C 43 %
2342 26-12-2019 06:12:18 3.6 C 43 %
2343 26-12-2019 06:22:17 3.5 C 43 %
2344 26-12-2019 06:32:18 3.6 C 43 %
2345 26-12-2019 06:42:18 3.5 C 43 %
2346 26-12-2019 06:52:17 3.5 C 43 %
2347 26-12-2019 07:02:18 3.5 C 43 %
2348 26-12-2019 07:12:18 3.5 C 43 %
2349 26-12-2019 07:22:17 3.4 C 43 %
2350 26-12-2019 07:32:17 3.4 C 43 %
Sensor: Nr:Datum:Temp:Feuchte:
Aussen-T/F 2351 26-12-2019 07:42:17 3.4 C 43 %
2352 26-12-2019 07:52:17 3.4 C 43 %
2353 26-12-2019 08:02:18 3.4 C 43 %
2354 26-12-2019 08:12:18 3.4 C 43 %
2355 26-12-2019 08:22:17 3.5 C 43 %
2356 26-12-2019 08:32:17 3.4 C 43 %
2357 26-12-2019 08:42:17 3.4 C 43 %
2358 26-12-2019 08:52:17 3.5 C 43 %
2359 26-12-2019 09:02:17 3.5 C 43 %
2360 26-12-2019 09:12:17 3.5 C 43 %
2361 26-12-2019 09:22:17 3.4 C 42 %
2362 26-12-2019 09:32:17 3.5 C 43 %
2363 26-12-2019 09:42:17 3.6 C 42 %
2364 26-12-2019 09:52:18 3.6 C 42 %
2365 26-12-2019 10:02:17 3.6 C 42 %
2366 26-12-2019 10:12:17 3.6 C 42 %
2367 26-12-2019 10:22:18 3.8 C 42 %
2368 26-12-2019 10:32:17 4 C 41 %
2369 26-12-2019 10:42:17 4.3 C 41 %
2370 26-12-2019 10:52:18 4.5 C 41 %
2371 26-12-2019 11:02:17 4.7 C 41 %
2372 26-12-2019 11:12:17 4.8 C 41 %
2373 26-12-2019 11:22:17 5 C 40 %
2374 26-12-2019 11:32:17 5.4 C 40 %
2375 26-12-2019 11:42:17 5.5 C 39 %
Sensor: Nr:Datum:Temp:Feuchte:
Aussen-T/F 2376 26-12-2019 11:52:17 5.6 C 37 %
2377 26-12-2019 12:02:17 5.7 C 36 %
2378 26-12-2019 12:12:17 5.7 C 36 %
2379 26-12-2019 12:22:17 5.7 C 35 %
2380 26-12-2019 12:32:18 5.9 C 35 %
2381 26-12-2019 12:42:18 6 C 35 %
2382 26-12-2019 12:52:17 6 C 36 %
2383 26-12-2019 13:02:18 5.9 C 36 %
2384 26-12-2019 13:12:18 5.9 C 37 %
2385 26-12-2019 13:22:17 5.8 C 36 %
2386 26-12-2019 13:32:18 5.8 C 36 %
2387 26-12-2019 13:42:18 5.7 C 36 %
2388 26-12-2019 13:52:17 5.7 C 36 %
2389 26-12-2019 14:02:18 5.7 C 36 %
2390 26-12-2019 14:12:18 5.8 C 35 %
2391 26-12-2019 14:22:17 6 C 35 %
2392 26-12-2019 14:32:17 6 C 35 %
2393 26-12-2019 14:42:17 5.7 C 35 %
2394 26-12-2019 14:52:17 5.6 C 36 %
2395 26-12-2019 15:02:17 5.5 C 36 %
2396 26-12-2019 15:12:17 5.4 C 36 %
2397 26-12-2019 15:22:17 5.1 C 38 %
2398 26-12-2019 15:32:17 5 C 37 %
2399 26-12-2019 15:42:17 4.8 C 39 %
2400 26-12-2019 15:52:18 4.8 C 39 %
Sensor: Nr:Datum:Temp:Feuchte:
Aussen-T/F 2401 26-12-2019 16:02:17 4.7 C 38 %
2402 26-12-2019 16:12:17 4.6 C 39 %
2403 26-12-2019 16:22:17 4.5 C 40 %
2404 26-12-2019 16:32:17 4.4 C 41 %
2405 26-12-2019 16:42:18 4.4 C 40 %
2406 26-12-2019 16:53:17 4.3 C 41 %
2407 26-12-2019 17:02:17 4.4 C 40 %
2408 26-12-2019 17:12:17 4.3 C 40 %
2409 26-12-2019 17:22:17 4.3 C 40 %
2410 26-12-2019 17:32:17 4.4 C 40 %
2411 26-12-2019 17:42:17 4.1 C 40 %
2412 26-12-2019 17:52:17 4.1 C 40 %
2413 26-12-2019 18:02:17 4 C 40 %
2414 26-12-2019 18:12:17 4 C 41 %
2415 26-12-2019 18:22:17 4.1 C 41 %
2416 26-12-2019 18:32:17 4.1 C 41 %
2417 26-12-2019 18:42:18 4.1 C 40 %
2418 26-12-2019 18:53:17 4.1 C 40 %
2419 26-12-2019 19:02:17 4 C 40 %
2420 26-12-2019 19:12:17 4 C 41 %
2421 26-12-2019 19:23:17 4 C 41 %
2422 26-12-2019 19:32:17 3.8 C 41 %
2423 26-12-2019 19:42:17 4 C 41 %
2424 26-12-2019 19:53:17 3.8 C 41 %
2425 26-12-2019 20:02:17 3.8 C 42 %
Sensor: Nr:Datum:Temp:Feuchte:
Aussen-T/F 2426 26-12-2019 20:12:17 3.9 C 42 %
2427 26-12-2019 20:23:17 4 C 41 %
2428 26-12-2019 20:32:17 4.1 C 40 %
2429 26-12-2019 20:42:17 4.2 C 39 %
2430 26-12-2019 20:53:17 4.1 C 38 %
2431 26-12-2019 21:02:17 4.3 C 37 %
2432 26-12-2019 21:12:17 4.2 C 38 %
2433 26-12-2019 21:23:17 4.1 C 38 %
2434 26-12-2019 21:32:18 4.1 C 38 %
2435 26-12-2019 21:42:18 4.2 C 37 %
2436 26-12-2019 21:52:17 4.3 C 37 %
2437 26-12-2019 22:02:18 4.1 C 39 %
2438 26-12-2019 22:12:18 4.1 C 41 %
2439 26-12-2019 22:22:17 4.1 C 41 %
2440 26-12-2019 22:33:17 4.1 C 41 %
2441 26-12-2019 22:43:17 4.1 C 42 %
2442 26-12-2019 22:52:17 4.1 C 42 %
2443 26-12-2019 23:03:17 4.1 C 43 %
2444 26-12-2019 23:13:17 4.1 C 43 %
2445 26-12-2019 23:23:17 4 C 43 %
2446 26-12-2019 23:32:17 4 C 43 %
2447 26-12-2019 23:42:17 4 C 42 %
2448 26-12-2019 23:53:17 4 C 42 %
2449 27-12-2019 00:02:17 4 C 42 %
2450 27-12-2019 00:12:17 4 C 42 %
Sensor: Nr:Datum:Temp:Feuchte:
Aussen-T/F 2451 27-12-2019 00:23:17 4 C 42 %
2452 27-12-2019 00:32:17 4 C 42 %
2453 27-12-2019 00:42:18 4.1 C 42 %
2454 27-12-2019 00:53:17 4.1 C 42 %
2455 27-12-2019 01:03:18 4.1 C 42 %
2456 27-12-2019 01:13:18 4.1 C 42 %
2457 27-12-2019 01:23:17 4.1 C 42 %
2458 27-12-2019 01:33:17 4.1 C 42 %
2459 27-12-2019 01:43:17 4.1 C 42 %
2460 27-12-2019 01:53:18 4.1 C 42 %
2461 27-12-2019 02:03:17 4.1 C 42 %
2462 27-12-2019 02:13:17 4.1 C 42 %
2463 27-12-2019 02:23:17 4.1 C 42 %
2464 27-12-2019 02:33:18 4.1 C 42 %
2465 27-12-2019 02:43:19 4.1 C 42 %
2466 27-12-2019 02:53:17 4.2 C 42 %
2467 27-12-2019 03:03:17 4.3 C 42 %
2468 27-12-2019 03:13:17 4.2 C 42 %
2469 27-12-2019 03:23:17 4.3 C 42 %
2470 27-12-2019 03:33:17 4.3 C 42 %
2471 27-12-2019 03:43:18 4.3 C 42 %
2472 27-12-2019 03:53:17 4.3 C 42 %
2473 27-12-2019 04:03:17 4.3 C 42 %
2474 27-12-2019 04:13:17 4.3 C 42 %
2475 27-12-2019 04:23:17 4.3 C 42 %
Sensor: Nr:Datum:Temp:Feuchte:
Aussen-T/F 2476 27-12-2019 04:33:17 4.3 C 42 %
2477 27-12-2019 04:43:17 4.3 C 42 %
2478 27-12-2019 04:53:18 4.4 C 42 %
2479 27-12-2019 05:03:17 4.4 C 42 %
2480 27-12-2019 05:13:17 4.4 C 42 %
2481 27-12-2019 05:23:17 4.4 C 42 %
2482 27-12-2019 05:33:17 4.3 C 42 %
2483 27-12-2019 05:43:17 4.4 C 42 %
2484 27-12-2019 05:53:17 4.4 C 42 %
2485 27-12-2019 06:03:17 4.4 C 42 %
2486 27-12-2019 06:13:17 4.4 C 42 %
2487 27-12-2019 06:23:17 4.4 C 42 %
2488 27-12-2019 06:33:17 4.4 C 42 %
2489 27-12-2019 06:43:17 4.4 C 42 %
2490 27-12-2019 06:53:17 4.4 C 42 %
2491 27-12-2019 07:03:17 4.5 C 42 %
2492 27-12-2019 07:13:17 4.4 C 42 %
2493 27-12-2019 07:23:18 4.4 C 42 %
2494 27-12-2019 07:33:17 4.4 C 42 %
2495 27-12-2019 07:43:17 4.4 C 42 %
2496 27-12-2019 07:53:17 4.3 C 42 %
2497 27-12-2019 08:03:17 4.3 C 42 %
2498 27-12-2019 08:13:17 4.3 C 42 %
2499 27-12-2019 08:23:17 4.3 C 42 %
2500 27-12-2019 08:33:17 4.3 C 42 %
Sensor: Nr:Datum:Temp:Feuchte:
Aussen-T/F 2501 27-12-2019 08:43:17 4.3 C 42 %
2502 27-12-2019 08:53:18 4.3 C 42 %
2503 27-12-2019 09:03:17 4.4 C 42 %
2504 27-12-2019 09:13:17 4.4 C 42 %
2505 27-12-2019 09:23:17 4.3 C 42 %
2506 27-12-2019 09:33:17 4.5 C 42 %
2507 27-12-2019 09:43:17 4.6 C 42 %
2508 27-12-2019 09:53:17 4.8 C 41 %
2509 27-12-2019 10:03:17 4.9 C 41 %
2510 27-12-2019 10:13:17 4.8 C 40 %
2511 27-12-2019 10:23:17 4.8 C 40 %
2512 27-12-2019 10:33:18 4.9 C 40 %
2513 27-12-2019 10:43:18 4.9 C 40 %
2514 27-12-2019 10:53:17 5 C 38 %
2515 27-12-2019 11:03:18 5 C 38 %
2516 27-12-2019 11:13:18 5.1 C 37 %
2517 27-12-2019 11:23:17 5.1 C 37 %
2518 27-12-2019 11:33:17 5.2 C 36 %
2519 27-12-2019 11:43:17 5.7 C 33 %
2520 27-12-2019 11:53:17 6 C 31 %
2521 27-12-2019 12:03:17 6.1 C 31 %
2522 27-12-2019 12:13:17 5.9 C 31 %
2523 27-12-2019 12:23:17 5.9 C 31 %
2524 27-12-2019 12:33:17 6 C 31 %
2525 27-12-2019 12:43:17 6 C 31 %
Sensor: Nr:Datum:Temp:Feuchte:
Aussen-T/F 2526 27-12-2019 12:53:17 5.9 C 31 %
2527 27-12-2019 13:03:17 5.7 C 31 %
2528 27-12-2019 13:13:17 5.7 C 31 %
2529 27-12-2019 13:23:17 5.6 C 31 %
2530 27-12-2019 13:33:17 5.7 C 31 %
2531 27-12-2019 13:43:17 5.7 C 30 %
2532 27-12-2019 13:53:17 5.8 C 30 %
2533 27-12-2019 14:03:18 5.9 C 30 %
2534 27-12-2019 14:13:18 6.1 C 29 %
2535 27-12-2019 14:23:18 5.9 C 29 %
2536 27-12-2019 14:33:17 6 C 30 %
2537 27-12-2019 14:43:17 5.9 C 28 %
2538 27-12-2019 14:53:18 5.8 C 26 %
2539 27-12-2019 15:03:17 5.7 C 27 %
2540 27-12-2019 15:13:17 5.7 C 28 %
2541 27-12-2019 15:23:18 5.6 C 29 %
2542 27-12-2019 15:33:17 5.6 C 29 %
2543 27-12-2019 15:43:17 5.4 C 30 %
2544 27-12-2019 15:53:17 5.3 C 31 %
2545 27-12-2019 16:03:17 5.1 C 33 %
2546 27-12-2019 16:13:17 4.9 C 33 %
2547 27-12-2019 16:23:17 4.9 C 33 %
2548 27-12-2019 16:33:17 4.8 C 34 %
2549 27-12-2019 16:43:17 4.7 C 33 %
2550 27-12-2019 16:53:17 4.6 C 34 %
Sensor: Nr:Datum:Temp:Feuchte:
Aussen-T/F 2551 27-12-2019 17:03:17 4.5 C 34 %
2552 27-12-2019 17:13:17 4.5 C 35 %
2553 27-12-2019 17:23:17 4.5 C 33 %
2554 27-12-2019 17:33:18 4.5 C 34 %
2555 27-12-2019 17:43:18 4.5 C 34 %
2556 27-12-2019 17:53:17 4.4 C 34 %
2557 27-12-2019 18:03:18 4.4 C 33 %
2558 27-12-2019 18:13:18 4.4 C 33 %
2559 27-12-2019 18:23:17 4.4 C 32 %
2560 27-12-2019 18:33:18 4.4 C 34 %
2561 27-12-2019 18:43:18 4.3 C 34 %
2562 27-12-2019 18:53:17 4.2 C 33 %
2563 27-12-2019 19:03:17 4.2 C 33 %
2564 27-12-2019 19:13:17 4.2 C 33 %
2565 27-12-2019 19:23:17 4.3 C 32 %
2566 27-12-2019 19:33:17 4.2 C 33 %
2567 27-12-2019 19:43:17 4.1 C 34 %
2568 27-12-2019 19:53:18 3.9 C 35 %
2569 27-12-2019 20:03:17 3.8 C 34 %
2570 27-12-2019 20:13:17 4 C 32 %
2571 27-12-2019 20:23:17 4 C 32 %
2572 27-12-2019 20:33:18 4 C 32 %
2573 27-12-2019 20:43:18 4 C 31 %
2574 27-12-2019 20:53:17 4.1 C 31 %
2575 27-12-2019 21:03:18 4.1 C 31 %
Sensor: Nr:Datum:Temp:Feuchte:
Aussen-T/F 2576 27-12-2019 21:13:18 4 C 31 %
2577 27-12-2019 21:23:17 4 C 31 %
2578 27-12-2019 21:33:18 3.9 C 33 %
2579 27-12-2019 21:43:18 3.9 C 32 %
2580 27-12-2019 21:53:17 3.7 C 32 %
2581 27-12-2019 22:03:17 3.6 C 32 %
2582 27-12-2019 22:13:17 3.3 C 32 %
2583 27-12-2019 22:23:17 3.2 C 32 %
2584 27-12-2019 22:33:17 2.7 C 33 %
2585 27-12-2019 22:43:17 2.2 C 34 %
2586 27-12-2019 22:53:17 2 C 35 %
2587 27-12-2019 23:03:18 1.7 C 38 %
2588 27-12-2019 23:13:18 1.3 C 39 %
2589 27-12-2019 23:23:17 1.2 C 41 %
2590 27-12-2019 23:33:17 0.9 C 42 %
2591 27-12-2019 23:43:17 0.8 C 41 %
2592 27-12-2019 23:53:17 0.7 C 41 %
2593 28-12-2019 00:03:17 0.5 C 40 %
2594 28-12-2019 00:13:17 0.4 C 41 %
2595 28-12-2019 00:23:18 0.4 C 41 %
2596 28-12-2019 00:33:17 0.3 C 41 %
2597 28-12-2019 00:43:17 0.3 C 41 %
2598 28-12-2019 00:53:17 0.2 C 40 %
2599 28-12-2019 01:03:17 0.1 C 40 %
2600 28-12-2019 01:13:17 -0.2 C 43 %
Sensor: Nr:Datum:Temp:Feuchte:
Aussen-T/F 2601 28-12-2019 01:23:17 -0.5 C 43 %
2602 28-12-2019 01:33:17 -0.3 C 44 %
2603 28-12-2019 01:43:17 -0.7 C 42 %
2604 28-12-2019 01:53:17 -1.1 C 43 %
2605 28-12-2019 02:03:17 -1.3 C 45 %
2606 28-12-2019 02:13:17 -1.5 C 44 %
2607 28-12-2019 02:23:17 -1.7 C 44 %
2608 28-12-2019 02:33:18 -1.5 C 45 %
2609 28-12-2019 02:43:18 -1.5 C 45 %
2610 28-12-2019 02:53:17 -1.6 C 45 %
2611 28-12-2019 03:03:17 -1.9 C 45 %
2612 28-12-2019 03:13:18 -1.7 C 45 %
2613 28-12-2019 03:23:17 -2.1 C 45 %
2614 28-12-2019 03:33:17 -2.1 C 45 %
2615 28-12-2019 03:43:17 -2.1 C 45 %
2616 28-12-2019 03:53:18 -2.4 C 45 %
2617 28-12-2019 04:03:17 -2.4 C 45 %
2618 28-12-2019 04:13:17 -2.4 C 45 %
2619 28-12-2019 04:23:17 -2.3 C 45 %
2620 28-12-2019 04:33:17 -2.4 C 45 %
2621 28-12-2019 04:43:18 -2.3 C 45 %
2622 28-12-2019 04:53:17 -2.4 C 45 %
2623 28-12-2019 05:03:18 -2.6 C 44 %
2624 28-12-2019 05:13:18 -2.7 C 44 %
2625 28-12-2019 05:23:17 -2.5 C 45 %
Sensor: Nr:Datum:Temp:Feuchte:
Aussen-T/F 2626 28-12-2019 05:33:18 -2.5 C 45 %
2627 28-12-2019 05:43:18 -2.1 C 45 %
2628 28-12-2019 05:53:17 -2.3 C 45 %
2629 28-12-2019 06:03:17 -1.8 C 45 %
2630 28-12-2019 06:13:18 -2.1 C 44 %
2631 28-12-2019 06:23:17 -2.2 C 43 %
2632 28-12-2019 06:33:17 -2 C 44 %
2633 28-12-2019 06:43:18 -1.9 C 44 %
2634 28-12-2019 06:53:17 -2.1 C 43 %
2635 28-12-2019 07:03:18 -2 C 43 %
2636 28-12-2019 07:13:18 -2.3 C 43 %
2637 28-12-2019 07:23:17 -2.8 C 42 %
2638 28-12-2019 07:33:17 -2.3 C 43 %
2639 28-12-2019 07:43:17 -2.4 C 43 %
2640 28-12-2019 07:53:17 -2.2 C 44 %
2641 28-12-2019 08:03:17 -2.6 C 43 %
2642 28-12-2019 08:13:17 -3 C 42 %
2643 28-12-2019 08:23:18 -3.1 C 42 %
2644 28-12-2019 08:33:17 -3.2 C 42 %
2645 28-12-2019 08:43:17 -3.2 C 42 %
2646 28-12-2019 08:53:17 -2.9 C 43 %
2647 28-12-2019 09:03:18 -2.9 C 43 %
2648 28-12-2019 09:13:18 -2.8 C 43 %
2649 28-12-2019 09:23:17 -2.7 C 43 %
2650 28-12-2019 09:33:17 -2.5 C 43 %
Sensor: Nr:Datum:Temp:Feuchte:
Aussen-T/F 2651 28-12-2019 09:43:17 -1.9 C 45 %
2652 28-12-2019 09:53:17 -1.7 C 45 %
2653 28-12-2019 10:03:17 -1.6 C 45 %
2654 28-12-2019 10:13:17 -1.4 C 45 %
2655 28-12-2019 10:23:17 -1.5 C 45 %
2656 28-12-2019 10:33:18 -1.3 C 45 %
2657 28-12-2019 10:43:18 -1.3 C 45 %
2658 28-12-2019 10:53:17 -1.1 C 45 %
2659 28-12-2019 11:03:18 -1 C 44 %
2660 28-12-2019 11:13:18 -0.9 C 44 %
2661 28-12-2019 11:23:17 -0.6 C 44 %
2662 28-12-2019 11:33:17 -0.5 C 43 %
2663 28-12-2019 11:43:18 -0.3 C 42 %
2664 28-12-2019 11:53:17 -0.2 C 42 %
2665 28-12-2019 12:03:17 -0.2 C 41 %
2666 28-12-2019 12:13:17 0 C 41 %
2667 28-12-2019 12:23:17 0.2 C 41 %
2668 28-12-2019 12:33:17 0.3 C 41 %
2669 28-12-2019 12:43:18 0.4 C 40 %
2670 28-12-2019 12:53:17 0.5 C 40 %
2671 28-12-2019 13:03:18 0.7 C 40 %
2672 28-12-2019 13:13:18 0.8 C 40 %
2673 28-12-2019 13:23:17 0.8 C 40 %
2674 28-12-2019 13:33:17 0.9 C 40 %
2675 28-12-2019 13:43:17 0.8 C 40 %
Sensor: Nr:Datum:Temp:Feuchte:
Aussen-T/F 2676 28-12-2019 13:53:17 0.6 C 40 %
2677 28-12-2019 14:03:17 0.6 C 41 %
2678 28-12-2019 14:13:17 0.7 C 41 %
2679 28-12-2019 14:23:17 0.8 C 40 %
2680 28-12-2019 14:33:17 0.7 C 40 %
2681 28-12-2019 14:43:17 0.6 C 40 %
2682 28-12-2019 14:53:17 0.5 C 40 %
2683 28-12-2019 15:03:17 0.5 C 40 %
2684 28-12-2019 15:13:18 0.5 C 40 %
2685 28-12-2019 15:23:17 0.2 C 40 %
2686 28-12-2019 15:33:17 0.4 C 40 %
2687 28-12-2019 15:43:17 0.3 C 39 %
2688 28-12-2019 15:53:18 0.4 C 39 %
2689 28-12-2019 16:03:17 0.3 C 38 %
2690 28-12-2019 16:13:17 0.2 C 38 %
2691 28-12-2019 16:23:17 0 C 39 %
2692 28-12-2019 16:33:17 0 C 39 %
2693 28-12-2019 16:43:17 -0.1 C 38 %
2694 28-12-2019 16:53:17 -0.3 C 39 %
2695 28-12-2019 17:03:17 -0.4 C 39 %
2696 28-12-2019 17:13:17 -0.4 C 40 %
2697 28-12-2019 17:23:17 -0.5 C 40 %
2698 28-12-2019 17:33:18 -0.6 C 40 %
2699 28-12-2019 17:43:18 -0.7 C 41 %
2700 28-12-2019 17:53:17 -1.3 C 41 %
Sensor: Nr:Datum:Temp:Feuchte:
Aussen-T/F 2701 28-12-2019 18:03:17 -1.2 C 44 %
2702 28-12-2019 18:13:17 -1.1 C 43 %
2703 28-12-2019 18:23:17 -1.1 C 43 %
2704 28-12-2019 18:33:17 -0.9 C 43 %
2705 28-12-2019 18:43:17 -1.2 C 43 %
2706 28-12-2019 18:53:17 -0.9 C 43 %
2707 28-12-2019 19:03:17 -1.2 C 42 %
2708 28-12-2019 19:13:18 -1.7 C 42 %
2709 28-12-2019 19:23:17 -1.9 C 43 %
2710 28-12-2019 19:33:18 -1.9 C 44 %
2711 28-12-2019 19:43:18 -1.9 C 44 %
2712 28-12-2019 19:53:17 -1.8 C 44 %
2713 28-12-2019 20:03:17 -1.9 C 44 %
2714 28-12-2019 20:13:17 -1.7 C 45 %
2715 28-12-2019 20:23:17 -1.2 C 45 %
2716 28-12-2019 20:33:18 -1.2 C 43 %
2717 28-12-2019 20:43:18 -1.4 C 43 %
2718 28-12-2019 20:53:18 -1.2 C 44 %
2719 28-12-2019 21:03:17 -1.6 C 43 %
2720 28-12-2019 21:13:17 -1.3 C 44 %
2721 28-12-2019 21:23:17 -1.4 C 41 %
2722 28-12-2019 21:33:17 -1.8 C 41 %
2723 28-12-2019 21:43:18 -1.6 C 43 %
2724 28-12-2019 21:53:17 -1.7 C 42 %
2725 28-12-2019 22:03:18 -1.7 C 42 %
Sensor: Nr:Datum:Temp:Feuchte:
Aussen-T/F 2726 28-12-2019 22:13:18 -2.2 C 41 %
2727 28-12-2019 22:23:17 -2.3 C 42 %
2728 28-12-2019 22:33:17 -2.3 C 42 %
2729 28-12-2019 22:43:17 -2.5 C 42 %
2730 28-12-2019 22:53:17 -2.2 C 43 %
2731 28-12-2019 23:03:17 -2.5 C 42 %
2732 28-12-2019 23:13:17 -2.3 C 43 %
2733 28-12-2019 23:23:17 -2.3 C 43 %
2734 28-12-2019 23:33:17 -2.7 C 42 %
2735 28-12-2019 23:43:17 -2.6 C 43 %
2736 28-12-2019 23:53:17 -2.9 C 42 %
2737 29-12-2019 00:03:18 -2.6 C 43 %
2738 29-12-2019 00:13:18 -2.9 C 43 %
2739 29-12-2019 00:23:17 -3.1 C 42 %
2740 29-12-2019 00:33:17 -3.2 C 43 %
2741 29-12-2019 00:43:17 -3.1 C 43 %
2742 29-12-2019 00:53:17 -3.1 C 43 %
2743 29-12-2019 01:03:17 -3.3 C 42 %
2744 29-12-2019 01:13:17 -3.3 C 43 %
2745 29-12-2019 01:23:17 -3.5 C 42 %
2746 29-12-2019 01:33:17 -3.7 C 42 %
2747 29-12-2019 01:43:17 -3 C 44 %
2748 29-12-2019 01:53:17 -3.5 C 42 %
2749 29-12-2019 02:03:17 -3.7 C 41 %
2750 29-12-2019 02:13:17 -3.8 C 42 %
Sensor: Nr:Datum:Temp:Feuchte:
Aussen-T/F 2751 29-12-2019 02:23:17 -3.3 C 43 %
2752 29-12-2019 02:33:17 -3.7 C 41 %
2753 29-12-2019 02:43:17 -3.7 C 42 %
2754 29-12-2019 02:53:18 -3.8 C 41 %
2755 29-12-2019 03:03:17 -4 C 41 %
2756 29-12-2019 03:13:17 -4 C 42 %
2757 29-12-2019 03:23:17 -4 C 41 %
2758 29-12-2019 03:33:17 -4.1 C 41 %
2759 29-12-2019 03:43:17 -4.1 C 41 %
2760 29-12-2019 03:53:18 -4 C 42 %
2761 29-12-2019 04:03:17 -4.2 C 41 %
2762 29-12-2019 04:13:17 -3.9 C 42 %
2763 29-12-2019 04:23:17 -4.1 C 41 %
2764 29-12-2019 04:33:17 -4.1 C 41 %
2765 29-12-2019 04:43:17 -4.4 C 41 %
2766 29-12-2019 04:53:17 -4.2 C 41 %
2767 29-12-2019 05:03:17 -4.3 C 41 %
2768 29-12-2019 05:13:17 -4.5 C 41 %
2769 29-12-2019 05:23:17 -4.5 C 41 %
2770 29-12-2019 05:33:18 -4.4 C 41 %
2771 29-12-2019 05:43:18 -4.5 C 41 %
2772 29-12-2019 05:53:17 -4.7 C 41 %
2773 29-12-2019 06:03:17 -4.6 C 41 %
2774 29-12-2019 06:13:17 -4.7 C 41 %
2775 29-12-2019 06:23:17 -4.8 C 41 %
Sensor: Nr:Datum:Temp:Feuchte:
Aussen-T/F 2776 29-12-2019 06:33:17 -4.8 C 41 %
2777 29-12-2019 06:43:17 -4.8 C 41 %
2778 29-12-2019 06:53:17 -4.8 C 41 %
2779 29-12-2019 07:03:17 -4.9 C 41 %
2780 29-12-2019 07:13:17 -4.9 C 41 %
2781 29-12-2019 07:23:17 -5 C 41 %
2782 29-12-2019 07:33:17 -4.5 C 42 %
2783 29-12-2019 07:43:17 -4.7 C 41 %
2784 29-12-2019 07:53:17 -4.7 C 41 %
2785 29-12-2019 08:03:17 -4.4 C 42 %
2786 29-12-2019 08:13:17 -4.3 C 42 %
2787 29-12-2019 08:23:18 -3.9 C 43 %
2788 29-12-2019 08:33:17 -4.1 C 41 %
2789 29-12-2019 08:43:17 -4.3 C 41 %
2790 29-12-2019 08:53:17 -4.5 C 40 %
2791 29-12-2019 09:03:17 -4.1 C 42 %
2792 29-12-2019 09:13:17 -3.9 C 42 %
2793 29-12-2019 09:23:18 -4 C 41 %
2794 29-12-2019 09:33:17 -4.1 C 41 %
2795 29-12-2019 09:43:17 -4 C 41 %
2796 29-12-2019 09:53:17 -4 C 41 %
2797 29-12-2019 10:03:18 -4 C 40 %
2798 29-12-2019 10:13:18 -3.9 C 41 %
2799 29-12-2019 10:23:17 -3.5 C 42 %
2800 29-12-2019 10:33:17 -3.3 C 42 %
Sensor: Nr:Datum:Temp:Feuchte:
Aussen-T/F 2801 29-12-2019 10:43:17 -3.1 C 42 %
2802 29-12-2019 10:53:17 -2.6 C 43 %
2803 29-12-2019 11:03:17 -2.1 C 43 %
2804 29-12-2019 11:13:17 -1.8 C 42 %
2805 29-12-2019 11:23:17 -1.4 C 43 %
2806 29-12-2019 11:33:17 -1.3 C 42 %
2807 29-12-2019 11:43:18 -0.8 C 43 %
2808 29-12-2019 11:53:17 -0.4 C 42 %
2809 29-12-2019 12:03:18 -0.5 C 41 %
2810 29-12-2019 12:13:18 -0.3 C 41 %
2811 29-12-2019 12:23:17 0.1 C 40 %
2812 29-12-2019 12:33:17 0.3 C 40 %
2813 29-12-2019 12:43:17 0.5 C 40 %
2814 29-12-2019 12:53:17 0.4 C 40 %
2815 29-12-2019 13:03:17 0.7 C 38 %
2816 29-12-2019 13:13:17 1 C 37 %
2817 29-12-2019 13:23:17 1 C 37 %
2818 29-12-2019 13:33:18 1.4 C 36 %
2819 29-12-2019 13:43:18 1.4 C 38 %
2820 29-12-2019 13:53:17 1.5 C 37 %
2821 29-12-2019 14:03:17 1.5 C 36 %
2822 29-12-2019 14:13:17 1.4 C 37 %
2823 29-12-2019 14:23:17 1.7 C 36 %
2824 29-12-2019 14:33:18 1.9 C 36 %
2825 29-12-2019 14:43:18 2.2 C 34 %
Sensor: Nr:Datum:Temp:Feuchte:
Aussen-T/F 2826 29-12-2019 14:53:17 2.1 C 33 %
2827 29-12-2019 15:03:17 1.9 C 34 %
2828 29-12-2019 15:13:18 2 C 31 %
2829 29-12-2019 15:23:17 2 C 27 %
2830 29-12-2019 15:33:17 1.9 C 30 %
2831 29-12-2019 15:43:17 1.5 C 32 %
2832 29-12-2019 15:53:18 1.1 C 32 %
2833 29-12-2019 16:03:17 0.5 C 35 %
2834 29-12-2019 16:13:17 0.2 C 38 %
2835 29-12-2019 16:23:17 0.2 C 39 %
2836 29-12-2019 16:33:18 -0.3 C 39 %
2837 29-12-2019 16:43:18 -0.1 C 40 %
2838 29-12-2019 16:53:17 -0.2 C 40 %
2839 29-12-2019 17:03:17 -0.2 C 40 %
2840 29-12-2019 17:13:17 -0.3 C 39 %
2841 29-12-2019 17:23:17 -0.3 C 37 %
2842 29-12-2019 17:33:17 -0.3 C 37 %
2843 29-12-2019 17:43:17 -0.1 C 36 %
2844 29-12-2019 17:53:17 -0.2 C 38 %
2845 29-12-2019 18:03:17 -0.1 C 37 %
2846 29-12-2019 18:13:17 0.1 C 37 %
2847 29-12-2019 18:23:17 0.2 C 36 %
2848 29-12-2019 18:33:17 -0.2 C 38 %
2849 29-12-2019 18:43:17 -0.5 C 40 %
2850 29-12-2019 18:53:17 -0.8 C 40 %
Sensor: Nr:Datum:Temp:Feuchte:
Aussen-T/F 2851 29-12-2019 19:03:17 -0.5 C 41 %
2852 29-12-2019 19:13:17 -0.7 C 38 %
2853 29-12-2019 19:23:18 -0.6 C 37 %
2854 29-12-2019 19:33:18 -0.6 C 35 %
2855 29-12-2019 19:43:18 -1 C 35 %
2856 29-12-2019 19:53:17 -1.1 C 36 %
2857 29-12-2019 20:03:18 -0.9 C 34 %
2858 29-12-2019 20:13:18 -1.2 C 36 %
2859 29-12-2019 20:23:17 -0.7 C 35 %
2860 29-12-2019 20:33:17 -1.3 C 37 %
2861 29-12-2019 20:43:17 -0.9 C 39 %
2862 29-12-2019 20:53:17 -1.5 C 39 %
2863 29-12-2019 21:03:17 -1.2 C 38 %
2864 29-12-2019 21:13:17 -1.8 C 37 %
2865 29-12-2019 21:23:17 -1.8 C 40 %
2866 29-12-2019 21:33:18 -1.8 C 41 %
2867 29-12-2019 21:43:18 -2.1 C 42 %
2868 29-12-2019 21:53:17 -2.3 C 42 %
2869 29-12-2019 22:03:17 -2.2 C 43 %
2870 29-12-2019 22:13:17 -2.1 C 43 %
2871 29-12-2019 22:23:17 -2.4 C 42 %
2872 29-12-2019 22:33:17 -2.7 C 42 %
2873 29-12-2019 22:43:18 -2.7 C 43 %
2874 29-12-2019 22:53:17 -2.7 C 43 %
2875 29-12-2019 23:03:17 -2.8 C 43 %
Sensor: Nr:Datum:Temp:Feuchte:
Aussen-T/F 2876 29-12-2019 23:13:17 -2.7 C 44 %
2877 29-12-2019 23:23:17 -2.8 C 43 %
2878 29-12-2019 23:33:18 -3 C 43 %
2879 29-12-2019 23:43:18 -3 C 43 %
2880 29-12-2019 23:53:17 -3 C 42 %
2881 30-12-2019 00:03:17 -3 C 42 %
2882 30-12-2019 00:13:17 -3.1 C 41 %
2883 30-12-2019 00:23:17 -3.1 C 41 %
2884 30-12-2019 00:33:17 -3 C 42 %
2885 30-12-2019 00:43:17 -3.2 C 42 %
2886 30-12-2019 00:53:17 -3.2 C 42 %
2887 30-12-2019 01:03:17 -3.2 C 42 %
2888 30-12-2019 01:13:18 -3.1 C 44 %
2889 30-12-2019 01:23:17 -3.1 C 43 %
2890 30-12-2019 01:33:18 -3.2 C 42 %
2891 30-12-2019 01:43:18 -3.4 C 42 %
2892 30-12-2019 01:53:17 -3.5 C 42 %
2893 30-12-2019 02:03:17 -3.2 C 43 %
2894 30-12-2019 02:13:17 -3.4 C 43 %
2895 30-12-2019 02:23:17 -3.4 C 43 %
2896 30-12-2019 02:33:18 -3.4 C 43 %
2897 30-12-2019 02:43:18 -3.4 C 43 %
2898 30-12-2019 02:53:17 -3.4 C 43 %
2899 30-12-2019 03:03:17 -3.3 C 43 %
2900 30-12-2019 03:13:17 -3.4 C 43 %
Sensor: Nr:Datum:Temp:Feuchte:
Aussen-T/F 2901 30-12-2019 03:23:17 -3.1 C 43 %
2902 30-12-2019 03:33:18 -3.2 C 43 %
2903 30-12-2019 03:43:18 -3.3 C 43 %
2904 30-12-2019 03:53:17 -3.5 C 43 %
2905 30-12-2019 04:03:17 -3.7 C 42 %
2906 30-12-2019 04:13:17 -3.8 C 42 %
2907 30-12-2019 04:23:17 -3.8 C 42 %
2908 30-12-2019 04:33:17 -3.9 C 42 %
2909 30-12-2019 04:43:17 -3.9 C 42 %
2910 30-12-2019 04:53:17 -4 C 42 %
2911 30-12-2019 05:03:17 -3.9 C 42 %
2912 30-12-2019 05:13:17 -3.8 C 42 %
2913 30-12-2019 05:23:17 -3.9 C 42 %
2914 30-12-2019 05:33:17 -3.7 C 43 %
2915 30-12-2019 05:43:17 -3.8 C 43 %
2916 30-12-2019 05:53:18 -4 C 42 %
2917 30-12-2019 06:03:17 -4 C 42 %
2918 30-12-2019 06:13:17 -4 C 42 %
2919 30-12-2019 06:23:17 -3.9 C 42 %
2920 30-12-2019 06:33:17 -3.7 C 43 %
2921 30-12-2019 06:43:17 -3.9 C 42 %
2922 30-12-2019 06:53:17 -4 C 42 %
2923 30-12-2019 07:03:17 -4 C 42 %
2924 30-12-2019 07:13:17 -4.2 C 41 %
2925 30-12-2019 07:23:17 -4.4 C 42 %
Sensor: Nr:Datum:Temp:Feuchte:
Aussen-T/F 2926 30-12-2019 07:33:18 -4.4 C 41 %
2927 30-12-2019 07:43:18 -4.4 C 42 %
2928 30-12-2019 07:53:17 -4.2 C 42 %
2929 30-12-2019 08:03:17 -4.4 C 41 %
2930 30-12-2019 08:13:17 -4.3 C 42 %
2931 30-12-2019 08:23:17 -4.4 C 42 %
2932 30-12-2019 08:33:17 -4.5 C 41 %
2933 30-12-2019 08:43:17 -4 C 43 %
2934 30-12-2019 08:53:17 -4.2 C 41 %
2935 30-12-2019 09:03:18 -4.1 C 42 %
2936 30-12-2019 09:13:18 -3.9 C 42 %
2937 30-12-2019 09:23:17 -3.8 C 42 %
2938 30-12-2019 09:33:17 -3.6 C 43 %
2939 30-12-2019 09:43:17 -3.7 C 42 %
2940 30-12-2019 09:53:17 -3.7 C 42 %
2941 30-12-2019 10:03:17 -3.5 C 42 %
2942 30-12-2019 10:13:17 -3.3 C 43 %
2943 30-12-2019 10:23:17 -3.3 C 42 %
2944 30-12-2019 10:33:17 -3.3 C 42 %
2945 30-12-2019 10:43:17 -3 C 43 %
2946 30-12-2019 10:53:17 -2.9 C 42 %
2947 30-12-2019 11:03:17 -2.9 C 42 %
2948 30-12-2019 11:13:17 -2.8 C 42 %
2949 30-12-2019 11:23:17 -2.4 C 43 %
2950 30-12-2019 11:33:17 -2.1 C 42 %
Sensor: Nr:Datum:Temp:Feuchte:
Aussen-T/F 2951 30-12-2019 11:43:17 -2 C 41 %
2952 30-12-2019 11:53:18 -2.1 C 40 %
2953 30-12-2019 12:03:17 -1.7 C 41 %
2954 30-12-2019 12:13:17 -1.5 C 40 %
2955 30-12-2019 12:23:17 -1.6 C 40 %
2956 30-12-2019 12:33:17 -1.4 C 41 %
2957 30-12-2019 12:43:17 -0.7 C 39 %
2958 30-12-2019 12:53:17 -0.8 C 39 %
2959 30-12-2019 13:03:17 -0.8 C 38 %
2960 30-12-2019 13:13:17 -1 C 40 %
2961 30-12-2019 13:23:17 -1 C 41 %
2962 30-12-2019 13:33:17 -1 C 42 %
2963 30-12-2019 13:43:17 -0.6 C 42 %
2964 30-12-2019 13:53:17 -0.2 C 41 %
2965 30-12-2019 14:03:17 0.3 C 37 %
2966 30-12-2019 14:13:17 0.1 C 35 %
2967 30-12-2019 14:23:17 0.6 C 35 %
2968 30-12-2019 14:33:17 0.5 C 35 %
2969 30-12-2019 14:43:17 1 C 32 %
2970 30-12-2019 14:53:17 0.6 C 35 %
2971 30-12-2019 15:03:17 0.9 C 36 %
2972 30-12-2019 15:13:17 1.1 C 33 %
2973 30-12-2019 15:23:17 0.6 C 35 %
2974 30-12-2019 15:33:18 0.6 C 36 %
2975 30-12-2019 15:43:18 0.7 C 35 %
Sensor: Nr:Datum:Temp:Feuchte:
Aussen-T/F 2976 30-12-2019 15:53:17 1.6 C 32 %
2977 30-12-2019 16:03:18 1.7 C 32 %
2978 30-12-2019 16:13:18 1.9 C 31 %
2979 30-12-2019 16:23:18 1.6 C 33 %
2980 30-12-2019 16:33:17 1.1 C 35 %
2981 30-12-2019 16:43:17 0.8 C 37 %
2982 30-12-2019 16:53:17 0.6 C 40 %
2983 30-12-2019 17:03:17 0.7 C 40 %
2984 30-12-2019 17:13:17 0.7 C 40 %
2985 30-12-2019 17:23:18 0.6 C 40 %
2986 30-12-2019 17:33:17 0.5 C 40 %
2987 30-12-2019 17:43:17 0.5 C 40 %
2988 30-12-2019 17:53:17 0.5 C 37 %
2989 30-12-2019 18:03:17 0.3 C 36 %
2990 30-12-2019 18:13:17 -0.3 C 36 %
2991 30-12-2019 18:23:18 -0.7 C 37 %
2992 30-12-2019 18:33:18 -0.4 C 36 %
2993 30-12-2019 18:43:18 -0.2 C 36 %
2994 30-12-2019 18:53:17 -0.6 C 34 %
2995 30-12-2019 19:03:17 -1.3 C 36 %
2996 30-12-2019 19:13:17 -1 C 36 %
2997 30-12-2019 19:23:18 -1.4 C 36 %
2998 30-12-2019 19:33:17 -1.4 C 39 %
2999 30-12-2019 19:43:17 -0.4 C 33 %
3000 30-12-2019 19:53:18 0 C 32 %
Sensor: Nr:Datum:Temp:Feuchte:
Aussen-T/F 3001 30-12-2019 20:03:17 -0.3 C 31 %
3002 30-12-2019 20:13:17 -1.2 C 32 %
3003 30-12-2019 20:23:17 -1.6 C 35 %
3004 30-12-2019 20:33:17 -1.6 C 36 %
3005 30-12-2019 20:43:17 -1.7 C 36 %
3006 30-12-2019 20:53:17 -1.5 C 37 %
3007 30-12-2019 21:03:17 -1.9 C 37 %
3008 30-12-2019 21:13:17 -0.8 C 35 %
3009 30-12-2019 21:23:17 -1.1 C 35 %
3010 30-12-2019 21:33:17 -0.9 C 35 %
3011 30-12-2019 21:43:17 -0.8 C 36 %
3012 30-12-2019 21:53:17 -1.1 C 33 %
3013 30-12-2019 22:03:17 -1.5 C 35 %
3014 30-12-2019 22:13:17 -1.7 C 35 %
3015 30-12-2019 22:23:17 -1.7 C 35 %
3016 30-12-2019 22:33:17 -2.3 C 35 %
3017 30-12-2019 22:43:17 -1.8 C 35 %
3018 30-12-2019 22:53:17 -2 C 36 %
3019 30-12-2019 23:03:17 -2.3 C 36 %
3020 30-12-2019 23:13:17 -1.5 C 36 %
3021 30-12-2019 23:23:17 -0.9 C 32 %
3022 30-12-2019 23:33:17 -0.3 C 31 %
3023 30-12-2019 23:43:17 -0.9 C 31 %
3024 30-12-2019 23:53:17 -1 C 31 %
Sensor: Nr:Datum:Temp:Feuchte:
G-T/H 1 10-12-2019 00:01:17 10.2 C 73 %
2 10-12-2019 00:11:17 10.2 C 72 %
3 10-12-2019 00:21:17 10.2 C 72 %
4 10-12-2019 00:31:17 10.1 C 72 %
5 10-12-2019 00:41:17 10.1 C 72 %
6 10-12-2019 00:51:17 10.1 C 72 %
7 10-12-2019 01:01:17 10.1 C 72 %
8 10-12-2019 01:11:17 10.1 C 71 %
9 10-12-2019 01:21:17 10.1 C 71 %
10 10-12-2019 01:31:18 10 C 71 %
11 10-12-2019 01:41:18 10 C 71 %
12 10-12-2019 01:51:17 10 C 71 %
13 10-12-2019 02:01:18 10 C 71 %
14 10-12-2019 02:11:18 9.9 C 72 %
15 10-12-2019 02:21:17 9.9 C 72 %
16 10-12-2019 02:31:17 9.9 C 71 %
17 10-12-2019 02:41:17 9.9 C 71 %
18 10-12-2019 02:51:17 9.9 C 71 %
19 10-12-2019 03:01:17 9.8 C 71 %
20 10-12-2019 03:11:17 9.8 C 71 %
21 10-12-2019 03:21:17 9.8 C 71 %
22 10-12-2019 03:31:17 9.8 C 71 %
23 10-12-2019 03:41:17 9.7 C 71 %
24 10-12-2019 03:51:17 9.8 C 71 %
25 10-12-2019 04:01:17 9.7 C 71 %
Sensor: Nr:Datum:Temp:Feuchte:
G-T/H 26 10-12-2019 04:11:17 9.7 C 71 %
27 10-12-2019 04:21:17 9.7 C 71 %
28 10-12-2019 04:31:18 9.7 C 71 %
29 10-12-2019 04:41:18 9.7 C 71 %
30 10-12-2019 04:51:17 9.7 C 71 %
31 10-12-2019 05:01:17 9.7 C 71 %
32 10-12-2019 05:11:17 9.7 C 71 %
33 10-12-2019 05:21:18 9.7 C 71 %
34 10-12-2019 05:31:18 9.7 C 71 %
35 10-12-2019 05:41:18 9.7 C 71 %
36 10-12-2019 05:51:17 9.7 C 71 %
37 10-12-2019 06:01:17 9.7 C 71 %
38 10-12-2019 06:11:17 9.7 C 71 %
39 10-12-2019 06:21:18 9.6 C 71 %
40 10-12-2019 06:31:17 9.6 C 71 %
41 10-12-2019 06:41:17 9.6 C 71 %
42 10-12-2019 06:51:17 9.6 C 71 %
43 10-12-2019 07:01:18 9.6 C 72 %
44 10-12-2019 07:11:18 9.6 C 72 %
45 10-12-2019 07:21:17 9.6 C 72 %
46 10-12-2019 07:31:17 9.6 C 72 %
47 10-12-2019 07:41:17 9.6 C 72 %
48 10-12-2019 07:51:17 9.6 C 72 %
49 10-12-2019 08:01:17 9.5 C 71 %
50 10-12-2019 08:11:17 9.5 C 71 %
Sensor: Nr:Datum:Temp:Feuchte:
G-T/H 51 10-12-2019 08:21:17 9.5 C 71 %
52 10-12-2019 08:31:18 9.5 C 71 %
53 10-12-2019 08:41:18 9.4 C 71 %
54 10-12-2019 08:51:17 9.4 C 71 %
55 10-12-2019 09:01:17 9.4 C 71 %
56 10-12-2019 09:11:17 9.4 C 71 %
57 10-12-2019 09:21:17 9.4 C 71 %
58 10-12-2019 09:31:17 9.4 C 71 %
59 10-12-2019 09:41:17 9.4 C 71 %
60 10-12-2019 09:51:17 9.4 C 71 %
61 10-12-2019 10:01:17 9.4 C 71 %
62 10-12-2019 10:11:17 9.4 C 71 %
63 10-12-2019 10:21:17 9.3 C 71 %
64 10-12-2019 10:31:17 9.3 C 71 %
65 10-12-2019 10:41:17 9.3 C 71 %
66 10-12-2019 10:51:17 9.3 C 71 %
67 10-12-2019 11:01:17 9.3 C 71 %
68 10-12-2019 11:11:17 9.3 C 71 %
69 10-12-2019 11:21:17 9.3 C 71 %
70 10-12-2019 11:31:18 9.3 C 71 %
71 10-12-2019 11:41:18 9.3 C 71 %
72 10-12-2019 11:51:17 9.2 C 71 %
73 10-12-2019 12:01:17 9.3 C 72 %
74 10-12-2019 12:11:17 9.2 C 72 %
75 10-12-2019 12:21:17 9.3 C 72 %
Sensor: Nr:Datum:Temp:Feuchte:
G-T/H 76 10-12-2019 12:31:17 9.2 C 72 %
77 10-12-2019 12:41:17 9.2 C 72 %
78 10-12-2019 12:51:17 9.2 C 72 %
79 10-12-2019 13:01:17 9.2 C 72 %
80 10-12-2019 13:11:17 9.2 C 72 %
81 10-12-2019 13:21:17 9.2 C 72 %
82 10-12-2019 13:31:17 9.2 C 72 %
83 10-12-2019 13:41:17 9.2 C 72 %
84 10-12-2019 13:51:17 9.2 C 72 %
85 10-12-2019 14:01:17 9.2 C 72 %
86 10-12-2019 14:11:17 9.2 C 72 %
87 10-12-2019 14:21:17 9.2 C 72 %
88 10-12-2019 14:31:18 9.2 C 72 %
89 10-12-2019 14:41:18 9.1 C 72 %
90 10-12-2019 14:51:17 9.1 C 72 %
91 10-12-2019 15:01:17 9.1 C 72 %
92 10-12-2019 15:11:17 9.1 C 72 %
93 10-12-2019 15:21:17 9.1 C 72 %
94 10-12-2019 15:31:17 9.1 C 72 %
95 10-12-2019 15:41:18 9.1 C 72 %
96 10-12-2019 15:51:17 9.1 C 72 %
97 10-12-2019 16:01:17 9.1 C 72 %
98 10-12-2019 16:11:17 9.1 C 72 %
99 10-12-2019 16:21:17 9.1 C 72 %
100 10-12-2019 16:31:17 9.1 C 72 %
Sensor: Nr:Datum:Temp:Feuchte:
G-T/H 101 10-12-2019 16:41:17 9.1 C 72 %
102 10-12-2019 16:51:17 9.1 C 72 %
103 10-12-2019 17:01:17 9.1 C 72 %
104 10-12-2019 17:11:17 9.1 C 72 %
105 10-12-2019 17:21:18 9.1 C 72 %
106 10-12-2019 17:31:17 9 C 72 %
107 10-12-2019 17:41:17 9 C 71 %
108 10-12-2019 17:51:17 9 C 71 %
109 10-12-2019 18:01:17 9 C 71 %
110 10-12-2019 18:11:17 9 C 71 %
111 10-12-2019 18:21:17 9 C 71 %
112 10-12-2019 18:31:17 8.9 C 72 %
113 10-12-2019 18:41:17 9 C 71 %
114 10-12-2019 18:51:17 8.9 C 72 %
115 10-12-2019 19:01:17 8.9 C 72 %
116 10-12-2019 19:11:17 8.9 C 72 %
117 10-12-2019 19:21:17 8.9 C 72 %
118 10-12-2019 19:31:17 9 C 71 %
119 10-12-2019 19:41:18 8.9 C 72 %
120 10-12-2019 19:51:17 8.9 C 72 %
121 10-12-2019 20:01:17 8.9 C 72 %
122 10-12-2019 20:11:17 8.9 C 72 %
123 10-12-2019 20:21:17 8.9 C 72 %
124 10-12-2019 20:31:18 8.9 C 72 %
125 10-12-2019 20:41:18 8.9 C 72 %
Sensor: Nr:Datum:Temp:Feuchte:
G-T/H 126 10-12-2019 20:51:17 8.9 C 72 %
127 10-12-2019 21:01:17 8.9 C 72 %
128 10-12-2019 21:11:17 8.9 C 72 %
129 10-12-2019 21:21:17 8.9 C 72 %
130 10-12-2019 21:31:17 8.9 C 72 %
131 10-12-2019 21:41:18 8.9 C 72 %
132 10-12-2019 21:51:17 8.9 C 72 %
133 10-12-2019 22:01:17 8.8 C 72 %
134 10-12-2019 22:11:17 8.8 C 72 %
135 10-12-2019 22:21:17 8.9 C 72 %
136 10-12-2019 22:31:17 8.8 C 72 %
137 10-12-2019 22:41:17 8.8 C 72 %
138 10-12-2019 22:51:18 8.8 C 72 %
139 10-12-2019 23:01:17 8.8 C 72 %
140 10-12-2019 23:11:17 8.8 C 72 %
141 10-12-2019 23:21:17 8.8 C 73 %
142 10-12-2019 23:31:17 8.8 C 73 %
143 10-12-2019 23:41:17 8.8 C 73 %
144 10-12-2019 23:51:17 8.8 C 73 %
145 11-12-2019 00:01:18 8.8 C 73 %
146 11-12-2019 00:11:18 8.8 C 73 %
147 11-12-2019 00:21:17 8.8 C 73 %
148 11-12-2019 00:31:17 8.8 C 73 %
149 11-12-2019 00:41:17 8.8 C 73 %
150 11-12-2019 00:51:17 8.8 C 73 %
Sensor: Nr:Datum:Temp:Feuchte:
G-T/H 151 11-12-2019 01:01:17 8.8 C 73 %
152 11-12-2019 01:11:17 8.8 C 73 %
153 11-12-2019 01:21:18 8.8 C 73 %
154 11-12-2019 01:31:17 8.8 C 73 %
155 11-12-2019 01:41:17 8.8 C 73 %
156 11-12-2019 01:51:17 8.8 C 73 %
157 11-12-2019 02:01:17 8.8 C 73 %
158 11-12-2019 02:11:17 8.8 C 73 %
159 11-12-2019 02:21:17 8.8 C 73 %
160 11-12-2019 02:31:18 8.8 C 73 %
161 11-12-2019 02:41:18 8.8 C 73 %
162 11-12-2019 02:51:17 8.8 C 73 %
163 11-12-2019 03:01:18 8.8 C 73 %
164 11-12-2019 03:11:18 8.8 C 73 %
165 11-12-2019 03:21:17 8.8 C 73 %
166 11-12-2019 03:31:17 8.8 C 73 %
167 11-12-2019 03:41:17 8.7 C 73 %
168 11-12-2019 03:51:17 8.8 C 73 %
169 11-12-2019 04:01:17 8.7 C 73 %
170 11-12-2019 04:11:17 8.7 C 73 %
171 11-12-2019 04:21:17 8.8 C 73 %
172 11-12-2019 04:31:18 8.7 C 73 %
173 11-12-2019 04:41:18 8.8 C 73 %
174 11-12-2019 04:51:17 8.8 C 73 %
175 11-12-2019 05:01:17 8.8 C 73 %
Sensor: Nr:Datum:Temp:Feuchte:
G-T/H 176 11-12-2019 05:11:17 8.7 C 73 %
177 11-12-2019 05:21:18 8.8 C 73 %
178 11-12-2019 05:31:17 8.8 C 73 %
179 11-12-2019 05:41:17 8.7 C 73 %
180 11-12-2019 05:51:17 8.7 C 73 %
181 11-12-2019 06:01:18 8.8 C 73 %
182 11-12-2019 06:11:18 8.7 C 73 %
183 11-12-2019 06:21:17 8.7 C 73 %
184 11-12-2019 06:31:17 8.7 C 73 %
185 11-12-2019 06:41:17 8.7 C 73 %
186 11-12-2019 06:51:17 8.7 C 73 %
187 11-12-2019 07:01:17 8.7 C 73 %
188 11-12-2019 07:11:17 8.7 C 73 %
189 11-12-2019 07:21:17 8.7 C 73 %
190 11-12-2019 07:31:17 8.7 C 73 %
191 11-12-2019 07:41:18 8.7 C 73 %
192 11-12-2019 07:51:17 8.7 C 73 %
193 11-12-2019 08:01:17 8.7 C 73 %
194 11-12-2019 08:11:17 8.7 C 73 %
195 11-12-2019 08:21:17 8.7 C 73 %
196 11-12-2019 08:31:18 8.7 C 73 %
197 11-12-2019 08:41:18 8.7 C 73 %
198 11-12-2019 08:51:17 8.7 C 73 %
199 11-12-2019 09:01:18 8.7 C 73 %
200 11-12-2019 09:11:18 8.7 C 73 %
Sensor: Nr:Datum:Temp:Feuchte:
G-T/H 201 11-12-2019 09:21:17 8.7 C 73 %
202 11-12-2019 09:31:17 8.8 C 73 %
203 11-12-2019 09:41:17 8.8 C 73 %
204 11-12-2019 09:51:17 8.7 C 73 %
205 11-12-2019 10:01:17 8.8 C 73 %
206 11-12-2019 10:11:17 8.7 C 73 %
207 11-12-2019 10:21:17 8.7 C 73 %
208 11-12-2019 10:31:17 8.7 C 73 %
209 11-12-2019 10:41:17 8.8 C 73 %
210 11-12-2019 10:51:17 8.7 C 73 %
211 11-12-2019 11:01:17 8.7 C 73 %
212 11-12-2019 11:11:17 8.7 C 73 %
213 11-12-2019 11:21:17 8.7 C 73 %
214 11-12-2019 11:31:17 8.7 C 73 %
215 11-12-2019 11:41:17 8.8 C 73 %
216 11-12-2019 11:51:17 8.7 C 73 %
217 11-12-2019 12:01:18 8.7 C 73 %
218 11-12-2019 12:11:18 8.7 C 73 %
219 11-12-2019 12:21:17 8.7 C 73 %
220 11-12-2019 12:31:17 8.7 C 73 %
221 11-12-2019 12:41:17 8.7 C 73 %
222 11-12-2019 12:51:17 8.7 C 73 %
223 11-12-2019 13:01:18 8.7 C 73 %
224 11-12-2019 13:11:18 8.7 C 73 %
225 11-12-2019 13:21:17 8.7 C 73 %
Sensor: Nr:Datum:Temp:Feuchte:
G-T/H 226 11-12-2019 13:31:17 8.7 C 73 %
227 11-12-2019 13:41:17 8.7 C 73 %
228 11-12-2019 13:51:17 8.7 C 73 %
229 11-12-2019 14:01:17 8.7 C 73 %
230 11-12-2019 14:11:18 8.7 C 73 %
231 11-12-2019 14:21:17 8.7 C 73 %
232 11-12-2019 14:31:17 8.7 C 73 %
233 11-12-2019 14:41:17 8.7 C 73 %
234 11-12-2019 14:51:17 8.7 C 73 %
235 11-12-2019 15:01:17 8.7 C 73 %
236 11-12-2019 15:11:17 8.7 C 73 %
237 11-12-2019 15:21:17 8.7 C 73 %
238 11-12-2019 15:31:18 8.7 C 73 %
239 11-12-2019 15:41:18 8.7 C 73 %
240 11-12-2019 15:51:17 8.7 C 73 %
241 11-12-2019 16:01:17 8.7 C 73 %
242 11-12-2019 16:11:17 8.7 C 73 %
243 11-12-2019 16:21:17 8.7 C 73 %
244 11-12-2019 16:31:17 8.7 C 73 %
245 11-12-2019 16:41:17 8.7 C 73 %
246 11-12-2019 16:51:17 8.7 C 73 %
247 11-12-2019 17:01:17 8.7 C 73 %
248 11-12-2019 17:11:17 8.7 C 73 %
249 11-12-2019 17:21:17 8.8 C 73 %
250 11-12-2019 17:31:17 8.7 C 73 %
Sensor: Nr:Datum:Temp:Feuchte:
G-T/H 251 11-12-2019 17:41:17 8.7 C 73 %
252 11-12-2019 17:51:18 8.7 C 73 %
253 11-12-2019 18:01:17 8.7 C 73 %
254 11-12-2019 18:11:17 8.7 C 73 %
255 11-12-2019 18:21:17 8.7 C 73 %
256 11-12-2019 18:31:18 8.7 C 73 %
257 11-12-2019 18:41:18 8.8 C 73 %
258 11-12-2019 18:51:17 8.8 C 73 %
259 11-12-2019 19:01:17 8.8 C 73 %
260 11-12-2019 19:11:17 8.8 C 73 %
261 11-12-2019 19:21:18 8.8 C 73 %
262 11-12-2019 19:31:17 8.8 C 73 %
263 11-12-2019 19:41:17 8.8 C 73 %
264 11-12-2019 19:51:18 8.8 C 73 %
265 11-12-2019 20:01:17 8.8 C 73 %
266 11-12-2019 20:11:17 8.8 C 73 %
267 11-12-2019 20:21:17 8.9 C 73 %
268 11-12-2019 20:31:18 8.8 C 73 %
269 11-12-2019 20:41:18 8.8 C 73 %
270 11-12-2019 20:51:17 8.8 C 73 %
271 11-12-2019 21:01:17 8.8 C 74 %
272 11-12-2019 21:11:17 8.9 C 74 %
273 11-12-2019 21:21:17 8.9 C 74 %
274 11-12-2019 21:31:17 8.9 C 74 %
275 11-12-2019 21:41:17 8.8 C 74 %
Sensor: Nr:Datum:Temp:Feuchte:
G-T/H 276 11-12-2019 21:51:17 8.9 C 74 %
277 11-12-2019 22:01:17 8.8 C 74 %
278 11-12-2019 22:11:17 8.9 C 74 %
279 11-12-2019 22:21:17 8.9 C 74 %
280 11-12-2019 22:31:17 8.9 C 74 %
281 11-12-2019 22:41:17 8.8 C 74 %
282 11-12-2019 22:51:18 8.9 C 74 %
283 11-12-2019 23:01:17 8.9 C 74 %
284 11-12-2019 23:11:17 8.9 C 74 %
285 11-12-2019 23:21:17 8.8 C 74 %
286 11-12-2019 23:31:17 8.9 C 74 %
287 11-12-2019 23:41:17 8.9 C 74 %
288 11-12-2019 23:51:18 8.9 C 74 %
289 12-12-2019 00:01:17 8.9 C 74 %
290 12-12-2019 00:11:17 8.8 C 74 %
291 12-12-2019 00:21:17 8.8 C 74 %
292 12-12-2019 00:31:17 8.8 C 74 %
293 12-12-2019 00:41:17 8.9 C 74 %
294 12-12-2019 00:51:17 8.9 C 74 %
295 12-12-2019 01:01:17 8.8 C 74 %
296 12-12-2019 01:11:17 8.8 C 74 %
297 12-12-2019 01:21:18 8.8 C 74 %
298 12-12-2019 01:31:17 8.8 C 74 %
299 12-12-2019 01:41:17 8.8 C 74 %
300 12-12-2019 01:51:18 8.8 C 74 %
Sensor: Nr:Datum:Temp:Feuchte:
G-T/H 301 12-12-2019 02:01:17 8.8 C 74 %
302 12-12-2019 02:11:17 8.8 C 74 %
303 12-12-2019 02:21:17 8.8 C 74 %
304 12-12-2019 02:31:18 8.8 C 73 %
305 12-12-2019 02:41:18 8.8 C 73 %
306 12-12-2019 02:51:17 8.8 C 73 %
307 12-12-2019 03:01:17 8.8 C 73 %
308 12-12-2019 03:11:17 8.8 C 73 %
309 12-12-2019 03:21:17 8.8 C 73 %
310 12-12-2019 03:31:17 8.8 C 73 %
311 12-12-2019 03:41:17 8.8 C 73 %
312 12-12-2019 03:51:17 8.8 C 73 %
313 12-12-2019 04:01:17 8.8 C 73 %
314 12-12-2019 04:11:17 8.8 C 73 %
315 12-12-2019 04:21:17 8.8 C 73 %
316 12-12-2019 04:31:17 8.8 C 73 %
317 12-12-2019 04:41:17 8.8 C 73 %
318 12-12-2019 04:51:17 8.8 C 73 %
319 12-12-2019 05:01:17 8.8 C 73 %
320 12-12-2019 05:11:17 8.8 C 73 %
321 12-12-2019 05:21:17 8.8 C 73 %
322 12-12-2019 05:31:18 8.8 C 73 %
323 12-12-2019 05:41:18 8.8 C 73 %
324 12-12-2019 05:51:17 8.7 C 73 %
325 12-12-2019 06:01:17 8.7 C 73 %
Sensor: Nr:Datum:Temp:Feuchte:
G-T/H 326 12-12-2019 06:11:17 8.7 C 73 %
327 12-12-2019 06:21:17 8.7 C 73 %
328 12-12-2019 06:31:17 8.7 C 73 %
329 12-12-2019 06:41:17 8.7 C 73 %
330 12-12-2019 06:51:17 8.7 C 73 %
331 12-12-2019 07:01:17 8.7 C 73 %
332 12-12-2019 07:11:17 8.7 C 73 %
333 12-12-2019 07:21:17 8.7 C 73 %
334 12-12-2019 07:31:17 8.7 C 73 %
335 12-12-2019 07:41:17 8.7 C 73 %
336 12-12-2019 07:51:17 8.7 C 73 %
337 12-12-2019 08:01:17 8.7 C 73 %
338 12-12-2019 08:11:17 8.7 C 73 %
339 12-12-2019 08:21:17 8.7 C 74 %
340 12-12-2019 08:31:18 8.7 C 74 %
341 12-12-2019 08:41:18 8.7 C 74 %
342 12-12-2019 08:51:17 8.7 C 74 %
343 12-12-2019 09:01:18 8.7 C 74 %
344 12-12-2019 09:11:18 8.7 C 74 %
345 12-12-2019 09:21:17 8.7 C 74 %
346 12-12-2019 09:31:17 8.7 C 74 %
347 12-12-2019 09:41:17 8.7 C 74 %
348 12-12-2019 09:51:17 8.7 C 74 %
349 12-12-2019 10:01:17 8.7 C 74 %
350 12-12-2019 10:11:17 8.7 C 74 %
Sensor: Nr:Datum:Temp:Feuchte:
G-T/H 351 12-12-2019 10:21:18 8.7 C 74 %
352 12-12-2019 10:31:17 8.7 C 74 %
353 12-12-2019 10:41:17 8.7 C 74 %
354 12-12-2019 10:51:17 8.7 C 74 %
355 12-12-2019 11:01:18 8.7 C 74 %
356 12-12-2019 11:11:18 8.7 C 74 %
357 12-12-2019 11:21:17 8.7 C 74 %
358 12-12-2019 11:31:17 8.7 C 74 %
359 12-12-2019 11:41:17 8.8 C 74 %
360 12-12-2019 11:51:18 8.7 C 74 %
361 12-12-2019 12:01:17 8.7 C 74 %
362 12-12-2019 12:11:17 8.8 C 74 %
363 12-12-2019 12:21:17 8.7 C 74 %
364 12-12-2019 12:31:18 8.8 C 74 %
365 12-12-2019 12:41:18 8.7 C 74 %
366 12-12-2019 12:51:17 8.8 C 74 %
367 12-12-2019 13:01:17 8.8 C 74 %
368 12-12-2019 13:11:18 8.8 C 74 %
369 12-12-2019 13:21:17 8.8 C 74 %
370 12-12-2019 13:31:17 8.8 C 74 %
371 12-12-2019 13:41:17 8.8 C 74 %
372 12-12-2019 13:51:17 8.8 C 74 %
373 12-12-2019 14:01:17 8.8 C 74 %
374 12-12-2019 14:11:17 8.8 C 74 %
375 12-12-2019 14:21:17 8.8 C 74 %
Sensor: Nr:Datum:Temp:Feuchte:
G-T/H 376 12-12-2019 14:31:18 8.8 C 74 %
377 12-12-2019 14:41:18 8.8 C 74 %
378 12-12-2019 14:51:17 8.8 C 74 %
379 12-12-2019 15:01:18 8.8 C 74 %
380 12-12-2019 15:11:18 8.8 C 74 %
381 12-12-2019 15:21:17 8.8 C 74 %
382 12-12-2019 15:31:17 8.8 C 74 %
383 12-12-2019 15:41:17 8.8 C 74 %
384 12-12-2019 15:51:17 8.8 C 74 %
385 12-12-2019 16:01:17 8.8 C 74 %
386 12-12-2019 16:11:17 8.8 C 74 %
387 12-12-2019 16:21:18 8.8 C 74 %
388 12-12-2019 16:31:17 8.8 C 74 %
389 12-12-2019 16:41:17 8.8 C 74 %
390 12-12-2019 16:51:17 8.8 C 74 %
391 12-12-2019 17:01:17 8.8 C 74 %
392 12-12-2019 17:11:17 8.8 C 74 %
393 12-12-2019 17:21:17 8.8 C 74 %
394 12-12-2019 17:31:17 8.8 C 74 %
395 12-12-2019 17:41:17 8.7 C 74 %
396 12-12-2019 17:51:17 8.8 C 74 %
397 12-12-2019 18:01:17 8.8 C 74 %
398 12-12-2019 18:11:17 8.8 C 74 %
399 12-12-2019 18:21:17 8.7 C 73 %
400 12-12-2019 18:31:17 8.7 C 73 %
Sensor: Nr:Datum:Temp:Feuchte:
G-T/H 401 12-12-2019 18:41:17 8.7 C 73 %
402 12-12-2019 18:51:17 8.7 C 73 %
403 12-12-2019 19:01:17 8.4 C 72 %
404 12-12-2019 19:11:17 8.6 C 72 %
405 12-12-2019 19:21:17 8.8 C 72 %
406 12-12-2019 19:31:17 8.9 C 72 %
407 12-12-2019 19:41:17 8.9 C 72 %
408 12-12-2019 19:51:17 9 C 72 %
409 12-12-2019 20:01:17 9 C 72 %
410 12-12-2019 20:11:17 9 C 72 %
411 12-12-2019 20:21:17 9.1 C 72 %
412 12-12-2019 20:31:17 9.1 C 72 %
413 12-12-2019 20:41:17 9.1 C 72 %
414 12-12-2019 20:51:17 9.1 C 72 %
415 12-12-2019 21:01:17 9.1 C 72 %
416 12-12-2019 21:11:17 9.1 C 72 %
417 12-12-2019 21:21:17 9.1 C 72 %
418 12-12-2019 21:31:17 9.1 C 72 %
419 12-12-2019 21:41:17 9.1 C 72 %
420 12-12-2019 21:51:17 9.1 C 71 %
421 12-12-2019 22:01:17 9.1 C 71 %
422 12-12-2019 22:11:17 9.1 C 71 %
423 12-12-2019 22:21:18 9.1 C 71 %
424 12-12-2019 22:31:17 9.1 C 71 %
425 12-12-2019 22:41:17 9 C 71 %
Sensor: Nr:Datum:Temp:Feuchte:
G-T/H 426 12-12-2019 22:51:17 9 C 71 %
427 12-12-2019 23:01:18 9 C 71 %
428 12-12-2019 23:11:18 9 C 71 %
429 12-12-2019 23:21:17 8.9 C 72 %
430 12-12-2019 23:31:17 8.9 C 72 %
431 12-12-2019 23:41:17 8.9 C 72 %
432 12-12-2019 23:51:17 8.9 C 72 %
433 13-12-2019 00:01:17 8.9 C 72 %
434 13-12-2019 00:11:17 8.9 C 72 %
435 13-12-2019 00:21:17 8.9 C 72 %
436 13-12-2019 00:31:18 8.9 C 72 %
437 13-12-2019 00:41:18 8.9 C 72 %
438 13-12-2019 00:51:17 8.9 C 72 %
439 13-12-2019 01:01:18 8.8 C 72 %
440 13-12-2019 01:11:18 8.8 C 72 %
441 13-12-2019 01:21:17 8.8 C 72 %
442 13-12-2019 01:31:17 8.8 C 72 %
443 13-12-2019 01:41:17 8.8 C 72 %
444 13-12-2019 01:51:17 8.8 C 72 %
445 13-12-2019 02:01:18 8.8 C 72 %
446 13-12-2019 02:11:18 8.8 C 72 %
447 13-12-2019 02:21:17 8.8 C 72 %
448 13-12-2019 02:31:17 8.8 C 72 %
449 13-12-2019 02:41:17 8.7 C 72 %
450 13-12-2019 02:51:17 8.7 C 72 %
Sensor: Nr:Datum:Temp:Feuchte:
G-T/H 451 13-12-2019 03:01:17 8.7 C 72 %
452 13-12-2019 03:11:17 8.7 C 72 %
453 13-12-2019 03:21:17 8.7 C 72 %
454 13-12-2019 03:31:17 8.7 C 72 %
455 13-12-2019 03:41:17 8.6 C 72 %
456 13-12-2019 03:51:17 8.6 C 72 %
457 13-12-2019 04:01:17 8.6 C 72 %
458 13-12-2019 04:11:17 8.6 C 72 %
459 13-12-2019 04:21:17 8.6 C 72 %
460 13-12-2019 04:31:17 8.6 C 72 %
461 13-12-2019 04:41:17 8.6 C 72 %
462 13-12-2019 04:51:17 8.6 C 72 %
463 13-12-2019 05:01:17 8.6 C 72 %
464 13-12-2019 05:11:17 8.6 C 72 %
465 13-12-2019 05:21:17 8.6 C 72 %
466 13-12-2019 05:31:18 8.6 C 72 %
467 13-12-2019 05:41:18 8.6 C 72 %
468 13-12-2019 05:51:17 8.6 C 72 %
469 13-12-2019 06:01:17 8.5 C 72 %
470 13-12-2019 06:11:17 8.5 C 72 %
471 13-12-2019 06:21:17 8.5 C 72 %
472 13-12-2019 06:31:17 8.5 C 72 %
473 13-12-2019 06:41:17 8.5 C 72 %
474 13-12-2019 06:51:17 8.5 C 72 %
475 13-12-2019 07:01:17 8.5 C 72 %
Sensor: Nr:Datum:Temp:Feuchte:
G-T/H 476 13-12-2019 07:11:18 8.5 C 72 %
477 13-12-2019 07:21:17 8.5 C 72 %
478 13-12-2019 07:31:17 8.5 C 72 %
479 13-12-2019 07:41:17 8.4 C 72 %
480 13-12-2019 07:51:17 8.3 C 71 %
481 13-12-2019 08:01:17 8.4 C 71 %
482 13-12-2019 08:11:17 8.4 C 71 %
483 13-12-2019 08:21:17 8.4 C 72 %
484 13-12-2019 08:31:17 8.4 C 72 %
485 13-12-2019 08:41:17 8.4 C 72 %
486 13-12-2019 08:51:17 8.4 C 72 %
487 13-12-2019 09:01:17 8.4 C 72 %
488 13-12-2019 09:11:17 8.4 C 72 %
489 13-12-2019 09:21:17 8.4 C 72 %
490 13-12-2019 09:31:17 8.4 C 72 %
491 13-12-2019 09:41:17 8.4 C 72 %
492 13-12-2019 09:51:18 8.4 C 72 %
493 13-12-2019 10:01:17 8.4 C 72 %
494 13-12-2019 10:11:17 8.4 C 72 %
495 13-12-2019 10:21:18 8.4 C 72 %
496 13-12-2019 10:31:17 8.4 C 72 %
497 13-12-2019 10:41:17 8.4 C 72 %
498 13-12-2019 10:51:18 8.4 C 72 %
499 13-12-2019 11:01:17 8.4 C 72 %
500 13-12-2019 11:11:17 8.4 C 72 %
Sensor: Nr:Datum:Temp:Feuchte:
G-T/H 501 13-12-2019 11:21:17 8.4 C 72 %
502 13-12-2019 11:31:17 8.4 C 72 %
503 13-12-2019 11:41:17 8.4 C 72 %
504 13-12-2019 11:51:18 8.4 C 72 %
505 13-12-2019 12:01:17 8.4 C 72 %
506 13-12-2019 12:11:17 8.4 C 72 %
507 13-12-2019 12:21:17 8.4 C 73 %
508 13-12-2019 12:31:17 8.4 C 73 %
509 13-12-2019 12:41:17 8.4 C 73 %
510 13-12-2019 12:51:18 8.4 C 73 %
511 13-12-2019 13:01:18 8.4 C 73 %
512 13-12-2019 13:11:18 8.5 C 73 %
513 13-12-2019 13:21:17 8.4 C 73 %
514 13-12-2019 13:31:17 8.4 C 73 %
515 13-12-2019 13:41:17 8.5 C 73 %
516 13-12-2019 13:51:17 8.5 C 73 %
517 13-12-2019 14:01:17 8.5 C 73 %
518 13-12-2019 14:11:17 8.5 C 73 %
519 13-12-2019 14:21:17 8.5 C 73 %
520 13-12-2019 14:31:17 8.5 C 73 %
521 13-12-2019 14:41:17 8.5 C 73 %
522 13-12-2019 14:51:18 8.5 C 73 %
523 13-12-2019 15:01:18 8.5 C 73 %
524 13-12-2019 15:11:18 8.5 C 73 %
525 13-12-2019 15:21:17 8.5 C 73 %
Sensor: Nr:Datum:Temp:Feuchte:
G-T/H 526 13-12-2019 15:31:17 8.5 C 73 %
527 13-12-2019 15:41:17 8.4 C 73 %
528 13-12-2019 15:51:17 8.4 C 73 %
529 13-12-2019 16:01:18 8.4 C 72 %
530 13-12-2019 16:11:18 8.4 C 72 %
531 13-12-2019 16:21:17 8.3 C 72 %
532 13-12-2019 16:31:17 8.3 C 71 %
533 13-12-2019 16:41:17 8.3 C 71 %
534 13-12-2019 16:51:17 8.2 C 71 %
535 13-12-2019 17:01:17 8.2 C 70 %
536 13-12-2019 17:11:17 8.2 C 70 %
537 13-12-2019 17:21:17 8.2 C 70 %
538 13-12-2019 17:31:18 8.2 C 70 %
539 13-12-2019 17:41:18 8.2 C 70 %
540 13-12-2019 17:51:17 8.2 C 70 %
541 13-12-2019 18:01:17 8.3 C 70 %
542 13-12-2019 18:11:17 8.4 C 71 %
543 13-12-2019 18:21:17 8.4 C 71 %
544 13-12-2019 18:31:17 8.4 C 71 %
545 13-12-2019 18:41:18 8.4 C 71 %
546 13-12-2019 18:51:17 8.5 C 72 %
547 13-12-2019 19:01:17 8.5 C 72 %
548 13-12-2019 19:11:17 8.5 C 72 %
549 13-12-2019 19:21:17 8.5 C 72 %
550 13-12-2019 19:31:17 8.5 C 72 %
Sensor: Nr:Datum:Temp:Feuchte:
G-T/H 551 13-12-2019 19:41:17 8.5 C 72 %
552 13-12-2019 19:51:17 8.5 C 72 %
553 13-12-2019 20:01:17 8.5 C 72 %
554 13-12-2019 20:11:17 8.6 C 73 %
555 13-12-2019 20:21:17 8.5 C 73 %
556 13-12-2019 20:31:17 8.5 C 73 %
557 13-12-2019 20:41:17 8.6 C 73 %
558 13-12-2019 20:51:17 8.6 C 73 %
559 13-12-2019 21:01:17 8.6 C 73 %
560 13-12-2019 21:11:17 8.6 C 73 %
561 13-12-2019 21:21:17 8.6 C 73 %
562 13-12-2019 21:31:18 8.6 C 73 %
563 13-12-2019 21:41:18 8.6 C 73 %
564 13-12-2019 21:51:17 8.6 C 73 %
565 13-12-2019 22:01:17 8.6 C 73 %
566 13-12-2019 22:11:17 8.6 C 73 %
567 13-12-2019 22:21:17 8.6 C 73 %
568 13-12-2019 22:31:18 8.6 C 73 %
569 13-12-2019 22:41:18 8.6 C 73 %
570 13-12-2019 22:51:17 8.6 C 73 %
571 13-12-2019 23:01:17 8.6 C 73 %
572 13-12-2019 23:11:17 8.6 C 73 %
573 13-12-2019 23:21:17 8.6 C 73 %
574 13-12-2019 23:31:17 8.6 C 73 %
575 13-12-2019 23:41:17 8.6 C 73 %
Sensor: Nr:Datum:Temp:Feuchte:
G-T/H 576 13-12-2019 23:51:17 8.6 C 73 %
577 14-12-2019 00:01:17 8.7 C 73 %
578 14-12-2019 00:11:17 8.7 C 73 %
579 14-12-2019 00:21:17 8.7 C 73 %
580 14-12-2019 00:31:18 8.7 C 73 %
581 14-12-2019 00:41:18 8.6 C 73 %
582 14-12-2019 00:51:17 8.7 C 73 %
583 14-12-2019 01:01:17 8.7 C 73 %
584 14-12-2019 01:11:17 8.7 C 74 %
585 14-12-2019 01:21:17 8.7 C 74 %
586 14-12-2019 01:31:17 8.7 C 74 %
587 14-12-2019 01:41:17 8.6 C 74 %
588 14-12-2019 01:51:17 8.7 C 74 %
589 14-12-2019 02:01:17 8.7 C 74 %
590 14-12-2019 02:11:17 8.7 C 74 %
591 14-12-2019 02:21:17 8.7 C 74 %
592 14-12-2019 02:31:18 8.7 C 74 %
593 14-12-2019 02:41:18 8.7 C 74 %
594 14-12-2019 02:51:17 8.7 C 74 %
595 14-12-2019 03:01:18 8.7 C 74 %
596 14-12-2019 03:11:18 8.7 C 74 %
597 14-12-2019 03:21:17 8.7 C 74 %
598 14-12-2019 03:31:17 8.7 C 74 %
599 14-12-2019 03:41:17 8.7 C 74 %
600 14-12-2019 03:51:18 8.7 C 74 %
Sensor: Nr:Datum:Temp:Feuchte:
G-T/H 601 14-12-2019 04:01:17 8.7 C 74 %
602 14-12-2019 04:11:17 8.7 C 74 %
603 14-12-2019 04:21:17 8.7 C 74 %
604 14-12-2019 04:31:18 8.7 C 74 %
605 14-12-2019 04:41:18 8.7 C 74 %
606 14-12-2019 04:51:17 8.7 C 74 %
607 14-12-2019 05:01:17 8.7 C 74 %
608 14-12-2019 05:11:17 8.7 C 74 %
609 14-12-2019 05:21:17 8.7 C 74 %
610 14-12-2019 05:31:18 8.7 C 74 %
611 14-12-2019 05:41:18 8.7 C 74 %
612 14-12-2019 05:51:17 8.7 C 74 %
613 14-12-2019 06:01:18 8.7 C 74 %
614 14-12-2019 06:11:18 8.7 C 74 %
615 14-12-2019 06:21:17 8.7 C 74 %
616 14-12-2019 06:31:17 8.7 C 74 %
617 14-12-2019 06:41:17 8.7 C 74 %
618 14-12-2019 06:51:18 8.7 C 74 %
619 14-12-2019 07:01:17 8.8 C 74 %
620 14-12-2019 07:11:18 8.8 C 74 %
621 14-12-2019 07:21:17 8.8 C 74 %
622 14-12-2019 07:31:17 8.8 C 74 %
623 14-12-2019 07:41:17 8.8 C 74 %
624 14-12-2019 07:51:17 8.8 C 74 %
625 14-12-2019 08:01:17 8.8 C 74 %
Sensor: Nr:Datum:Temp:Feuchte:
G-T/H 626 14-12-2019 08:11:17 8.8 C 74 %
627 14-12-2019 08:21:17 8.8 C 74 %
628 14-12-2019 08:31:18 8.8 C 74 %
629 14-12-2019 08:41:18 8.8 C 74 %
630 14-12-2019 08:51:17 8.8 C 74 %
631 14-12-2019 09:01:17 8.8 C 74 %
632 14-12-2019 09:11:17 8.8 C 74 %
633 14-12-2019 09:21:18 8.8 C 74 %
634 14-12-2019 09:31:18 8.8 C 74 %
635 14-12-2019 09:41:18 8.8 C 74 %
636 14-12-2019 09:51:17 8.8 C 74 %
637 14-12-2019 10:01:17 8.8 C 74 %
638 14-12-2019 10:11:17 8.8 C 74 %
639 14-12-2019 10:21:17 8.8 C 74 %
640 14-12-2019 10:31:17 8.8 C 74 %
641 14-12-2019 10:41:17 8.9 C 74 %
642 14-12-2019 10:51:17 8.9 C 74 %
643 14-12-2019 11:01:18 8.9 C 74 %
644 14-12-2019 11:11:18 8.9 C 74 %
645 14-12-2019 11:21:17 8.9 C 74 %
646 14-12-2019 11:31:17 8.9 C 74 %
647 14-12-2019 11:41:17 8.9 C 74 %
648 14-12-2019 11:51:17 9 C 73 %
649 14-12-2019 12:01:17 9.1 C 73 %
650 14-12-2019 12:11:17 9.1 C 73 %
Sensor: Nr:Datum:Temp:Feuchte:
G-T/H 651 14-12-2019 12:21:18 9 C 72 %
652 14-12-2019 12:31:17 8.9 C 70 %
653 14-12-2019 12:41:17 8.9 C 68 %
654 14-12-2019 12:51:17 8.9 C 68 %
655 14-12-2019 13:01:17 8.9 C 69 %
656 14-12-2019 13:11:17 8.9 C 69 %
657 14-12-2019 13:21:17 9 C 69 %
658 14-12-2019 13:31:17 8.9 C 70 %
659 14-12-2019 13:41:17 8.9 C 70 %
660 14-12-2019 13:51:17 8.9 C 71 %
661 14-12-2019 14:01:18 9 C 70 %
662 14-12-2019 14:11:18 9 C 70 %
663 14-12-2019 14:21:17 9 C 71 %
664 14-12-2019 14:31:18 9 C 71 %
665 14-12-2019 14:41:18 9 C 71 %
666 14-12-2019 14:51:18 8.9 C 72 %
667 14-12-2019 15:01:17 9 C 71 %
668 14-12-2019 15:11:17 9 C 71 %
669 14-12-2019 15:21:17 9 C 72 %
670 14-12-2019 15:31:17 9 C 72 %
671 14-12-2019 15:41:18 9 C 72 %
672 14-12-2019 15:51:17 9 C 72 %
673 14-12-2019 16:01:17 9 C 72 %
674 14-12-2019 16:11:17 9.1 C 72 %
675 14-12-2019 16:21:17 9.1 C 72 %
Sensor: Nr:Datum:Temp:Feuchte:
G-T/H 676 14-12-2019 16:31:18 9.1 C 72 %
677 14-12-2019 16:41:18 9.1 C 72 %
678 14-12-2019 16:51:17 9.1 C 72 %
679 14-12-2019 17:01:17 9.1 C 72 %
680 14-12-2019 17:11:17 9 C 73 %
681 14-12-2019 17:21:17 9.1 C 73 %
682 14-12-2019 17:31:18 9.1 C 73 %
683 14-12-2019 17:41:18 9.1 C 73 %
684 14-12-2019 17:51:17 9.1 C 73 %
685 14-12-2019 18:01:17 9.1 C 73 %
686 14-12-2019 18:11:17 9.1 C 73 %
687 14-12-2019 18:22:17 9.1 C 73 %
688 14-12-2019 18:31:17 9.1 C 73 %
689 14-12-2019 18:41:17 9.1 C 73 %
690 14-12-2019 18:52:17 9.2 C 73 %
691 14-12-2019 19:01:18 9.1 C 73 %
692 14-12-2019 19:11:18 9.1 C 73 %
693 14-12-2019 19:21:17 9.2 C 73 %
694 14-12-2019 19:31:17 9.2 C 73 %
695 14-12-2019 19:41:17 9.2 C 73 %
696 14-12-2019 19:52:17 9.1 C 73 %
697 14-12-2019 20:01:18 9.2 C 73 %
698 14-12-2019 20:11:18 9.2 C 73 %
699 14-12-2019 20:21:17 9.2 C 73 %
700 14-12-2019 20:31:17 9.2 C 73 %
Sensor: Nr:Datum:Temp:Feuchte:
G-T/H 701 14-12-2019 20:41:17 9.1 C 73 %
702 14-12-2019 20:52:17 9.2 C 73 %
703 14-12-2019 21:01:17 9.2 C 73 %
704 14-12-2019 21:11:17 9.2 C 73 %
705 14-12-2019 21:22:17 9.2 C 73 %
706 14-12-2019 21:31:18 9.2 C 73 %
707 14-12-2019 21:41:18 9.2 C 73 %
708 14-12-2019 21:52:17 9.2 C 73 %
709 14-12-2019 22:02:17 9.2 C 73 %
710 14-12-2019 22:11:17 9.2 C 73 %
711 14-12-2019 22:22:17 9.2 C 73 %
712 14-12-2019 22:31:17 9.2 C 74 %
713 14-12-2019 22:41:17 9.2 C 74 %
714 14-12-2019 22:52:17 9.2 C 74 %
715 14-12-2019 23:02:17 9.2 C 74 %
716 14-12-2019 23:12:17 9.2 C 74 %
717 14-12-2019 23:22:17 9.2 C 74 %
718 14-12-2019 23:31:18 9.2 C 74 %
719 14-12-2019 23:41:18 9.2 C 74 %
720 14-12-2019 23:51:18 9.2 C 74 %
721 15-12-2019 00:02:17 9.2 C 74 %
722 15-12-2019 00:11:17 9.2 C 74 %
723 15-12-2019 00:22:17 9.2 C 74 %
724 15-12-2019 00:31:18 9.2 C 74 %
725 15-12-2019 00:41:18 9.2 C 74 %
Sensor: Nr:Datum:Temp:Feuchte:
G-T/H 726 15-12-2019 00:52:17 9.2 C 74 %
727 15-12-2019 01:02:17 9.2 C 74 %
728 15-12-2019 01:12:17 9.2 C 74 %
729 15-12-2019 01:22:17 9.2 C 74 %
730 15-12-2019 01:31:18 9.2 C 74 %
731 15-12-2019 01:41:18 9.2 C 74 %
732 15-12-2019 01:52:17 9.2 C 74 %
733 15-12-2019 02:02:17 9.2 C 74 %
734 15-12-2019 02:12:17 9.3 C 74 %
735 15-12-2019 02:22:17 9.2 C 74 %
736 15-12-2019 02:32:18 9.3 C 74 %
737 15-12-2019 02:42:18 9.3 C 74 %
738 15-12-2019 02:52:17 9.2 C 74 %
739 15-12-2019 03:02:18 9.2 C 74 %
740 15-12-2019 03:12:18 9.3 C 74 %
741 15-12-2019 03:22:17 9.3 C 74 %
742 15-12-2019 03:32:17 9.3 C 74 %
743 15-12-2019 03:42:17 9.3 C 74 %
744 15-12-2019 03:52:17 9.3 C 74 %
745 15-12-2019 04:02:17 9.3 C 74 %
746 15-12-2019 04:12:17 9.3 C 74 %
747 15-12-2019 04:22:17 9.3 C 74 %
748 15-12-2019 04:32:17 9.3 C 74 %
749 15-12-2019 04:42:17 9.3 C 74 %
750 15-12-2019 04:52:17 9.2 C 74 %
Sensor: Nr:Datum:Temp:Feuchte:
G-T/H 751 15-12-2019 05:02:17 9.3 C 74 %
752 15-12-2019 05:12:17 9.3 C 74 %
753 15-12-2019 05:22:17 9.3 C 74 %
754 15-12-2019 05:32:18 9.3 C 74 %
755 15-12-2019 05:42:18 9.3 C 74 %
756 15-12-2019 05:52:17 9.3 C 74 %
757 15-12-2019 06:02:17 9.3 C 74 %
758 15-12-2019 06:12:17 9.4 C 74 %
759 15-12-2019 06:22:17 9.4 C 74 %
760 15-12-2019 06:32:17 9.4 C 74 %
761 15-12-2019 06:42:17 9.4 C 74 %
762 15-12-2019 06:52:17 9.4 C 74 %
763 15-12-2019 07:02:17 9.4 C 74 %
764 15-12-2019 07:12:17 9.5 C 75 %
765 15-12-2019 07:22:17 9.4 C 75 %
766 15-12-2019 07:32:17 9.5 C 75 %
767 15-12-2019 07:42:17 9.5 C 75 %
768 15-12-2019 07:52:17 9.5 C 75 %
769 15-12-2019 08:02:17 9.5 C 75 %
770 15-12-2019 08:12:17 9.5 C 75 %
771 15-12-2019 08:22:17 9.5 C 75 %
772 15-12-2019 08:32:18 9.5 C 75 %
773 15-12-2019 08:42:18 9.5 C 75 %
774 15-12-2019 08:52:17 9.5 C 75 %
775 15-12-2019 09:02:17 9.5 C 75 %
Sensor: Nr:Datum:Temp:Feuchte:
G-T/H 776 15-12-2019 09:12:17 9.5 C 75 %
777 15-12-2019 09:22:17 9.5 C 75 %
778 15-12-2019 09:32:17 9.5 C 75 %
779 15-12-2019 09:42:17 9.6 C 75 %
780 15-12-2019 09:52:18 9.6 C 75 %
781 15-12-2019 10:02:18 9.6 C 75 %
782 15-12-2019 10:12:18 9.6 C 75 %
783 15-12-2019 10:22:18 9.6 C 75 %
784 15-12-2019 10:32:17 9.6 C 75 %
785 15-12-2019 10:42:17 9.6 C 75 %
786 15-12-2019 10:52:17 9.6 C 75 %
787 15-12-2019 11:02:17 9.6 C 75 %
788 15-12-2019 11:12:17 9.6 C 75 %
789 15-12-2019 11:22:17 9.6 C 75 %
790 15-12-2019 11:32:17 9.6 C 75 %
791 15-12-2019 11:42:17 9.6 C 75 %
792 15-12-2019 11:52:17 9.6 C 75 %
793 15-12-2019 12:02:17 9.6 C 75 %
794 15-12-2019 12:12:17 9.7 C 75 %
795 15-12-2019 12:22:17 9.6 C 75 %
796 15-12-2019 12:32:17 9.6 C 75 %
797 15-12-2019 12:42:17 9.7 C 75 %
798 15-12-2019 12:52:18 9.7 C 75 %
799 15-12-2019 13:02:18 9.7 C 75 %
800 15-12-2019 13:12:18 9.7 C 75 %
Sensor: Nr:Datum:Temp:Feuchte:
G-T/H 801 15-12-2019 13:22:17 9.7 C 75 %
802 15-12-2019 13:32:17 9.7 C 75 %
803 15-12-2019 13:42:17 9.7 C 75 %
804 15-12-2019 13:52:18 9.7 C 75 %
805 15-12-2019 14:02:17 9.7 C 75 %
806 15-12-2019 14:12:17 9.7 C 75 %
807 15-12-2019 14:22:17 9.7 C 75 %
808 15-12-2019 14:32:17 9.8 C 75 %
809 15-12-2019 14:42:17 9.7 C 75 %
810 15-12-2019 14:52:17 9.7 C 75 %
811 15-12-2019 15:02:17 9.7 C 75 %
812 15-12-2019 15:12:17 9.7 C 75 %
813 15-12-2019 15:22:17 9.7 C 75 %
814 15-12-2019 15:32:17 9.8 C 75 %
815 15-12-2019 15:42:17 9.8 C 75 %
816 15-12-2019 15:52:17 9.8 C 75 %
817 15-12-2019 16:02:17 9.8 C 75 %
818 15-12-2019 16:12:17 9.8 C 75 %
819 15-12-2019 16:22:18 9.8 C 75 %
820 15-12-2019 16:32:17 9.8 C 75 %
821 15-12-2019 16:42:17 9.8 C 75 %
822 15-12-2019 16:52:17 9.8 C 75 %
823 15-12-2019 17:02:17 9.8 C 75 %
824 15-12-2019 17:12:17 9.8 C 75 %
825 15-12-2019 17:22:17 9.8 C 75 %
Sensor: Nr:Datum:Temp:Feuchte:
G-T/H 826 15-12-2019 17:32:17 9.8 C 75 %
827 15-12-2019 17:42:17 9.8 C 75 %
828 15-12-2019 17:52:17 9.8 C 75 %
829 15-12-2019 18:02:17 9.8 C 75 %
830 15-12-2019 18:12:17 9.8 C 75 %
831 15-12-2019 18:22:17 9.8 C 75 %
832 15-12-2019 18:32:17 9.8 C 75 %
833 15-12-2019 18:42:17 9.8 C 75 %
834 15-12-2019 18:52:18 9.8 C 75 %
835 15-12-2019 19:02:17 9.8 C 75 %
836 15-12-2019 19:12:17 9.8 C 75 %
837 15-12-2019 19:22:17 9.8 C 75 %
838 15-12-2019 19:32:18 9.8 C 75 %
839 15-12-2019 19:42:18 9.8 C 75 %
840 15-12-2019 19:52:17 9.8 C 75 %
841 15-12-2019 20:02:17 9.8 C 75 %
842 15-12-2019 20:12:17 9.8 C 75 %
843 15-12-2019 20:22:17 9.8 C 75 %
844 15-12-2019 20:32:17 9.8 C 75 %
845 15-12-2019 20:42:17 9.8 C 75 %
846 15-12-2019 20:52:17 9.8 C 75 %
847 15-12-2019 21:02:17 9.8 C 75 %
848 15-12-2019 21:12:17 9.8 C 75 %
849 15-12-2019 21:22:17 9.8 C 75 %
850 15-12-2019 21:32:18 9.8 C 75 %
Sensor: Nr:Datum:Temp:Feuchte:
G-T/H 851 15-12-2019 21:42:18 9.8 C 75 %
852 15-12-2019 21:52:17 9.8 C 75 %
853 15-12-2019 22:02:17 9.7 C 75 %
854 15-12-2019 22:12:17 9.7 C 75 %
855 15-12-2019 22:22:17 9.7 C 75 %
856 15-12-2019 22:32:17 9.7 C 75 %
857 15-12-2019 22:42:17 9.7 C 75 %
858 15-12-2019 22:52:18 9.7 C 75 %
859 15-12-2019 23:02:17 9.7 C 75 %
860 15-12-2019 23:12:18 9.7 C 74 %
861 15-12-2019 23:22:17 9.7 C 74 %
862 15-12-2019 23:32:18 9.7 C 74 %
863 15-12-2019 23:42:18 9.7 C 74 %
864 15-12-2019 23:52:17 9.7 C 74 %
865 16-12-2019 00:02:17 9.7 C 74 %
866 16-12-2019 00:12:17 9.7 C 74 %
867 16-12-2019 00:22:17 9.7 C 74 %
868 16-12-2019 00:32:17 9.7 C 74 %
869 16-12-2019 00:42:17 9.7 C 74 %
870 16-12-2019 00:52:18 9.7 C 74 %
871 16-12-2019 01:02:17 9.7 C 74 %
872 16-12-2019 01:12:17 9.7 C 74 %
873 16-12-2019 01:22:17 9.7 C 74 %
874 16-12-2019 01:32:17 9.7 C 74 %
875 16-12-2019 01:42:18 9.7 C 75 %
Sensor: Nr:Datum:Temp:Feuchte:
G-T/H 876 16-12-2019 01:52:17 9.7 C 75 %
877 16-12-2019 02:02:18 9.7 C 75 %
878 16-12-2019 02:12:18 9.7 C 75 %
879 16-12-2019 02:22:17 9.7 C 75 %
880 16-12-2019 02:32:17 9.7 C 75 %
881 16-12-2019 02:42:17 9.7 C 75 %
882 16-12-2019 02:52:18 9.7 C 75 %
883 16-12-2019 03:02:17 9.7 C 75 %
884 16-12-2019 03:12:17 9.7 C 75 %
885 16-12-2019 03:22:17 9.7 C 75 %
886 16-12-2019 03:32:18 9.7 C 75 %
887 16-12-2019 03:42:18 9.6 C 75 %
888 16-12-2019 03:52:17 9.7 C 75 %
889 16-12-2019 04:02:17 9.7 C 75 %
890 16-12-2019 04:12:17 9.7 C 75 %
891 16-12-2019 04:22:17 9.7 C 75 %
892 16-12-2019 04:32:17 9.7 C 75 %
893 16-12-2019 04:42:17 9.7 C 75 %
894 16-12-2019 04:52:17 9.7 C 75 %
895 16-12-2019 05:02:17 9.7 C 75 %
896 16-12-2019 05:12:17 9.7 C 75 %
897 16-12-2019 05:22:17 9.7 C 75 %
898 16-12-2019 05:32:17 9.7 C 75 %
899 16-12-2019 05:42:17 9.7 C 75 %
900 16-12-2019 05:52:17 9.7 C 75 %
Sensor: Nr:Datum:Temp:Feuchte:
G-T/H 901 16-12-2019 06:02:17 9.7 C 75 %
902 16-12-2019 06:12:17 9.7 C 75 %
903 16-12-2019 06:22:17 9.7 C 75 %
904 16-12-2019 06:32:17 9.7 C 75 %
905 16-12-2019 06:42:17 9.7 C 75 %
906 16-12-2019 06:52:17 9.7 C 75 %
907 16-12-2019 07:02:17 9.7 C 75 %
908 16-12-2019 07:12:17 9.7 C 75 %
909 16-12-2019 07:22:17 9.7 C 75 %
910 16-12-2019 07:32:18 9.7 C 75 %
911 16-12-2019 07:42:18 9.7 C 75 %
912 16-12-2019 07:52:17 9.7 C 75 %
913 16-12-2019 08:02:17 9.7 C 75 %
914 16-12-2019 08:12:17 9.7 C 75 %
915 16-12-2019 08:22:17 9.7 C 75 %
916 16-12-2019 08:32:17 9.7 C 75 %
917 16-12-2019 08:42:17 9.7 C 75 %
918 16-12-2019 08:52:17 9.7 C 75 %
919 16-12-2019 09:02:17 9.7 C 75 %
920 16-12-2019 09:12:17 9.8 C 76 %
921 16-12-2019 09:22:18 9.7 C 76 %
922 16-12-2019 09:32:17 9.7 C 76 %
923 16-12-2019 09:42:17 9.8 C 76 %
924 16-12-2019 09:52:17 9.8 C 76 %
925 16-12-2019 10:02:18 9.8 C 76 %
Sensor: Nr:Datum:Temp:Feuchte:
G-T/H 926 16-12-2019 10:12:18 9.7 C 76 %
927 16-12-2019 10:22:17 9.8 C 76 %
928 16-12-2019 10:32:17 9.8 C 76 %
929 16-12-2019 10:42:17 9.8 C 76 %
930 16-12-2019 10:52:17 9.8 C 76 %
931 16-12-2019 11:02:17 9.8 C 76 %
932 16-12-2019 11:12:17 9.8 C 76 %
933 16-12-2019 11:22:17 9.8 C 76 %
934 16-12-2019 11:32:18 9.8 C 76 %
935 16-12-2019 11:42:18 9.8 C 76 %
936 16-12-2019 11:52:17 9.8 C 76 %
937 16-12-2019 12:02:17 9.8 C 76 %
938 16-12-2019 12:12:17 9.8 C 76 %
939 16-12-2019 12:22:17 9.8 C 76 %
940 16-12-2019 12:32:17 9.9 C 76 %
941 16-12-2019 12:42:17 9.9 C 76 %
942 16-12-2019 12:52:17 9.8 C 76 %
943 16-12-2019 13:02:17 9.9 C 76 %
944 16-12-2019 13:12:17 9.9 C 76 %
945 16-12-2019 13:22:17 9.9 C 76 %
946 16-12-2019 13:32:17 9.9 C 76 %
947 16-12-2019 13:42:17 9.9 C 76 %
948 16-12-2019 13:52:18 9.9 C 76 %
949 16-12-2019 14:02:17 10 C 75 %
950 16-12-2019 14:12:17 9.9 C 76 %
Sensor: Nr:Datum:Temp:Feuchte:
G-T/H 951 16-12-2019 14:22:17 10 C 75 %
952 16-12-2019 14:32:17 10 C 75 %
953 16-12-2019 14:42:17 10 C 75 %
954 16-12-2019 14:52:18 10 C 75 %
955 16-12-2019 15:02:17 10 C 75 %
956 16-12-2019 15:12:17 10 C 75 %
957 16-12-2019 15:22:17 10 C 75 %
958 16-12-2019 15:32:18 10 C 75 %
959 16-12-2019 15:42:18 10 C 75 %
960 16-12-2019 15:52:17 10.1 C 75 %
961 16-12-2019 16:02:17 10.1 C 75 %
962 16-12-2019 16:12:17 10.1 C 75 %
963 16-12-2019 16:22:17 10.1 C 75 %
964 16-12-2019 16:32:18 10.1 C 75 %
965 16-12-2019 16:42:18 10.1 C 75 %
966 16-12-2019 16:52:17 10.1 C 75 %
967 16-12-2019 17:02:17 10.1 C 75 %
968 16-12-2019 17:12:17 10.1 C 75 %
969 16-12-2019 17:22:17 10.1 C 75 %
970 16-12-2019 17:32:17 10.1 C 75 %
971 16-12-2019 17:42:17 10.1 C 75 %
972 16-12-2019 17:52:17 10.1 C 75 %
973 16-12-2019 18:02:17 10.1 C 75 %
974 16-12-2019 18:12:17 10.1 C 75 %
975 16-12-2019 18:22:17 10.1 C 75 %
Sensor: Nr:Datum:Temp:Feuchte:
G-T/H 976 16-12-2019 18:32:17 10.1 C 75 %
977 16-12-2019 18:42:17 10.2 C 75 %
978 16-12-2019 18:52:17 10.2 C 75 %
979 16-12-2019 19:02:18 10.2 C 75 %
980 16-12-2019 19:12:18 10.2 C 75 %
981 16-12-2019 19:22:17 10.2 C 75 %
982 16-12-2019 19:32:17 10.2 C 75 %
983 16-12-2019 19:42:17 10.2 C 75 %
984 16-12-2019 19:52:18 10.2 C 75 %
985 16-12-2019 20:02:17 10.2 C 75 %
986 16-12-2019 20:12:17 10.2 C 75 %
987 16-12-2019 20:22:17 10.2 C 75 %
988 16-12-2019 20:32:17 10.2 C 75 %
989 16-12-2019 20:42:17 10.2 C 75 %
990 16-12-2019 20:52:17 10.2 C 75 %
991 16-12-2019 21:02:17 10.2 C 75 %
992 16-12-2019 21:12:17 10.2 C 75 %
993 16-12-2019 21:22:17 10.2 C 75 %
994 16-12-2019 21:32:17 10.2 C 75 %
995 16-12-2019 21:42:17 10.3 C 75 %
996 16-12-2019 21:52:17 10.2 C 75 %
997 16-12-2019 22:02:17 10.2 C 75 %
998 16-12-2019 22:12:17 10.2 C 75 %
999 16-12-2019 22:22:17 10.2 C 75 %
1000 16-12-2019 22:32:17 10.3 C 75 %
Sensor: Nr:Datum:Temp:Feuchte:
G-T/H 1001 16-12-2019 22:42:17 10.2 C 75 %
1002 16-12-2019 22:52:18 10.2 C 75 %
1003 16-12-2019 23:02:17 10.2 C 75 %
1004 16-12-2019 23:12:17 10.2 C 75 %
1005 16-12-2019 23:22:17 10.2 C 75 %
1006 16-12-2019 23:32:17 10.2 C 75 %
1007 16-12-2019 23:42:17 10.2 C 75 %
1008 16-12-2019 23:52:18 10.2 C 75 %
1009 17-12-2019 00:02:17 10.2 C 75 %
1010 17-12-2019 00:12:17 10.2 C 75 %
1011 17-12-2019 00:22:17 10.3 C 75 %
1012 17-12-2019 00:32:18 10.2 C 75 %
1013 17-12-2019 00:42:18 10.3 C 75 %
1014 17-12-2019 00:52:17 10.2 C 75 %
1015 17-12-2019 01:02:17 10.2 C 75 %
1016 17-12-2019 01:12:17 10.2 C 75 %
1017 17-12-2019 01:22:17 10.3 C 75 %
1018 17-12-2019 01:32:17 10.2 C 75 %
1019 17-12-2019 01:42:17 10.2 C 75 %
1020 17-12-2019 01:52:17 10.3 C 75 %
1021 17-12-2019 02:02:18 10.2 C 75 %
1022 17-12-2019 02:12:18 10.3 C 75 %
1023 17-12-2019 02:22:17 10.3 C 75 %
1024 17-12-2019 02:32:17 10.2 C 75 %
1025 17-12-2019 02:42:17 10.2 C 75 %
Sensor: Nr:Datum:Temp:Feuchte:
G-T/H 1026 17-12-2019 02:52:18 10.3 C 75 %
1027 17-12-2019 03:02:17 10.2 C 75 %
1028 17-12-2019 03:12:17 10.2 C 75 %
1029 17-12-2019 03:22:17 10.2 C 75 %
1030 17-12-2019 03:32:17 10.3 C 75 %
1031 17-12-2019 03:42:17 10.2 C 75 %
1032 17-12-2019 03:52:18 10.3 C 75 %
1033 17-12-2019 04:02:17 10.3 C 75 %
1034 17-12-2019 04:12:17 10.3 C 75 %
1035 17-12-2019 04:22:17 10.2 C 75 %
1036 17-12-2019 04:32:17 10.3 C 75 %
1037 17-12-2019 04:42:17 10.3 C 75 %
1038 17-12-2019 04:52:18 10.2 C 75 %
1039 17-12-2019 05:02:17 10.3 C 75 %
1040 17-12-2019 05:12:17 10.2 C 75 %
1041 17-12-2019 05:22:17 10.3 C 75 %
1042 17-12-2019 05:32:17 10.2 C 75 %
1043 17-12-2019 05:42:17 10.3 C 75 %
1044 17-12-2019 05:52:17 10.3 C 75 %
1045 17-12-2019 06:02:17 10.3 C 75 %
1046 17-12-2019 06:12:17 10.2 C 75 %
1047 17-12-2019 06:22:18 10.3 C 75 %
1048 17-12-2019 06:32:17 10.3 C 75 %
1049 17-12-2019 06:42:17 10.2 C 75 %
1050 17-12-2019 06:52:17 10.3 C 75 %
Sensor: Nr:Datum:Temp:Feuchte:
G-T/H 1051 17-12-2019 07:02:17 10.3 C 75 %
1052 17-12-2019 07:12:17 10.3 C 75 %
1053 17-12-2019 07:22:17 10.3 C 75 %
1054 17-12-2019 07:32:18 10.3 C 75 %
1055 17-12-2019 07:42:18 10.3 C 75 %
1056 17-12-2019 07:52:17 10.2 C 75 %
1057 17-12-2019 08:02:17 10.3 C 75 %
1058 17-12-2019 08:12:17 10.3 C 75 %
1059 17-12-2019 08:22:17 10.2 C 75 %
1060 17-12-2019 08:32:17 10.3 C 75 %
1061 17-12-2019 08:42:18 10.3 C 75 %
1062 17-12-2019 08:52:17 10.3 C 75 %
1063 17-12-2019 09:02:17 10.3 C 75 %
1064 17-12-2019 09:12:17 10.3 C 75 %
1065 17-12-2019 09:22:18 10.3 C 75 %
1066 17-12-2019 09:32:17 10.3 C 75 %
1067 17-12-2019 09:42:17 10.3 C 75 %
1068 17-12-2019 09:52:17 10.3 C 75 %
1069 17-12-2019 10:02:18 10.3 C 75 %
1070 17-12-2019 10:12:18 10.2 C 75 %
1071 17-12-2019 10:22:17 10.3 C 75 %
1072 17-12-2019 10:32:17 10.3 C 75 %
1073 17-12-2019 10:42:17 10.2 C 75 %
1074 17-12-2019 10:52:17 10.3 C 75 %
1075 17-12-2019 11:02:17 10.3 C 75 %
Sensor: Nr:Datum:Temp:Feuchte:
G-T/H 1076 17-12-2019 11:12:17 10.3 C 75 %
1077 17-12-2019 11:22:17 10.3 C 75 %
1078 17-12-2019 11:32:17 10.3 C 75 %
1079 17-12-2019 11:42:17 10.3 C 75 %
1080 17-12-2019 11:52:17 10.3 C 75 %
1081 17-12-2019 12:02:17 10.3 C 75 %
1082 17-12-2019 12:12:17 10.3 C 75 %
1083 17-12-2019 12:22:17 10.3 C 75 %
1084 17-12-2019 12:32:17 10.3 C 75 %
1085 17-12-2019 12:42:17 10.3 C 75 %
1086 17-12-2019 12:52:17 10.3 C 75 %
1087 17-12-2019 13:02:17 10.3 C 75 %
1088 17-12-2019 13:12:17 10.3 C 75 %
1089 17-12-2019 13:22:17 10.3 C 76 %
1090 17-12-2019 13:32:17 10.3 C 76 %
1091 17-12-2019 13:42:17 10.3 C 76 %
1092 17-12-2019 13:52:18 10.3 C 76 %
1093 17-12-2019 14:02:17 10.3 C 76 %
1094 17-12-2019 14:12:17 10.3 C 76 %
1095 17-12-2019 14:22:17 10.3 C 76 %
1096 17-12-2019 14:32:17 10.4 C 76 %
1097 17-12-2019 14:42:17 10.4 C 76 %
1098 17-12-2019 14:52:17 10.4 C 76 %
1099 17-12-2019 15:02:17 10.4 C 76 %
1100 17-12-2019 15:12:17 10.4 C 76 %
Sensor: Nr:Datum:Temp:Feuchte:
G-T/H 1101 17-12-2019 15:22:17 10.4 C 76 %
1102 17-12-2019 15:32:17 10.4 C 76 %
1103 17-12-2019 15:42:17 10.4 C 76 %
1104 17-12-2019 15:52:18 10.4 C 76 %
1105 17-12-2019 16:02:17 10.4 C 76 %
1106 17-12-2019 16:12:17 10.4 C 76 %
1107 17-12-2019 16:22:17 10.4 C 76 %
1108 17-12-2019 16:32:18 10.4 C 76 %
1109 17-12-2019 16:42:18 10.4 C 76 %
1110 17-12-2019 16:52:17 10.4 C 76 %
1111 17-12-2019 17:02:17 10.4 C 76 %
1112 17-12-2019 17:12:18 10.4 C 76 %
1113 17-12-2019 17:22:17 10.4 C 76 %
1114 17-12-2019 17:32:18 10.4 C 76 %
1115 17-12-2019 17:42:18 10.5 C 76 %
1116 17-12-2019 17:52:17 10.5 C 76 %
1117 17-12-2019 18:02:17 10.5 C 76 %
1118 17-12-2019 18:12:17 10.5 C 76 %
1119 17-12-2019 18:22:17 10.5 C 76 %
1120 17-12-2019 18:32:17 10.5 C 76 %
1121 17-12-2019 18:42:17 10.8 C 76 %
1122 17-12-2019 18:52:17 10.9 C 76 %
1123 17-12-2019 19:02:17 11 C 76 %
1124 17-12-2019 19:12:17 11.1 C 76 %
1125 17-12-2019 19:22:17 11 C 75 %
Sensor: Nr:Datum:Temp:Feuchte:
G-T/H 1126 17-12-2019 19:32:18 11 C 75 %
1127 17-12-2019 19:42:18 10.9 C 76 %
1128 17-12-2019 19:52:17 10.9 C 76 %
1129 17-12-2019 20:02:18 10.8 C 76 %
1130 17-12-2019 20:12:18 10.9 C 76 %
1131 17-12-2019 20:22:17 10.8 C 76 %
1132 17-12-2019 20:32:17 10.8 C 76 %
1133 17-12-2019 20:42:17 10.8 C 76 %
1134 17-12-2019 20:52:17 10.8 C 76 %
1135 17-12-2019 21:02:17 10.8 C 76 %
1136 17-12-2019 21:12:17 10.8 C 76 %
1137 17-12-2019 21:22:17 10.8 C 76 %
1138 17-12-2019 21:32:17 10.8 C 76 %
1139 17-12-2019 21:42:17 10.8 C 76 %
1140 17-12-2019 21:52:17 10.9 C 76 %
1141 17-12-2019 22:02:17 10.8 C 76 %
1142 17-12-2019 22:12:17 10.9 C 76 %
1143 17-12-2019 22:22:17 10.9 C 76 %
1144 17-12-2019 22:32:17 10.9 C 76 %
1145 17-12-2019 22:42:17 10.9 C 76 %
1146 17-12-2019 22:52:17 10.9 C 76 %
1147 17-12-2019 23:02:17 10.9 C 76 %
1148 17-12-2019 23:12:17 10.9 C 77 %
1149 17-12-2019 23:22:17 10.9 C 77 %
1150 17-12-2019 23:32:17 10.9 C 77 %
Sensor: Nr:Datum:Temp:Feuchte:
G-T/H 1151 17-12-2019 23:42:17 11 C 76 %
1152 17-12-2019 23:52:17 10.9 C 77 %
1153 18-12-2019 00:02:17 11 C 76 %
1154 18-12-2019 00:12:17 11 C 76 %
1155 18-12-2019 00:22:17 11 C 76 %
1156 18-12-2019 00:32:18 11 C 76 %
1157 18-12-2019 00:42:18 11 C 76 %
1158 18-12-2019 00:52:17 11 C 76 %
1159 18-12-2019 01:02:17 11 C 76 %
1160 18-12-2019 01:12:17 11 C 76 %
1161 18-12-2019 01:22:17 11 C 76 %
1162 18-12-2019 01:32:18 11 C 76 %
1163 18-12-2019 01:42:18 11 C 76 %
1164 18-12-2019 01:52:17 11 C 76 %
1165 18-12-2019 02:02:17 11 C 76 %
1166 18-12-2019 02:12:17 11 C 76 %
1167 18-12-2019 02:22:17 11.1 C 76 %
1168 18-12-2019 02:32:17 11 C 76 %
1169 18-12-2019 02:42:18 11 C 76 %
1170 18-12-2019 02:52:17 11.1 C 76 %
1171 18-12-2019 03:02:17 11 C 76 %
1172 18-12-2019 03:12:17 11.1 C 76 %
1173 18-12-2019 03:22:18 11.1 C 76 %
1174 18-12-2019 03:32:17 11.1 C 76 %
1175 18-12-2019 03:42:17 11.1 C 76 %
Sensor: Nr:Datum:Temp:Feuchte:
G-T/H 1176 18-12-2019 03:52:18 11.1 C 76 %
1177 18-12-2019 04:02:18 11.1 C 76 %
1178 18-12-2019 04:12:18 11.1 C 76 %
1179 18-12-2019 04:22:17 11.1 C 76 %
1180 18-12-2019 04:32:18 11.1 C 76 %
1181 18-12-2019 04:42:18 11.1 C 76 %
1182 18-12-2019 04:52:17 11.1 C 76 %
1183 18-12-2019 05:02:18 11.1 C 76 %
1184 18-12-2019 05:12:18 11.1 C 76 %
1185 18-12-2019 05:22:17 11.1 C 76 %
1186 18-12-2019 05:32:17 11.1 C 76 %
1187 18-12-2019 05:42:17 11.1 C 76 %
1188 18-12-2019 05:52:17 11.1 C 76 %
1189 18-12-2019 06:02:18 11.1 C 76 %
1190 18-12-2019 06:12:18 11.1 C 76 %
1191 18-12-2019 06:22:17 11.1 C 76 %
1192 18-12-2019 06:32:18 11.1 C 76 %
1193 18-12-2019 06:42:18 11.1 C 76 %
1194 18-12-2019 06:52:17 11.1 C 76 %
1195 18-12-2019 07:02:17 11.1 C 76 %
1196 18-12-2019 07:12:17 11.1 C 76 %
1197 18-12-2019 07:22:17 11.1 C 76 %
1198 18-12-2019 07:32:17 11.1 C 76 %
1199 18-12-2019 07:42:17 11.1 C 76 %
1200 18-12-2019 07:52:17 11.1 C 76 %
Sensor: Nr:Datum:Temp:Feuchte:
G-T/H 1201 18-12-2019 08:02:17 11.1 C 76 %
1202 18-12-2019 08:12:17 11.1 C 76 %
1203 18-12-2019 08:22:17 11.1 C 76 %
1204 18-12-2019 08:32:17 11.1 C 76 %
1205 18-12-2019 08:42:17 11.1 C 76 %
1206 18-12-2019 08:52:17 11.1 C 76 %
1207 18-12-2019 09:02:17 11.1 C 76 %
1208 18-12-2019 09:12:17 11.1 C 76 %
1209 18-12-2019 09:22:17 11.1 C 76 %
1210 18-12-2019 09:32:17 11.1 C 76 %
1211 18-12-2019 09:42:17 11.1 C 76 %
1212 18-12-2019 09:52:17 11.1 C 76 %
1213 18-12-2019 10:02:17 11.1 C 76 %
1214 18-12-2019 10:12:18 11.1 C 76 %
1215 18-12-2019 10:22:17 11.1 C 76 %
1216 18-12-2019 10:32:17 11.1 C 76 %
1217 18-12-2019 10:42:17 11.1 C 76 %
1218 18-12-2019 10:52:17 11.1 C 76 %
1219 18-12-2019 11:02:17 11.1 C 76 %
1220 18-12-2019 11:12:17 11.1 C 76 %
1221 18-12-2019 11:22:17 11.1 C 76 %
1222 18-12-2019 11:32:18 11 C 76 %
1223 18-12-2019 11:42:18 11.1 C 76 %
1224 18-12-2019 11:52:17 11 C 76 %
1225 18-12-2019 12:02:17 11.1 C 76 %
Sensor: Nr:Datum:Temp:Feuchte:
G-T/H 1226 18-12-2019 12:12:17 11.1 C 76 %
1227 18-12-2019 12:22:17 11.1 C 76 %
1228 18-12-2019 12:32:17 11 C 76 %
1229 18-12-2019 12:42:17 11.1 C 76 %
1230 18-12-2019 12:52:17 11.1 C 76 %
1231 18-12-2019 13:02:17 11.1 C 76 %
1232 18-12-2019 13:12:17 11 C 76 %
1233 18-12-2019 13:22:17 11 C 76 %
1234 18-12-2019 13:32:18 11 C 76 %
1235 18-12-2019 13:42:18 11 C 76 %
1236 18-12-2019 13:52:17 11 C 76 %
1237 18-12-2019 14:02:18 11 C 76 %
1238 18-12-2019 14:12:18 11 C 75 %
1239 18-12-2019 14:22:17 11 C 75 %
1240 18-12-2019 14:32:17 11 C 75 %
1241 18-12-2019 14:42:17 11 C 75 %
1242 18-12-2019 14:52:17 10.9 C 76 %
1243 18-12-2019 15:02:17 11 C 75 %
1244 18-12-2019 15:12:17 11 C 75 %
1245 18-12-2019 15:22:17 11 C 75 %
1246 18-12-2019 15:32:17 11 C 75 %
1247 18-12-2019 15:42:17 11 C 75 %
1248 18-12-2019 15:52:17 10.9 C 76 %
1249 18-12-2019 16:02:17 10.9 C 76 %
1250 18-12-2019 16:12:17 10.9 C 76 %
Sensor: Nr:Datum:Temp:Feuchte:
G-T/H 1251 18-12-2019 16:22:17 10.9 C 76 %
1252 18-12-2019 16:32:17 10.9 C 76 %
1253 18-12-2019 16:42:17 10.9 C 76 %
1254 18-12-2019 16:52:17 10.8 C 76 %
1255 18-12-2019 17:02:17 10.8 C 76 %
1256 18-12-2019 17:12:17 10.8 C 75 %
1257 18-12-2019 17:22:17 10.8 C 75 %
1258 18-12-2019 17:32:17 10.8 C 75 %
1259 18-12-2019 17:42:17 10.8 C 75 %
1260 18-12-2019 17:52:18 10.8 C 75 %
1261 18-12-2019 18:02:17 10.8 C 75 %
1262 18-12-2019 18:12:17 10.8 C 75 %
1263 18-12-2019 18:22:17 10.8 C 75 %
1264 18-12-2019 18:32:17 10.8 C 75 %
1265 18-12-2019 18:42:17 10.7 C 75 %
1266 18-12-2019 18:52:17 10.7 C 75 %
1267 18-12-2019 19:02:17 10.7 C 75 %
1268 18-12-2019 19:12:17 10.7 C 75 %
1269 18-12-2019 19:22:17 10.7 C 75 %
1270 18-12-2019 19:32:18 10.7 C 75 %
1271 18-12-2019 19:42:18 10.7 C 75 %
1272 18-12-2019 19:52:17 10.7 C 75 %
1273 18-12-2019 20:02:17 10.7 C 75 %
1274 18-12-2019 20:12:17 10.7 C 75 %
1275 18-12-2019 20:22:17 10.7 C 75 %
Sensor: Nr:Datum:Temp:Feuchte:
G-T/H 1276 18-12-2019 20:32:17 10.7 C 75 %
1277 18-12-2019 20:42:18 10.7 C 75 %
1278 18-12-2019 20:52:17 10.7 C 75 %
1279 18-12-2019 21:02:17 10.6 C 74 %
1280 18-12-2019 21:12:17 10.6 C 74 %
1281 18-12-2019 21:22:17 10.6 C 74 %
1282 18-12-2019 21:32:17 10.6 C 74 %
1283 18-12-2019 21:42:17 10.6 C 74 %
1284 18-12-2019 21:52:17 10.6 C 74 %
1285 18-12-2019 22:02:17 10.5 C 74 %
1286 18-12-2019 22:12:17 10.5 C 74 %
1287 18-12-2019 22:22:17 10.5 C 74 %
1288 18-12-2019 22:32:17 10.4 C 74 %
1289 18-12-2019 22:42:17 10.4 C 74 %
1290 18-12-2019 22:52:17 10.4 C 74 %
1291 18-12-2019 23:02:17 10.4 C 73 %
1292 18-12-2019 23:12:17 10.4 C 73 %
1293 18-12-2019 23:22:18 10.4 C 73 %
1294 18-12-2019 23:32:17 10.3 C 73 %
1295 18-12-2019 23:42:17 10.3 C 73 %
1296 18-12-2019 23:52:17 10.3 C 73 %
1297 19-12-2019 00:02:18 10.2 C 73 %
1298 19-12-2019 00:12:18 10.2 C 73 %
1299 19-12-2019 00:22:17 10.2 C 73 %
1300 19-12-2019 00:32:17 10.2 C 72 %
Sensor: Nr:Datum:Temp:Feuchte:
G-T/H 1301 19-12-2019 00:42:17 10.2 C 72 %
1302 19-12-2019 00:52:18 10.2 C 72 %
1303 19-12-2019 01:02:17 10.2 C 72 %
1304 19-12-2019 01:12:17 10.2 C 72 %
1305 19-12-2019 01:22:17 10.1 C 72 %
1306 19-12-2019 01:32:18 10.1 C 72 %
1307 19-12-2019 01:42:18 10.1 C 72 %
1308 19-12-2019 01:52:17 10.1 C 72 %
1309 19-12-2019 02:02:17 10.1 C 72 %
1310 19-12-2019 02:12:17 10.1 C 72 %
1311 19-12-2019 02:22:17 10 C 72 %
1312 19-12-2019 02:32:18 10 C 72 %
1313 19-12-2019 02:42:18 10 C 72 %
1314 19-12-2019 02:52:17 10 C 72 %
1315 19-12-2019 03:02:18 10 C 71 %
1316 19-12-2019 03:12:18 10 C 71 %
1317 19-12-2019 03:22:17 10 C 71 %
1318 19-12-2019 03:32:17 9.9 C 72 %
1319 19-12-2019 03:42:17 9.9 C 72 %
1320 19-12-2019 03:52:17 9.9 C 72 %
1321 19-12-2019 04:02:17 9.9 C 72 %
1322 19-12-2019 04:12:17 9.9 C 72 %
1323 19-12-2019 04:22:18 9.9 C 72 %
1324 19-12-2019 04:32:17 9.9 C 72 %
1325 19-12-2019 04:42:17 9.9 C 72 %
Sensor: Nr:Datum:Temp:Feuchte:
G-T/H 1326 19-12-2019 04:52:18 9.9 C 72 %
1327 19-12-2019 05:02:17 9.9 C 72 %
1328 19-12-2019 05:12:17 9.9 C 73 %
1329 19-12-2019 05:22:17 9.9 C 73 %
1330 19-12-2019 05:32:17 9.9 C 73 %
1331 19-12-2019 05:42:17 9.8 C 73 %
1332 19-12-2019 05:52:17 9.8 C 73 %
1333 19-12-2019 06:02:17 9.8 C 73 %
1334 19-12-2019 06:12:17 9.8 C 73 %
1335 19-12-2019 06:22:17 9.8 C 73 %
1336 19-12-2019 06:32:17 9.8 C 73 %
1337 19-12-2019 06:42:18 9.8 C 73 %
1338 19-12-2019 06:52:17 9.8 C 73 %
1339 19-12-2019 07:02:17 9.8 C 73 %
1340 19-12-2019 07:12:17 9.8 C 73 %
1341 19-12-2019 07:22:17 9.8 C 73 %
1342 19-12-2019 07:32:17 9.7 C 73 %
1343 19-12-2019 07:42:18 9.8 C 73 %
1344 19-12-2019 07:52:17 9.8 C 73 %
1345 19-12-2019 08:02:18 9.8 C 73 %
1346 19-12-2019 08:12:18 9.7 C 73 %
1347 19-12-2019 08:22:17 9.7 C 73 %
1348 19-12-2019 08:32:18 9.7 C 73 %
1349 19-12-2019 08:42:18 9.7 C 73 %
1350 19-12-2019 08:52:17 9.7 C 73 %
Sensor: Nr:Datum:Temp:Feuchte:
G-T/H 1351 19-12-2019 09:02:17 9.7 C 73 %
1352 19-12-2019 09:12:17 9.7 C 73 %
1353 19-12-2019 09:22:17 9.7 C 73 %
1354 19-12-2019 09:32:17 9.7 C 73 %
1355 19-12-2019 09:42:17 9.7 C 73 %
1356 19-12-2019 09:52:17 9.7 C 73 %
1357 19-12-2019 10:02:17 9.7 C 73 %
1358 19-12-2019 10:12:17 9.7 C 73 %
1359 19-12-2019 10:22:17 9.6 C 73 %
1360 19-12-2019 10:32:17 9.7 C 73 %
1361 19-12-2019 10:42:17 9.7 C 73 %
1362 19-12-2019 10:52:18 9.6 C 73 %
1363 19-12-2019 11:02:17 9.6 C 74 %
1364 19-12-2019 11:12:17 9.6 C 74 %
1365 19-12-2019 11:22:17 9.7 C 74 %
1366 19-12-2019 11:32:17 9.7 C 74 %
1367 19-12-2019 11:42:17 9.7 C 74 %
1368 19-12-2019 11:52:18 9.7 C 74 %
1369 19-12-2019 12:02:17 9.7 C 74 %
1370 19-12-2019 12:12:17 9.6 C 74 %
1371 19-12-2019 12:22:17 9.7 C 74 %
1372 19-12-2019 12:32:17 9.6 C 74 %
1373 19-12-2019 12:42:17 9.6 C 74 %
1374 19-12-2019 12:52:17 9.6 C 74 %
1375 19-12-2019 13:02:17 9.6 C 74 %
Sensor: Nr:Datum:Temp:Feuchte:
G-T/H 1376 19-12-2019 13:12:17 9.6 C 74 %
1377 19-12-2019 13:22:17 9.6 C 74 %
1378 19-12-2019 13:32:17 9.6 C 74 %
1379 19-12-2019 13:42:17 9.6 C 74 %
1380 19-12-2019 13:52:17 9.6 C 74 %
1381 19-12-2019 14:02:17 9.6 C 74 %
1382 19-12-2019 14:12:17 9.7 C 74 %
1383 19-12-2019 14:22:17 9.6 C 74 %
1384 19-12-2019 14:32:17 9.7 C 74 %
1385 19-12-2019 14:42:17 9.6 C 74 %
1386 19-12-2019 14:52:17 9.6 C 74 %
1387 19-12-2019 15:02:17 9.6 C 74 %
1388 19-12-2019 15:12:17 9.7 C 74 %
1389 19-12-2019 15:22:17 9.6 C 74 %
1390 19-12-2019 15:32:18 9.6 C 74 %
1391 19-12-2019 15:42:18 9.6 C 74 %
1392 19-12-2019 15:52:17 9.7 C 75 %
1393 19-12-2019 16:02:17 9.7 C 75 %
1394 19-12-2019 16:12:17 9.6 C 75 %
1395 19-12-2019 16:22:18 9.6 C 75 %
1396 19-12-2019 16:32:17 9.7 C 75 %
1397 19-12-2019 16:42:17 9.7 C 75 %
1398 19-12-2019 16:52:17 9.7 C 75 %
1399 19-12-2019 17:02:17 9.7 C 75 %
1400 19-12-2019 17:12:17 9.7 C 75 %
Sensor: Nr:Datum:Temp:Feuchte:
G-T/H 1401 19-12-2019 17:22:17 9.7 C 75 %
1402 19-12-2019 17:32:17 9.7 C 75 %
1403 19-12-2019 17:42:17 9.7 C 75 %
1404 19-12-2019 17:52:17 9.7 C 75 %
1405 19-12-2019 18:02:17 9.7 C 75 %
1406 19-12-2019 18:12:18 9.7 C 75 %
1407 19-12-2019 18:22:17 9.7 C 75 %
1408 19-12-2019 18:32:17 9.7 C 75 %
1409 19-12-2019 18:42:17 9.7 C 75 %
1410 19-12-2019 18:52:18 9.7 C 75 %
1411 19-12-2019 19:02:17 9.6 C 75 %
1412 19-12-2019 19:12:17 9.7 C 75 %
1413 19-12-2019 19:22:18 9.7 C 75 %
1414 19-12-2019 19:32:17 9.7 C 75 %
1415 19-12-2019 19:42:17 9.7 C 75 %
1416 19-12-2019 19:52:17 9.7 C 75 %
1417 19-12-2019 20:02:17 9.7 C 75 %
1418 19-12-2019 20:12:17 9.7 C 75 %
1419 19-12-2019 20:22:17 9.7 C 75 %
1420 19-12-2019 20:32:17 9.7 C 75 %
1421 19-12-2019 20:42:17 9.7 C 75 %
1422 19-12-2019 20:52:17 9.7 C 75 %
1423 19-12-2019 21:02:17 9.7 C 75 %
1424 19-12-2019 21:12:18 9.7 C 75 %
1425 19-12-2019 21:22:17 9.7 C 75 %
Sensor: Nr:Datum:Temp:Feuchte:
G-T/H 1426 19-12-2019 21:32:17 9.7 C 75 %
1427 19-12-2019 21:42:17 9.7 C 75 %
1428 19-12-2019 21:52:17 9.7 C 75 %
1429 19-12-2019 22:02:17 9.6 C 75 %
1430 19-12-2019 22:12:17 9.6 C 75 %
1431 19-12-2019 22:22:18 9.7 C 75 %
1432 19-12-2019 22:32:18 9.7 C 75 %
1433 19-12-2019 22:42:18 9.6 C 75 %
1434 19-12-2019 22:52:17 9.7 C 75 %
1435 19-12-2019 23:02:17 9.7 C 75 %
1436 19-12-2019 23:12:17 9.7 C 75 %
1437 19-12-2019 23:22:17 9.7 C 75 %
1438 19-12-2019 23:32:17 9.7 C 75 %
1439 19-12-2019 23:42:17 9.7 C 75 %
1440 19-12-2019 23:52:17 9.6 C 75 %
1441 20-12-2019 00:02:17 9.7 C 75 %
1442 20-12-2019 00:12:17 9.7 C 75 %
1443 20-12-2019 00:22:17 9.7 C 75 %
1444 20-12-2019 00:32:17 9.6 C 75 %
1445 20-12-2019 00:42:17 9.6 C 75 %
1446 20-12-2019 00:52:17 9.6 C 75 %
1447 20-12-2019 01:02:17 9.6 C 75 %
1448 20-12-2019 01:12:17 9.6 C 75 %
1449 20-12-2019 01:22:17 9.6 C 75 %
1450 20-12-2019 01:32:17 9.6 C 75 %
Sensor: Nr:Datum:Temp:Feuchte:
G-T/H 1451 20-12-2019 01:42:17 9.6 C 75 %
1452 20-12-2019 01:52:17 9.7 C 74 %
1453 20-12-2019 02:02:17 9.6 C 74 %
1454 20-12-2019 02:12:17 9.6 C 74 %
1455 20-12-2019 02:22:17 9.6 C 74 %
1456 20-12-2019 02:32:18 9.6 C 74 %
1457 20-12-2019 02:42:18 9.6 C 74 %
1458 20-12-2019 02:52:17 9.6 C 74 %
1459 20-12-2019 03:02:17 9.6 C 74 %
1460 20-12-2019 03:12:17 9.6 C 74 %
1461 20-12-2019 03:22:17 9.6 C 74 %
1462 20-12-2019 03:32:17 9.6 C 74 %
1463 20-12-2019 03:42:17 9.6 C 74 %
1464 20-12-2019 03:52:17 9.6 C 74 %
1465 20-12-2019 04:02:17 9.6 C 74 %
1466 20-12-2019 04:12:17 9.5 C 74 %
1467 20-12-2019 04:22:17 9.6 C 74 %
1468 20-12-2019 04:32:18 9.6 C 74 %
1469 20-12-2019 04:42:18 9.6 C 74 %
1470 20-12-2019 04:52:17 9.6 C 74 %
1471 20-12-2019 05:02:17 9.6 C 74 %
1472 20-12-2019 05:12:17 9.6 C 74 %
1473 20-12-2019 05:22:17 9.6 C 74 %
1474 20-12-2019 05:32:17 9.5 C 74 %
1475 20-12-2019 05:42:17 9.5 C 74 %
Sensor: Nr:Datum:Temp:Feuchte:
G-T/H 1476 20-12-2019 05:52:18 9.5 C 74 %
1477 20-12-2019 06:02:18 9.5 C 74 %
1478 20-12-2019 06:12:18 9.5 C 74 %
1479 20-12-2019 06:22:17 9.5 C 74 %
1480 20-12-2019 06:32:17 9.5 C 74 %
1481 20-12-2019 06:42:17 9.5 C 74 %
1482 20-12-2019 06:52:17 9.6 C 74 %
1483 20-12-2019 07:02:17 9.5 C 74 %
1484 20-12-2019 07:12:17 9.6 C 74 %
1485 20-12-2019 07:22:17 9.5 C 74 %
1486 20-12-2019 07:32:17 9.5 C 74 %
1487 20-12-2019 07:42:17 9.5 C 74 %
1488 20-12-2019 07:52:17 9.5 C 74 %
1489 20-12-2019 08:02:17 9.5 C 74 %
1490 20-12-2019 08:12:17 9.5 C 74 %
1491 20-12-2019 08:22:17 9.5 C 74 %
1492 20-12-2019 08:32:18 9.5 C 75 %
1493 20-12-2019 08:42:18 9.5 C 75 %
1494 20-12-2019 08:52:17 9.5 C 75 %
1495 20-12-2019 09:02:17 9.5 C 75 %
1496 20-12-2019 09:12:17 9.5 C 75 %
1497 20-12-2019 09:22:17 9.5 C 75 %
1498 20-12-2019 09:32:17 9.5 C 75 %
1499 20-12-2019 09:42:17 9.6 C 75 %
1500 20-12-2019 09:52:17 9.5 C 75 %
Sensor: Nr:Datum:Temp:Feuchte:
G-T/H 1501 20-12-2019 10:02:17 9.6 C 75 %
1502 20-12-2019 10:12:17 9.5 C 75 %
1503 20-12-2019 10:22:17 9.5 C 75 %
1504 20-12-2019 10:32:17 9.5 C 75 %
1505 20-12-2019 10:42:17 9.5 C 75 %
1506 20-12-2019 10:52:17 9.6 C 75 %
1507 20-12-2019 11:02:17 9.6 C 75 %
1508 20-12-2019 11:12:17 9.6 C 75 %
1509 20-12-2019 11:22:17 9.5 C 75 %
1510 20-12-2019 11:32:17 9.6 C 75 %
1511 20-12-2019 11:42:17 9.6 C 75 %
1512 20-12-2019 11:52:17 9.6 C 75 %
1513 20-12-2019 12:02:18 9.6 C 75 %
1514 20-12-2019 12:12:18 9.5 C 75 %
1515 20-12-2019 12:22:18 9.5 C 75 %
1516 20-12-2019 12:32:17 9.5 C 75 %
1517 20-12-2019 12:42:18 9.6 C 75 %
1518 20-12-2019 12:52:17 9.6 C 75 %
1519 20-12-2019 13:02:18 9.6 C 75 %
1520 20-12-2019 13:12:18 9.6 C 75 %
1521 20-12-2019 13:22:17 9.6 C 75 %
1522 20-12-2019 13:32:17 9.6 C 75 %
1523 20-12-2019 13:42:17 9.6 C 75 %
1524 20-12-2019 13:52:17 9.6 C 75 %
1525 20-12-2019 14:02:17 9.6 C 75 %
Sensor: Nr:Datum:Temp:Feuchte:
G-T/H 1526 20-12-2019 14:12:17 9.6 C 76 %
1527 20-12-2019 14:22:17 9.6 C 76 %
1528 20-12-2019 14:32:17 9.7 C 76 %
1529 20-12-2019 14:42:17 9.6 C 76 %
1530 20-12-2019 14:52:18 9.7 C 76 %
1531 20-12-2019 15:02:17 9.7 C 76 %
1532 20-12-2019 15:12:17 9.7 C 76 %
1533 20-12-2019 15:22:17 9.7 C 76 %
1534 20-12-2019 15:32:17 9.7 C 76 %
1535 20-12-2019 15:42:17 9.7 C 76 %
1536 20-12-2019 15:52:17 9.7 C 76 %
1537 20-12-2019 16:02:17 9.7 C 76 %
1538 20-12-2019 16:12:18 9.7 C 76 %
1539 20-12-2019 16:22:17 9.7 C 76 %
1540 20-12-2019 16:32:17 9.7 C 76 %
1541 20-12-2019 16:42:17 9.7 C 76 %
1542 20-12-2019 16:52:18 9.8 C 76 %
1543 20-12-2019 17:02:17 9.8 C 76 %
1544 20-12-2019 17:12:18 9.8 C 76 %
1545 20-12-2019 17:22:17 9.8 C 76 %
1546 20-12-2019 17:32:17 9.8 C 76 %
1547 20-12-2019 17:42:17 9.8 C 76 %
1548 20-12-2019 17:52:18 9.8 C 76 %
1549 20-12-2019 18:02:17 9.8 C 76 %
1550 20-12-2019 18:12:17 9.8 C 76 %
Sensor: Nr:Datum:Temp:Feuchte:
G-T/H 1551 20-12-2019 18:22:17 9.9 C 76 %
1552 20-12-2019 18:32:17 9.8 C 76 %
1553 20-12-2019 18:42:17 9.9 C 76 %
1554 20-12-2019 18:52:18 9.9 C 76 %
1555 20-12-2019 19:02:17 9.9 C 76 %
1556 20-12-2019 19:12:17 9.9 C 76 %
1557 20-12-2019 19:22:17 9.9 C 77 %
1558 20-12-2019 19:32:17 9.9 C 77 %
1559 20-12-2019 19:42:17 9.9 C 77 %
1560 20-12-2019 19:52:18 9.9 C 77 %
1561 20-12-2019 20:02:18 10 C 75 %
1562 20-12-2019 20:12:18 9.9 C 77 %
1563 20-12-2019 20:22:17 9.9 C 77 %
1564 20-12-2019 20:32:18 10 C 75 %
1565 20-12-2019 20:42:18 10 C 75 %
1566 20-12-2019 20:52:17 10 C 75 %
1567 20-12-2019 21:02:18 10 C 75 %
1568 20-12-2019 21:12:18 10 C 75 %
1569 20-12-2019 21:22:17 10 C 75 %
1570 20-12-2019 21:32:17 10 C 75 %
1571 20-12-2019 21:42:17 10 C 75 %
1572 20-12-2019 21:52:17 10 C 75 %
1573 20-12-2019 22:02:17 10 C 75 %
1574 20-12-2019 22:12:17 10.1 C 75 %
1575 20-12-2019 22:22:17 10.1 C 75 %
Sensor: Nr:Datum:Temp:Feuchte:
G-T/H 1576 20-12-2019 22:32:17 10.1 C 75 %
1577 20-12-2019 22:42:17 10.1 C 75 %
1578 20-12-2019 22:52:17 10.1 C 75 %
1579 20-12-2019 23:02:17 10.1 C 75 %
1580 20-12-2019 23:12:17 10 C 75 %
1581 20-12-2019 23:22:17 10.1 C 75 %
1582 20-12-2019 23:32:17 10.1 C 75 %
1583 20-12-2019 23:42:17 10.1 C 75 %
1584 20-12-2019 23:52:18 10.1 C 75 %
1585 21-12-2019 00:02:17 10.1 C 75 %
1586 21-12-2019 00:12:17 10.1 C 75 %
1587 21-12-2019 00:22:17 10.1 C 75 %
1588 21-12-2019 00:32:17 10.1 C 75 %
1589 21-12-2019 00:42:17 10.1 C 75 %
1590 21-12-2019 00:52:18 10.1 C 75 %
1591 21-12-2019 01:02:17 10.1 C 75 %
1592 21-12-2019 01:12:17 10.1 C 75 %
1593 21-12-2019 01:22:17 10.1 C 75 %
1594 21-12-2019 01:32:17 10.1 C 75 %
1595 21-12-2019 01:42:17 10.1 C 75 %
1596 21-12-2019 01:52:17 10.1 C 75 %
1597 21-12-2019 02:02:17 10.1 C 75 %
1598 21-12-2019 02:12:17 10.1 C 75 %
1599 21-12-2019 02:22:17 10.2 C 75 %
1600 21-12-2019 02:32:18 10.2 C 75 %
Sensor: Nr:Datum:Temp:Feuchte:
G-T/H 1601 21-12-2019 02:42:18 10.2 C 75 %
1602 21-12-2019 02:52:17 10.2 C 75 %
1603 21-12-2019 03:02:17 10.2 C 75 %
1604 21-12-2019 03:12:17 10.2 C 75 %
1605 21-12-2019 03:22:17 10.2 C 75 %
1606 21-12-2019 03:32:18 10.2 C 75 %
1607 21-12-2019 03:42:18 10.2 C 75 %
1608 21-12-2019 03:52:17 10.2 C 75 %
1609 21-12-2019 04:02:17 10.2 C 75 %
1610 21-12-2019 04:12:17 10.2 C 75 %
1611 21-12-2019 04:22:17 10.2 C 75 %
1612 21-12-2019 04:32:18 10.2 C 75 %
1613 21-12-2019 04:42:18 10.2 C 75 %
1614 21-12-2019 04:52:17 10.2 C 75 %
1615 21-12-2019 05:02:17 10.2 C 75 %
1616 21-12-2019 05:12:17 10.2 C 75 %
1617 21-12-2019 05:22:17 10.2 C 75 %
1618 21-12-2019 05:32:18 10.2 C 75 %
1619 21-12-2019 05:42:18 10.2 C 75 %
1620 21-12-2019 05:52:17 10.2 C 75 %
1621 21-12-2019 06:02:17 10.2 C 75 %
1622 21-12-2019 06:12:17 10.2 C 75 %
1623 21-12-2019 06:22:18 10.2 C 75 %
1624 21-12-2019 06:32:17 10.1 C 75 %
1625 21-12-2019 06:42:17 10.1 C 75 %
Sensor: Nr:Datum:Temp:Feuchte:
G-T/H 1626 21-12-2019 06:52:18 10.2 C 75 %
1627 21-12-2019 07:02:17 10.1 C 75 %
1628 21-12-2019 07:12:18 10.1 C 75 %
1629 21-12-2019 07:22:17 10.1 C 75 %
1630 21-12-2019 07:32:17 10.1 C 75 %
1631 21-12-2019 07:42:17 10.1 C 75 %
1632 21-12-2019 07:52:17 10.1 C 75 %
1633 21-12-2019 08:02:17 10.1 C 74 %
1634 21-12-2019 08:12:17 10.1 C 74 %
1635 21-12-2019 08:22:17 10.1 C 74 %
1636 21-12-2019 08:32:17 10.1 C 74 %
1637 21-12-2019 08:42:17 10.1 C 74 %
1638 21-12-2019 08:52:17 10.1 C 74 %
1639 21-12-2019 09:02:17 10.1 C 74 %
1640 21-12-2019 09:12:17 10.1 C 74 %
1641 21-12-2019 09:22:17 10.1 C 74 %
1642 21-12-2019 09:32:17 10.1 C 74 %
1643 21-12-2019 09:42:17 10.1 C 74 %
1644 21-12-2019 09:52:17 10 C 74 %
1645 21-12-2019 10:02:17 10 C 74 %
1646 21-12-2019 10:12:17 10 C 74 %
1647 21-12-2019 10:22:17 10 C 74 %
1648 21-12-2019 10:32:17 10 C 74 %
1649 21-12-2019 10:42:17 10 C 74 %
1650 21-12-2019 10:52:17 10 C 74 %
Sensor: Nr:Datum:Temp:Feuchte:
G-T/H 1651 21-12-2019 11:02:17 10 C 74 %
1652 21-12-2019 11:12:17 10 C 74 %
1653 21-12-2019 11:22:17 10 C 74 %
1654 21-12-2019 11:32:17 10 C 74 %
1655 21-12-2019 11:42:17 10 C 74 %
1656 21-12-2019 11:52:17 10.1 C 74 %
1657 21-12-2019 12:02:17 10.1 C 74 %
1658 21-12-2019 12:12:17 10.2 C 74 %
1659 21-12-2019 12:22:17 10.1 C 74 %
1660 21-12-2019 12:32:17 10.1 C 74 %
1661 21-12-2019 12:42:17 10.1 C 74 %
1662 21-12-2019 12:52:17 10.1 C 74 %
1663 21-12-2019 13:02:17 10.1 C 74 %
1664 21-12-2019 13:12:17 10 C